Darstellungsparameter: Aktuell verwendete Einstellungen:
Skalierung der Graphiken ... ?
xyx+y,   Skalierungsfaktor:      Skalierung: Modus: x, Faktor: 1
Darstellungszeitraum ... ?
Vom - - bis: - -   Zeitraum: 17.05.2010 - 16.05.2020
Min/Max/Avg-Anzeige ... ?
Zeige MMA aktuell
Zeige MMA Monat
Zeige MMA alles
Zeige --A aktuell
Zeige --A Monat
Zeige --A alles
Keine MMA-Anzeige
MMA:
Keine MMA-Graphiken
MMA-Basis: 17.05.2010 - 16.05.2020
Quicknavigation für Darstellung... ?
Tage:      1T, 2T, 3T, 5T -1T -2T -3T -5T +1T +2T +3T +5T
Wochen: 1W, 2W, 3W -1W -2W -3W +1W +2W +3W
Monate: 1M, 3M, 6M -1M -3M -6M +1M +3M +6M
Jahre:    1J, 3J, 5J, 10J -1J -3J -5J -10J +1J +3J +5J +10J
Nutze für die Darstellung ... ?
Originaldaten oder ...
Mittelwerte Minima Maxima auf...
Stundenbasis Tagesbasis Wochenbasis
Monatsbasis Jahresbasis      Datenbasis: Mittelwerte auf Stundenbasis
Darstellen als:
Statistik (Auto) Statistik J:M      Darstellung:
Zur Graphik,    zurück zur Übersicht aller Sensoren.
 
Tabellarische Datenbersicht: ?
 
Sensor: Nr:Datum:Temp:Abs-Feuchte:Windchill:Wind:
Aussen-T/F 1 17-05-2010 00:00:00 10.12 C 5.96 g/m*3 10.12 C 0 km/h
2 17-05-2010 01:00:00 9.36 C 5.99 g/m*3 9.36 C 0 km/h
3 17-05-2010 02:00:00 8.56 C 6.14 g/m*3 8.56 C 0 km/h
4 17-05-2010 03:00:00 7.64 C 6.12 g/m*3 7.64 C 0 km/h
5 17-05-2010 04:00:00 6.96 C 6.11 g/m*3 6.96 C 0 km/h
6 17-05-2010 05:00:00 6.22 C 6.08 g/m*3 6.22 C 0 km/h
7 17-05-2010 06:00:00 6 C 6.05 g/m*3 6 C 0 km/h
8 17-05-2010 07:00:00 7.08 C 6.18 g/m*3 7.08 C 0 km/h
9 17-05-2010 08:00:00 9.42 C 6.28 g/m*3 9.42 C 0 km/h
10 17-05-2010 09:00:00 11.88 C 6.43 g/m*3 11.88 C 0 km/h
11 17-05-2010 10:00:00 13.7 C 6.39 g/m*3 13.7 C 0 km/h
12 17-05-2010 11:00:00 13.6 C 6.87 g/m*3 13.6 C 0 km/h
13 17-05-2010 12:00:00 13.88 C 7.45 g/m*3 13.88 C 0 km/h
14 17-05-2010 13:00:00 16.62 C 6.68 g/m*3 16.62 C 0 km/h
15 17-05-2010 14:00:00 15.88 C 6.98 g/m*3 15.88 C 0 km/h
16 17-05-2010 15:00:00 12.66 C 9.22 g/m*3 12.66 C 0 km/h
17 17-05-2010 16:00:00 13.44 C 9.46 g/m*3 13.44 C 0 km/h
18 17-05-2010 17:00:00 13.86 C 8.92 g/m*3 13.86 C 0 km/h
19 17-05-2010 18:00:00 12.1 C 7.59 g/m*3 12.1 C 0 km/h
20 17-05-2010 19:00:00 10.04 C 7.8 g/m*3 10.04 C 0 km/h
21 17-05-2010 20:00:00 9.46 C 7.86 g/m*3 9.46 C 0 km/h
22 17-05-2010 21:00:00 8.88 C 7.82 g/m*3 8.88 C 0 km/h
23 17-05-2010 22:00:00 8.5 C 7.82 g/m*3 8.5 C 0 km/h
24 17-05-2010 23:00:00 7.8 C 7.52 g/m*3 7.8 C 0 km/h
25 18-05-2010 00:00:00 7.08 C 7.18 g/m*3 7.08 C 0 km/h
Sensor: Nr:Datum:Temp:Abs-Feuchte:Windchill:Wind:
Aussen-T/F 26 18-05-2010 01:00:00 6.46 C 6.94 g/m*3 6.46 C 0 km/h
27 18-05-2010 02:00:00 6.1 C 6.79 g/m*3 6.1 C 0 km/h
28 18-05-2010 03:00:00 5.8 C 6.69 g/m*3 5.8 C 0 km/h
29 18-05-2010 04:00:00 6.28 C 6.93 g/m*3 6.28 C 0 km/h
30 18-05-2010 05:00:00 6.5 C 7 g/m*3 6.5 C 0 km/h
31 18-05-2010 06:00:00 7.14 C 7.21 g/m*3 7.14 C 0 km/h
32 18-05-2010 07:00:00 8.2 C 7.47 g/m*3 8.2 C 0 km/h
33 18-05-2010 08:00:00 9.04 C 6.68 g/m*3 9.04 C 0 km/h
34 18-05-2010 09:00:00 9.7 C 6.27 g/m*3 9.7 C 0 km/h
35 18-05-2010 10:00:00 10.84 C 5.79 g/m*3 10.84 C 0 km/h
36 18-05-2010 11:00:00 12.74 C 5.31 g/m*3 12.74 C 0 km/h
37 18-05-2010 12:00:00 14.04 C 4.93 g/m*3 14.04 C 0 km/h
38 18-05-2010 13:00:00 16.76 C 4.48 g/m*3 16.76 C 0 km/h
39 18-05-2010 14:00:00 15.6 C 4.2 g/m*3 15.6 C 0 km/h
40 18-05-2010 15:00:00 16.48 C 4.15 g/m*3 16.48 C 0 km/h
41 18-05-2010 16:00:00 17.74 C 3.51 g/m*3 17.74 C 0 km/h
42 18-05-2010 17:00:00 17.16 C 3.77 g/m*3 17.16 C 0 km/h
43 18-05-2010 18:00:00 17.18 C 3.95 g/m*3 17.18 C 0 km/h
44 18-05-2010 19:00:00 15.32 C 4.45 g/m*3 15.32 C 0 km/h
45 18-05-2010 20:00:00 14.26 C 4.83 g/m*3 14.26 C 0 km/h
46 18-05-2010 21:00:00 12.8 C 4.68 g/m*3 12.8 C 0 km/h
47 18-05-2010 22:00:00 11.44 C 4.57 g/m*3 11.44 C 0 km/h
48 18-05-2010 23:00:00 9.98 C 5.41 g/m*3 9.98 C 0 km/h
49 19-05-2010 00:00:00 9.32 C 5.76 g/m*3 9.32 C 0 km/h
50 19-05-2010 01:00:00 9.28 C 5.37 g/m*3 9.28 C 0 km/h
Sensor: Nr:Datum:Temp:Abs-Feuchte:Windchill:Wind:
Aussen-T/F 51 19-05-2010 02:00:00 9.06 C 5.33 g/m*3 9.06 C 0 km/h
52 19-05-2010 03:00:00 8.68 C 5.36 g/m*3 8.68 C 0 km/h
53 19-05-2010 04:00:00 8.16 C 5.55 g/m*3 8.16 C 0 km/h
54 19-05-2010 05:00:00 7.92 C 5.86 g/m*3 7.92 C 0 km/h
55 19-05-2010 06:00:00 8.04 C 5.93 g/m*3 8.04 C 0 km/h
56 19-05-2010 07:00:00 8.66 C 5.9 g/m*3 8.66 C 0 km/h
57 19-05-2010 08:00:00 9.14 C 5.62 g/m*3 9.14 C 0 km/h
58 19-05-2010 09:00:00 9.18 C 5.73 g/m*3 9.18 C 0 km/h
59 19-05-2010 10:00:00 9.62 C 5.72 g/m*3 9.62 C 0 km/h
60 19-05-2010 11:00:00 10.22 C 5.81 g/m*3 10.22 C 0 km/h
61 19-05-2010 12:00:00 11.02 C 5.83 g/m*3 11.02 C 0 km/h
62 19-05-2010 13:00:00 11.54 C 5.92 g/m*3 11.54 C 0 km/h
63 19-05-2010 14:00:00 11.46 C 6.78 g/m*3 11.46 C 0 km/h
64 19-05-2010 15:00:00 11.4 C 7.76 g/m*3 11.4 C 0 km/h
65 19-05-2010 16:00:00 10.78 C 8.08 g/m*3 10.78 C 0 km/h
66 19-05-2010 17:00:00 10.68 C 8.32 g/m*3 10.68 C 0 km/h
67 19-05-2010 18:00:00 11.14 C 8.22 g/m*3 11.14 C 0 km/h
68 19-05-2010 19:00:00 11.48 C 8.03 g/m*3 11.48 C 0 km/h
69 19-05-2010 20:00:00 11.76 C 7.73 g/m*3 11.76 C 0 km/h
70 19-05-2010 21:00:00 12.94 C 5.83 g/m*3 12.94 C 0 km/h
71 19-05-2010 22:00:00 13.06 C 5.69 g/m*3 13.06 C 0 km/h
72 19-05-2010 23:00:00 12.8 C 5.82 g/m*3 12.8 C 0 km/h
73 20-05-2010 00:00:00 12.9 C 5.21 g/m*3 12.9 C 0 km/h
74 20-05-2010 01:00:00 12.5 C 5.41 g/m*3 12.5 C 0 km/h
75 20-05-2010 02:00:00 11.9 C 5.61 g/m*3 11.9 C 0 km/h
Sensor: Nr:Datum:Temp:Abs-Feuchte:Windchill:Wind:
Aussen-T/F 76 20-05-2010 03:00:00 11.52 C 5.5 g/m*3 11.52 C 0 km/h
77 20-05-2010 04:00:00 11.16 C 5.3 g/m*3 11.16 C 0 km/h
78 20-05-2010 05:00:00 11.02 C 5.23 g/m*3 11.02 C 0 km/h
79 20-05-2010 06:00:00 11.02 C 5.19 g/m*3 11.02 C 0 km/h
80 20-05-2010 07:00:00 11.26 C 5.25 g/m*3 11.26 C 0 km/h
81 20-05-2010 08:00:00 11.14 C 5.35 g/m*3 11.14 C 0 km/h
82 20-05-2010 09:00:00 11.82 C 5.42 g/m*3 11.82 C 0 km/h
83 20-05-2010 10:00:00 12.3 C 5.39 g/m*3 12.3 C 0 km/h
84 20-05-2010 11:00:00 13.1 C 5.16 g/m*3 13.1 C 0 km/h
85 20-05-2010 12:00:00 14.04 C 4.89 g/m*3 14.04 C 0 km/h
86 20-05-2010 13:00:00 13.42 C 6.08 g/m*3 13.42 C 0 km/h
87 20-05-2010 14:00:00 13.58 C 7.59 g/m*3 13.58 C 0 km/h
88 20-05-2010 15:00:00 12.74 C 7.68 g/m*3 12.74 C 0 km/h
89 20-05-2010 16:00:00 12.76 C 7.71 g/m*3 12.76 C 0 km/h
90 20-05-2010 17:00:00 14 C 7.74 g/m*3 14 C 0 km/h
91 20-05-2010 18:00:00 14.7 C 7.88 g/m*3 14.7 C 0 km/h
92 20-05-2010 19:00:00 14.8 C 8.18 g/m*3 14.8 C 0 km/h
93 20-05-2010 20:00:00 14.36 C 7.92 g/m*3 14.36 C 0 km/h
94 20-05-2010 21:00:00 12.98 C 7.61 g/m*3 12.98 C 0 km/h
95 20-05-2010 22:00:00 12.3 C 7.21 g/m*3 12.3 C 0 km/h
96 20-05-2010 23:00:00 11.9 C 7.54 g/m*3 11.9 C 0 km/h
97 21-05-2010 00:00:00 10.64 C 7.3 g/m*3 10.64 C 0 km/h
98 21-05-2010 01:00:00 10.14 C 7.3 g/m*3 10.14 C 0 km/h
99 21-05-2010 02:00:00 9.5 C 7.26 g/m*3 9.5 C 0 km/h
100 21-05-2010 03:00:00 8.62 C 7.26 g/m*3 8.62 C 0 km/h
Sensor: Nr:Datum:Temp:Abs-Feuchte:Windchill:Wind:
Aussen-T/F 101 21-05-2010 04:00:00 7.88 C 7.12 g/m*3 7.88 C 0 km/h
102 21-05-2010 05:00:00 8.1 C 7.32 g/m*3 8.1 C 0 km/h
103 21-05-2010 06:00:00 8.08 C 7.43 g/m*3 8.08 C 0 km/h
104 21-05-2010 07:00:00 8.52 C 7.57 g/m*3 8.52 C 0 km/h
105 21-05-2010 08:00:00 9.2 C 7.55 g/m*3 9.2 C 0 km/h
106 21-05-2010 09:00:00 10.82 C 7.9 g/m*3 10.82 C 0 km/h
107 21-05-2010 10:00:00 14.58 C 8.3 g/m*3 14.58 C 0 km/h
108 21-05-2010 11:00:00 18.46 C 7.36 g/m*3 18.46 C 0 km/h
109 21-05-2010 12:00:00 20.54 C 6.03 g/m*3 20.54 C 0 km/h
110 21-05-2010 13:00:00 23.78 C 5.11 g/m*3 23.78 C 0 km/h
111 21-05-2010 14:00:00 23.88 C 5.23 g/m*3 23.88 C 0 km/h
112 21-05-2010 15:00:00 25.42 C 5.14 g/m*3 25.42 C 0 km/h
113 21-05-2010 16:00:00 25.28 C 4.86 g/m*3 25.28 C 0 km/h
114 21-05-2010 17:00:00 26.14 C 4.91 g/m*3 26.14 C 0 km/h
115 21-05-2010 18:00:00 25.94 C 5.05 g/m*3 25.94 C 0 km/h
116 21-05-2010 19:00:00 24.44 C 5.8 g/m*3 24.44 C 0 km/h
117 21-05-2010 20:00:00 22.66 C 6.25 g/m*3 22.66 C 0 km/h
118 21-05-2010 21:00:00 20.08 C 6.6 g/m*3 20.08 C 0 km/h
119 21-05-2010 22:00:00 18.08 C 7.16 g/m*3 18.08 C 0 km/h
120 21-05-2010 23:00:00 16.26 C 7.28 g/m*3 16.26 C 0 km/h
121 22-05-2010 00:00:00 15.08 C 7.63 g/m*3 15.08 C 0 km/h
122 22-05-2010 01:00:00 13.88 C 7.83 g/m*3 13.88 C 0 km/h
123 22-05-2010 02:00:00 12.74 C 7.92 g/m*3 12.74 C 0 km/h
124 22-05-2010 03:00:00 12 C 7.93 g/m*3 12 C 0 km/h
125 22-05-2010 04:00:00 11.06 C 7.9 g/m*3 11.06 C 0 km/h
Sensor: Nr:Datum:Temp:Abs-Feuchte:Windchill:Wind:
Aussen-T/F 126 22-05-2010 05:00:00 10.3 C 7.78 g/m*3 10.3 C 0 km/h
127 22-05-2010 06:00:00 9.96 C 7.74 g/m*3 9.96 C 0 km/h
128 22-05-2010 07:00:00 10.54 C 7.97 g/m*3 10.54 C 0 km/h
129 22-05-2010 08:00:00 12.32 C 7.96 g/m*3 12.32 C 0 km/h
130 22-05-2010 09:00:00 14 C 7.33 g/m*3 14 C 0 km/h
131 22-05-2010 10:00:00 16.16 C 6.3 g/m*3 16.16 C 0 km/h
132 22-05-2010 11:00:00 18.3 C 6.1 g/m*3 18.3 C 0 km/h
133 22-05-2010 12:00:00 21.18 C 5.85 g/m*3 21.18 C 0 km/h
134 22-05-2010 13:00:00 24.24 C 5.6 g/m*3 24.24 C 0 km/h
135 22-05-2010 14:00:00 23.96 C 5.6 g/m*3 23.96 C 0 km/h
136 22-05-2010 15:00:00 25.34 C 5.96 g/m*3 25.34 C 0 km/h
137 22-05-2010 16:00:00 25.9 C 6.15 g/m*3 25.9 C 0 km/h
138 22-05-2010 17:00:00 26.88 C 6.39 g/m*3 26.88 C 0 km/h
139 22-05-2010 18:00:00 26.56 C 6.53 g/m*3 26.56 C 0 km/h
140 22-05-2010 19:00:00 26.3 C 6.68 g/m*3 26.3 C 0 km/h
141 22-05-2010 20:00:00 24.48 C 7.24 g/m*3 24.48 C 0 km/h
142 22-05-2010 21:00:00 21.4 C 7.39 g/m*3 21.4 C 0 km/h
143 22-05-2010 22:00:00 19.34 C 7.12 g/m*3 19.34 C 0 km/h
144 22-05-2010 23:00:00 17.9 C 7.48 g/m*3 17.9 C 0 km/h
145 23-05-2010 00:00:00 16.64 C 7.84 g/m*3 16.64 C 0 km/h
146 23-05-2010 01:00:00 15.14 C 8.23 g/m*3 15.14 C 0 km/h
147 23-05-2010 02:00:00 14.14 C 8.39 g/m*3 14.14 C 0 km/h
148 23-05-2010 03:00:00 13.42 C 8.5 g/m*3 13.42 C 0 km/h
149 23-05-2010 04:00:00 12.58 C 8.49 g/m*3 12.58 C 0 km/h
150 23-05-2010 05:00:00 11.92 C 8.38 g/m*3 11.92 C 0 km/h
Sensor: Nr:Datum:Temp:Abs-Feuchte:Windchill:Wind:
Aussen-T/F 151 23-05-2010 06:00:00 11.52 C 8.34 g/m*3 11.52 C 0 km/h
152 23-05-2010 07:00:00 11.94 C 8.66 g/m*3 11.94 C 0 km/h
153 23-05-2010 08:00:00 13.84 C 9.24 g/m*3 13.84 C 0 km/h
154 23-05-2010 09:00:00 16.18 C 9.28 g/m*3 16.18 C 0 km/h
155 23-05-2010 10:00:00 19.2 C 9.33 g/m*3 19.2 C 0 km/h
156 23-05-2010 11:00:00 20.9 C 8.63 g/m*3 20.9 C 0 km/h
157 23-05-2010 12:00:00 23.64 C 7.03 g/m*3 23.64 C 0 km/h
158 23-05-2010 13:00:00 26.36 C 5.07 g/m*3 26.36 C 0 km/h
159 23-05-2010 14:00:00 26.1 C 5.63 g/m*3 26.1 C 0 km/h
160 23-05-2010 15:00:00 27.88 C 5.78 g/m*3 27.88 C 0 km/h
161 23-05-2010 16:00:00 28.74 C 5.66 g/m*3 28.74 C 0 km/h
162 23-05-2010 17:00:00 29.64 C 6.07 g/m*3 29.64 C 0 km/h
163 23-05-2010 18:00:00 28.82 C 6.6 g/m*3 28.82 C 0 km/h
164 23-05-2010 19:00:00 28.12 C 6.79 g/m*3 28.12 C 0 km/h
165 23-05-2010 20:00:00 26.48 C 7.35 g/m*3 26.48 C 0 km/h
166 23-05-2010 21:00:00 23.54 C 7.8 g/m*3 23.54 C 0 km/h
167 23-05-2010 22:00:00 21.36 C 8.49 g/m*3 21.36 C 0 km/h
168 23-05-2010 23:00:00 19.6 C 8.95 g/m*3 19.6 C 0 km/h
169 24-05-2010 00:00:00 17.84 C 9.19 g/m*3 17.84 C 0 km/h
170 24-05-2010 01:00:00 16.58 C 9.4 g/m*3 16.58 C 0 km/h
171 24-05-2010 02:00:00 15.46 C 9.44 g/m*3 15.46 C 0 km/h
172 24-05-2010 03:00:00 14.5 C 9.3 g/m*3 14.5 C 0 km/h
173 24-05-2010 04:00:00 13.82 C 9.19 g/m*3 13.82 C 0 km/h
174 24-05-2010 05:00:00 13.12 C 8.87 g/m*3 13.12 C 0 km/h
175 24-05-2010 06:00:00 12.74 C 8.95 g/m*3 12.74 C 0 km/h
Sensor: Nr:Datum:Temp:Abs-Feuchte:Windchill:Wind:
Aussen-T/F 176 24-05-2010 07:00:00 13.6 C 9.25 g/m*3 13.6 C 0 km/h
177 24-05-2010 08:00:00 14.88 C 9.52 g/m*3 14.88 C 0 km/h
178 24-05-2010 09:00:00 17.62 C 9.79 g/m*3 17.62 C 0 km/h
179 24-05-2010 10:00:00 21.1 C 9.51 g/m*3 21.1 C 0 km/h
180 24-05-2010 11:00:00 23.82 C 8.79 g/m*3 23.82 C 0 km/h
181 24-05-2010 12:00:00 26.18 C 7.23 g/m*3 26.18 C 0 km/h
182 24-05-2010 13:00:00 26.9 C 6.5 g/m*3 26.9 C 0 km/h
183 24-05-2010 14:00:00 28.28 C 6.41 g/m*3 28.28 C 0 km/h
184 24-05-2010 15:00:00 28.18 C 6.43 g/m*3 28.18 C 0 km/h
185 24-05-2010 16:00:00 27.62 C 6.5 g/m*3 27.62 C 0 km/h
186 24-05-2010 17:00:00 28.2 C 5.66 g/m*3 28.2 C 0 km/h
187 24-05-2010 18:00:00 28.58 C 5.67 g/m*3 28.58 C 0 km/h
188 24-05-2010 19:00:00 28.36 C 5.77 g/m*3 28.36 C 0 km/h
189 24-05-2010 20:00:00 26.64 C 6.61 g/m*3 26.64 C 0 km/h
190 24-05-2010 21:00:00 23.78 C 7.22 g/m*3 23.78 C 0 km/h
191 24-05-2010 22:00:00 21.86 C 7.93 g/m*3 21.86 C 0 km/h
192 24-05-2010 23:00:00 19.86 C 8.3 g/m*3 19.86 C 0 km/h
193 25-05-2010 00:00:00 18.5 C 8.54 g/m*3 18.5 C 0 km/h
194 25-05-2010 01:00:00 17.18 C 8.86 g/m*3 17.18 C 0 km/h
195 25-05-2010 02:00:00 16 C 8.94 g/m*3 16 C 0 km/h
196 25-05-2010 03:00:00 14.96 C 9.11 g/m*3 14.96 C 0 km/h
197 25-05-2010 04:00:00 14.18 C 9.17 g/m*3 14.18 C 0 km/h
198 25-05-2010 05:00:00 13.9 C 9.11 g/m*3 13.9 C 0 km/h
199 25-05-2010 06:00:00 14.58 C 9.22 g/m*3 14.58 C 0 km/h
200 25-05-2010 07:00:00 15.6 C 9.12 g/m*3 15.6 C 0 km/h
Sensor: Nr:Datum:Temp:Abs-Feuchte:Windchill:Wind:
Aussen-T/F 201 25-05-2010 08:00:00 16.78 C 9.14 g/m*3 16.78 C 0 km/h
202 25-05-2010 09:00:00 18.62 C 8.03 g/m*3 18.62 C 0 km/h
203 25-05-2010 10:00:00 20.62 C 6.84 g/m*3 20.62 C 0 km/h
204 25-05-2010 11:00:00 21.64 C 6.46 g/m*3 21.64 C 0 km/h
205 25-05-2010 12:00:00 23.94 C 5.68 g/m*3 23.94 C 0 km/h
206 25-05-2010 13:00:00 26.72 C 5.32 g/m*3 26.72 C 0 km/h
207 25-05-2010 14:00:00 26.32 C 5.55 g/m*3 26.32 C 0 km/h
208 25-05-2010 15:00:00 26.9 C 5.73 g/m*3 26.9 C 0 km/h
209 25-05-2010 16:00:00 27.92 C 5.85 g/m*3 27.92 C 0 km/h
210 25-05-2010 17:00:00 28.06 C 6 g/m*3 28.06 C 0 km/h
211 25-05-2010 18:00:00 26.32 C 5.7 g/m*3 26.32 C 0 km/h
212 25-05-2010 19:00:00 24.46 C 5.94 g/m*3 24.46 C 0 km/h
213 25-05-2010 20:00:00 22.84 C 6.23 g/m*3 22.84 C 0 km/h
214 25-05-2010 21:00:00 21.18 C 6.89 g/m*3 21.18 C 0 km/h
215 25-05-2010 22:00:00 19.44 C 6.89 g/m*3 19.44 C 0 km/h
216 25-05-2010 23:00:00 18.84 C 6.84 g/m*3 18.84 C 0 km/h
217 26-05-2010 00:00:00 18.52 C 6.56 g/m*3 18.52 C 0 km/h
218 26-05-2010 01:00:00 16.86 C 6.94 g/m*3 16.86 C 0 km/h
219 26-05-2010 02:00:00 14.42 C 8.56 g/m*3 14.42 C 0 km/h
220 26-05-2010 03:00:00 14.6 C 8.43 g/m*3 14.6 C 0 km/h
221 26-05-2010 04:00:00 14.72 C 7.69 g/m*3 14.72 C 0 km/h
222 26-05-2010 05:00:00 14.66 C 7.36 g/m*3 14.66 C 0 km/h
223 26-05-2010 06:00:00 14.68 C 7.8 g/m*3 14.68 C 0 km/h
224 26-05-2010 07:00:00 15.68 C 6.66 g/m*3 15.68 C 0 km/h
225 26-05-2010 08:00:00 15.96 C 6.44 g/m*3 15.96 C 0 km/h
Sensor: Nr:Datum:Temp:Abs-Feuchte:Windchill:Wind:
Aussen-T/F 226 26-05-2010 09:00:00 16.68 C 6.47 g/m*3 16.68 C 0 km/h
227 26-05-2010 10:00:00 15.12 C 8.11 g/m*3 15.12 C 0 km/h
228 26-05-2010 11:00:00 13.24 C 9.6 g/m*3 13.24 C 0 km/h
229 26-05-2010 12:00:00 13.1 C 9.86 g/m*3 13.1 C 0 km/h
230 26-05-2010 13:00:00 12.88 C 9.77 g/m*3 12.88 C 0 km/h
231 26-05-2010 14:00:00 15.2 C 9.73 g/m*3 15.2 C 0 km/h
232 26-05-2010 15:00:00 14.76 C 9.83 g/m*3 14.76 C 0 km/h
233 26-05-2010 16:00:00 18.96 C 10.63 g/m*3 18.96 C 0 km/h
234 26-05-2010 17:00:00 16.38 C 11.38 g/m*3 16.38 C 0 km/h
235 26-05-2010 18:00:00 17.22 C 12.64 g/m*3 17.22 C 0 km/h
236 26-05-2010 19:00:00 18.98 C 12.83 g/m*3 18.98 C 0 km/h
237 26-05-2010 20:00:00 16.86 C 11.77 g/m*3 16.86 C 0 km/h
238 26-05-2010 21:00:00 15.2 C 10.64 g/m*3 15.2 C 0 km/h
239 26-05-2010 22:00:00 12.86 C 8.84 g/m*3 12.86 C 0 km/h
240 26-05-2010 23:00:00 12.52 C 8.5 g/m*3 12.52 C 0 km/h
241 27-05-2010 00:00:00 12.36 C 8.39 g/m*3 12.36 C 0 km/h
242 27-05-2010 01:00:00 11.9 C 8.15 g/m*3 11.9 C 0 km/h
243 27-05-2010 02:00:00 11.24 C 8.11 g/m*3 11.24 C 0 km/h
244 27-05-2010 03:00:00 11.16 C 7.97 g/m*3 11.16 C 0 km/h
245 27-05-2010 04:00:00 10.88 C 7.85 g/m*3 10.88 C 0 km/h
246 27-05-2010 05:00:00 10.74 C 7.78 g/m*3 10.74 C 0 km/h
247 27-05-2010 06:00:00 11 C 7.85 g/m*3 11 C 0 km/h
248 27-05-2010 07:00:00 11.3 C 7.96 g/m*3 11.3 C 0 km/h
249 27-05-2010 08:00:00 11.72 C 8.06 g/m*3 11.72 C 0 km/h
250 27-05-2010 09:00:00 12.02 C 7.79 g/m*3 12.02 C 0 km/h
Sensor: Nr:Datum:Temp:Abs-Feuchte:Windchill:Wind:
Aussen-T/F 251 27-05-2010 10:00:00 13.04 C 7.55 g/m*3 13.04 C 0 km/h
252 27-05-2010 11:00:00 14.8 C 7.12 g/m*3 14.8 C 0 km/h
253 27-05-2010 12:00:00 16.14 C 6.73 g/m*3 16.14 C 0 km/h
254 27-05-2010 13:00:00 17.44 C 6.57 g/m*3 17.44 C 0 km/h
255 27-05-2010 14:00:00 20.62 C 6.63 g/m*3 20.62 C 0 km/h
256 27-05-2010 15:00:00 22.3 C 6.4 g/m*3 22.3 C 0 km/h
257 27-05-2010 16:00:00 23.36 C 6.46 g/m*3 23.36 C 0 km/h
258 27-05-2010 17:00:00 23.44 C 6.66 g/m*3 23.44 C 0 km/h
259 27-05-2010 18:00:00 23.08 C 7.14 g/m*3 23.08 C 0 km/h
260 27-05-2010 19:00:00 20.84 C 8.35 g/m*3 20.84 C 0 km/h
261 27-05-2010 20:00:00 18.04 C 8.9 g/m*3 18.04 C 0 km/h
262 27-05-2010 21:00:00 15.78 C 9.55 g/m*3 15.78 C 0 km/h
263 27-05-2010 22:00:00 16.06 C 9.27 g/m*3 16.06 C 0 km/h
264 27-05-2010 23:00:00 15.56 C 9.71 g/m*3 15.56 C 0 km/h
265 28-05-2010 00:00:00 15 C 9.64 g/m*3 15 C 0 km/h
266 28-05-2010 01:00:00 15.14 C 9.16 g/m*3 15.14 C 0 km/h
267 28-05-2010 02:00:00 14.86 C 9.23 g/m*3 14.86 C 0 km/h
268 28-05-2010 03:00:00 14.78 C 9.16 g/m*3 14.78 C 0 km/h
269 28-05-2010 04:00:00 14.36 C 9.2 g/m*3 14.36 C 0 km/h
270 28-05-2010 05:00:00 13.7 C 9.88 g/m*3 13.7 C 0 km/h
271 28-05-2010 06:00:00 13.62 C 10.11 g/m*3 13.62 C 0 km/h
272 28-05-2010 07:00:00 13.98 C 10.48 g/m*3 13.98 C 0 km/h
273 28-05-2010 08:00:00 14.36 C 10.58 g/m*3 14.36 C 0 km/h
274 28-05-2010 09:00:00 15.12 C 9.71 g/m*3 15.12 C 0 km/h
275 28-05-2010 10:00:00 15.64 C 8.56 g/m*3 15.64 C 0 km/h
Sensor: Nr:Datum:Temp:Abs-Feuchte:Windchill:Wind:
Aussen-T/F 276 28-05-2010 11:00:00 17.2 C 7.26 g/m*3 17.2 C 0 km/h
277 28-05-2010 12:00:00 18.4 C 7.14 g/m*3 18.4 C 0 km/h
278 28-05-2010 13:00:00 20.24 C 6.62 g/m*3 20.24 C 0 km/h
279 28-05-2010 14:00:00 19.4 C 6.21 g/m*3 19.4 C 0 km/h
280 28-05-2010 15:00:00 21.72 C 5.46 g/m*3 21.72 C 0 km/h
281 28-05-2010 16:00:00 23.06 C 4.37 g/m*3 23.06 C 0 km/h
282 28-05-2010 17:00:00 23.2 C 4.16 g/m*3 23.2 C 0 km/h
283 28-05-2010 18:00:00 22.62 C 4.1 g/m*3 22.62 C 0 km/h
284 28-05-2010 19:00:00 22.14 C 4.66 g/m*3 22.14 C 0 km/h
285 28-05-2010 20:00:00 19.68 C 4.99 g/m*3 19.68 C 0 km/h
286 28-05-2010 21:00:00 17.54 C 5.35 g/m*3 17.54 C 0 km/h
287 28-05-2010 22:00:00 15.56 C 5.94 g/m*3 15.56 C 0 km/h
288 28-05-2010 23:00:00 14.06 C 6.22 g/m*3 14.06 C 0 km/h
289 29-05-2010 00:00:00 12.86 C 6.63 g/m*3 12.86 C 0 km/h
290 29-05-2010 01:00:00 11.92 C 6.77 g/m*3 11.92 C 0 km/h
291 29-05-2010 02:00:00 10.82 C 6.95 g/m*3 10.82 C 0 km/h
292 29-05-2010 03:00:00 9.98 C 7.02 g/m*3 9.98 C 0 km/h
293 29-05-2010 04:00:00 9.7 C 7.08 g/m*3 9.7 C 0 km/h
294 29-05-2010 05:00:00 9.48 C 7 g/m*3 9.48 C 0 km/h
295 29-05-2010 06:00:00 9.78 C 7.13 g/m*3 9.78 C 0 km/h
296 29-05-2010 07:00:00 10.18 C 7.15 g/m*3 10.18 C 0 km/h
297 29-05-2010 08:00:00 11.24 C 7.19 g/m*3 11.24 C 0 km/h
298 29-05-2010 09:00:00 12.86 C 7.06 g/m*3 12.86 C 0 km/h
299 29-05-2010 10:00:00 16.9 C 7.11 g/m*3 16.9 C 0 km/h
300 29-05-2010 11:00:00 18.66 C 7.32 g/m*3 18.66 C 0 km/h
Sensor: Nr:Datum:Temp:Abs-Feuchte:Windchill:Wind:
Aussen-T/F 301 29-05-2010 12:00:00 21.72 C 5.46 g/m*3 21.72 C 0 km/h
302 29-05-2010 13:00:00 24.84 C 4.84 g/m*3 24.84 C 0 km/h
303 29-05-2010 14:00:00 23.42 C 5.31 g/m*3 23.42 C 0 km/h
304 29-05-2010 15:00:00 23.02 C 5.35 g/m*3 23.02 C 0 km/h
305 29-05-2010 16:00:00 24.42 C 4.99 g/m*3 24.42 C 0 km/h
306 29-05-2010 17:00:00 23.96 C 5.95 g/m*3 23.96 C 0 km/h
307 29-05-2010 18:00:00 21.7 C 6.03 g/m*3 21.7 C 0 km/h
308 29-05-2010 19:00:00 20.66 C 5.35 g/m*3 20.66 C 0 km/h
309 29-05-2010 20:00:00 19.3 C 5.97 g/m*3 19.3 C 0 km/h
310 29-05-2010 21:00:00 17.06 C 6.83 g/m*3 17.06 C 0 km/h
311 29-05-2010 22:00:00 13.96 C 9.07 g/m*3 13.96 C 0 km/h
312 29-05-2010 23:00:00 13.72 C 8.92 g/m*3 13.72 C 0 km/h
313 30-05-2010 00:00:00 13.38 C 9.36 g/m*3 13.38 C 0 km/h
314 30-05-2010 01:00:00 13.2 C 9.48 g/m*3 13.2 C 0 km/h
315 30-05-2010 02:00:00 12.9 C 10.03 g/m*3 12.9 C 0 km/h
316 30-05-2010 03:00:00 12.9 C 10.28 g/m*3 12.9 C 0 km/h
317 30-05-2010 04:00:00 12.8 C 10.28 g/m*3 12.8 C 0 km/h
318 30-05-2010 05:00:00 12.96 C 10.25 g/m*3 12.96 C 0 km/h
319 30-05-2010 06:00:00 13.36 C 10.25 g/m*3 13.36 C 0 km/h
320 30-05-2010 07:00:00 13.8 C 10.44 g/m*3 13.8 C 0 km/h
321 30-05-2010 08:00:00 14.66 C 10.07 g/m*3 14.66 C 0 km/h
322 30-05-2010 09:00:00 15.62 C 10.01 g/m*3 15.62 C 0 km/h
323 30-05-2010 10:00:00 14.98 C 10.19 g/m*3 14.98 C 0 km/h
324 30-05-2010 11:00:00 17.44 C 9.15 g/m*3 17.44 C 0 km/h
325 30-05-2010 12:00:00 18 C 8.11 g/m*3 18 C 0 km/h
Sensor: Nr:Datum:Temp:Abs-Feuchte:Windchill:Wind:
Aussen-T/F 326 30-05-2010 13:00:00 17.94 C 7.56 g/m*3 17.94 C 0 km/h
327 30-05-2010 14:00:00 18 C 8.23 g/m*3 18 C 0 km/h
328 30-05-2010 15:00:00 19.18 C 7.71 g/m*3 19.18 C 0 km/h
329 30-05-2010 16:00:00 19.4 C 6.91 g/m*3 19.4 C 0 km/h
330 30-05-2010 17:00:00 16.3 C 8.35 g/m*3 16.3 C 0 km/h
331 30-05-2010 18:00:00 14.42 C 9.6 g/m*3 14.42 C 0 km/h
332 30-05-2010 19:00:00 13.16 C 9.51 g/m*3 13.16 C 0 km/h
333 30-05-2010 20:00:00 12.46 C 7.33 g/m*3 12.46 C 0 km/h
334 30-05-2010 21:00:00 11.74 C 6.63 g/m*3 11.74 C 0 km/h
335 30-05-2010 22:00:00 11.14 C 6.14 g/m*3 11.14 C 0 km/h
336 30-05-2010 23:00:00 10.6 C 5.76 g/m*3 10.6 C 0 km/h
337 31-05-2010 00:00:00 9.88 C 5.86 g/m*3 9.88 C 0 km/h
338 31-05-2010 01:00:00 9.84 C 6.18 g/m*3 9.84 C 0 km/h
339 31-05-2010 02:00:00 8.94 C 7.5 g/m*3 8.94 C 0 km/h
340 31-05-2010 03:00:00 8.62 C 7.74 g/m*3 8.62 C 0 km/h
341 31-05-2010 04:00:00 8.52 C 7.71 g/m*3 8.52 C 0 km/h
342 31-05-2010 05:00:00 8.54 C 7.7 g/m*3 8.54 C 0 km/h
343 31-05-2010 06:00:00 8.72 C 7.9 g/m*3 8.72 C 0 km/h
344 31-05-2010 07:00:00 8.94 C 8.1 g/m*3 8.94 C 0 km/h
345 31-05-2010 08:00:00 9.88 C 8.5 g/m*3 9.88 C 0 km/h
346 31-05-2010 09:00:00 10.8 C 8.38 g/m*3 10.8 C 0 km/h
347 31-05-2010 10:00:00 11.06 C 8.34 g/m*3 11.06 C 0 km/h
348 31-05-2010 11:00:00 11.96 C 8.36 g/m*3 11.96 C 0 km/h
349 31-05-2010 12:00:00 13.78 C 7.64 g/m*3 13.78 C 0 km/h
350 31-05-2010 13:00:00 14.32 C 7.33 g/m*3 14.32 C 0 km/h
Sensor: Nr:Datum:Temp:Abs-Feuchte:Windchill:Wind:
Aussen-T/F 351 31-05-2010 14:00:00 14.96 C 7.32 g/m*3 14.96 C 0 km/h
352 31-05-2010 15:00:00 14.76 C 7.56 g/m*3 14.76 C 0 km/h
353 31-05-2010 16:00:00 13.96 C 8.09 g/m*3 13.96 C 0 km/h
354 31-05-2010 17:00:00 14.18 C 7.93 g/m*3 14.18 C 0 km/h
355 31-05-2010 18:00:00 13.1 C 8.7 g/m*3 13.1 C 0 km/h
356 31-05-2010 19:00:00 12.7 C 9.24 g/m*3 12.7 C 0 km/h
357 31-05-2010 20:00:00 12.48 C 9.51 g/m*3 12.48 C 0 km/h
358 31-05-2010 21:00:00 12.5 C 9.54 g/m*3 12.5 C 0 km/h
359 31-05-2010 22:00:00 12.54 C 9.77 g/m*3 12.54 C 0 km/h
360 31-05-2010 23:00:00 12.62 C 9.75 g/m*3 12.62 C 0 km/h
361 01-06-2010 00:00:00 11.7 C 9.41 g/m*3 11.7 C 0 km/h
362 01-06-2010 01:00:00 11.44 C 9.47 g/m*3 11.44 C 0 km/h
363 01-06-2010 02:00:00 10.92 C 9.24 g/m*3 10.92 C 0 km/h
364 01-06-2010 03:00:00 11.38 C 9.62 g/m*3 11.38 C 0 km/h
365 01-06-2010 04:00:00 11.06 C 9.34 g/m*3 11.06 C 0 km/h
366 01-06-2010 05:00:00 11.18 C 9.44 g/m*3 11.18 C 0 km/h
367 01-06-2010 06:00:00 11.22 C 9.3 g/m*3 11.22 C 0 km/h
368 01-06-2010 07:00:00 12.04 C 9.34 g/m*3 12.04 C 0 km/h
369 01-06-2010 08:00:00 13.68 C 9.32 g/m*3 13.68 C 0 km/h
370 01-06-2010 09:00:00 15 C 8.92 g/m*3 15 C 0 km/h
371 01-06-2010 10:00:00 15.08 C 8.63 g/m*3 15.08 C 0 km/h
372 01-06-2010 11:00:00 17.08 C 8.17 g/m*3 17.08 C 0 km/h
373 01-06-2010 12:00:00 19.42 C 7.22 g/m*3 19.42 C 0 km/h
374 01-06-2010 13:00:00 20.58 C 6.69 g/m*3 20.58 C 0 km/h
375 01-06-2010 14:00:00 20.98 C 6.37 g/m*3 20.98 C 0 km/h
Sensor: Nr:Datum:Temp:Abs-Feuchte:Windchill:Wind:
Aussen-T/F 376 01-06-2010 15:00:00 22.14 C 5.36 g/m*3 22.14 C 0 km/h
377 01-06-2010 16:00:00 22.8 C 4.96 g/m*3 22.8 C 0 km/h
378 01-06-2010 17:00:00 22.5 C 5.27 g/m*3 22.5 C 0 km/h
379 01-06-2010 18:00:00 20.56 C 5.11 g/m*3 20.56 C 0 km/h
380 01-06-2010 19:00:00 19.54 C 6.09 g/m*3 19.54 C 0 km/h
381 01-06-2010 20:00:00 18.2 C 7.06 g/m*3 18.2 C 0 km/h
382 01-06-2010 21:00:00 16.16 C 7.1 g/m*3 16.16 C 0 km/h
383 01-06-2010 22:00:00 15.04 C 7.38 g/m*3 15.04 C 0 km/h
384 01-06-2010 23:00:00 14.74 C 7.75 g/m*3 14.74 C 0 km/h
385 02-06-2010 00:00:00 14.44 C 8.35 g/m*3 14.44 C 0 km/h
386 02-06-2010 01:00:00 14.22 C 8.39 g/m*3 14.22 C 0 km/h
387 02-06-2010 02:00:00 13.58 C 8.7 g/m*3 13.58 C 0 km/h
388 02-06-2010 03:00:00 13.34 C 8.8 g/m*3 13.34 C 0 km/h
389 02-06-2010 04:00:00 13.36 C 8.4 g/m*3 13.36 C 0 km/h
390 02-06-2010 05:00:00 13.3 C 8.39 g/m*3 13.3 C 0 km/h
391 02-06-2010 06:00:00 13.28 C 8.56 g/m*3 13.28 C 0 km/h
392 02-06-2010 07:00:00 13.84 C 8.58 g/m*3 13.84 C 0 km/h
393 02-06-2010 08:00:00 15.1 C 8.15 g/m*3 15.1 C 0 km/h
394 02-06-2010 09:00:00 15.08 C 7.73 g/m*3 15.08 C 0 km/h
395 02-06-2010 10:00:00 17.56 C 6.49 g/m*3 17.56 C 0 km/h
396 02-06-2010 11:00:00 19.3 C 6 g/m*3 19.3 C 0 km/h
397 02-06-2010 12:00:00 21.86 C 5.31 g/m*3 21.86 C 0 km/h
398 02-06-2010 13:00:00 23.68 C 4.61 g/m*3 23.68 C 0 km/h
399 02-06-2010 14:00:00 23.5 C 4.44 g/m*3 23.5 C 0 km/h
400 02-06-2010 15:00:00 22.58 C 5.58 g/m*3 22.58 C 0 km/h
Sensor: Nr:Datum:Temp:Abs-Feuchte:Windchill:Wind:
Aussen-T/F 401 02-06-2010 16:00:00 21.08 C 6.74 g/m*3 21.08 C 0 km/h
402 02-06-2010 17:00:00 20.44 C 7.09 g/m*3 20.44 C 0 km/h
403 02-06-2010 18:00:00 21.46 C 7.07 g/m*3 21.46 C 0 km/h
404 02-06-2010 19:00:00 20.68 C 7.37 g/m*3 20.68 C 0 km/h
405 02-06-2010 20:00:00 19.78 C 7.61 g/m*3 19.78 C 0 km/h
406 02-06-2010 21:00:00 18.34 C 7.96 g/m*3 18.34 C 0 km/h
407 02-06-2010 22:00:00 17.725 C 8.27 g/m*3 17.73 C 0 km/h
408 02-06-2010 23:00:00 16.44 C 8.39 g/m*3 16.44 C 0 km/h
409 03-06-2010 00:00:00 15.62 C 8.49 g/m*3 15.62 C 0 km/h
410 03-06-2010 01:00:00 14.96 C 8.7 g/m*3 14.96 C 0 km/h
411 03-06-2010 02:00:00 14.42 C 8.69 g/m*3 14.42 C 0 km/h
412 03-06-2010 03:00:00 14.02 C 8.53 g/m*3 14.02 C 0 km/h
413 03-06-2010 04:00:00 13.2 C 8.36 g/m*3 13.2 C 0 km/h
414 03-06-2010 05:00:00 12.7 C 8.33 g/m*3 12.7 C 0 km/h
415 03-06-2010 06:00:00 12.6 C 8.36 g/m*3 12.6 C 0 km/h
416 03-06-2010 07:00:00 13.08 C 8.3 g/m*3 13.08 C 0 km/h
417 03-06-2010 08:00:00 13.98 C 7.93 g/m*3 13.98 C 0 km/h
418 03-06-2010 09:00:00 15.94 C 7.44 g/m*3 15.94 C 0 km/h
419 03-06-2010 10:00:00 18.62 C 6.95 g/m*3 18.62 C 0 km/h
420 03-06-2010 11:00:00 21.14 C 6.24 g/m*3 21.14 C 0 km/h
421 03-06-2010 12:00:00 24.16 C 5.62 g/m*3 24.16 C 0 km/h
422 03-06-2010 13:00:00 26.36 C 5.27 g/m*3 26.36 C 0 km/h
423 03-06-2010 14:00:00 25.98 C 4.86 g/m*3 25.98 C 0 km/h
424 03-06-2010 15:00:00 27.94 C 5.42 g/m*3 27.94 C 0 km/h
425 03-06-2010 16:00:00 29.48 C 5.9 g/m*3 29.48 C 0 km/h
Sensor: Nr:Datum:Temp:Abs-Feuchte:Windchill:Wind:
Aussen-T/F 426 03-06-2010 17:00:00 29.98 C 6.06 g/m*3 29.98 C 0 km/h
427 03-06-2010 18:00:00 28.98 C 5.74 g/m*3 28.98 C 0 km/h
428 03-06-2010 19:00:00 29.08 C 5.77 g/m*3 29.08 C 0 km/h
429 03-06-2010 20:00:00 27 C 5.35 g/m*3 27 C 0 km/h
430 03-06-2010 21:00:00 23.74 C 6.6 g/m*3 23.74 C 0 km/h
431 03-06-2010 22:00:00 20.16 C 6.45 g/m*3 20.16 C 0 km/h
432 03-06-2010 23:00:00 18.64 C 6.57 g/m*3 18.64 C 0 km/h
433 04-06-2010 00:00:00 17.44 C 6.86 g/m*3 17.44 C 0 km/h
434 04-06-2010 01:00:00 15.9 C 7.04 g/m*3 15.9 C 0 km/h
435 04-06-2010 02:00:00 14.64 C 7.23 g/m*3 14.64 C 0 km/h
436 04-06-2010 03:00:00 13.64 C 7.43 g/m*3 13.64 C 0 km/h
437 04-06-2010 04:00:00 12.78 C 7.61 g/m*3 12.78 C 0 km/h
438 04-06-2010 05:00:00 12.12 C 7.6 g/m*3 12.12 C 0 km/h
439 04-06-2010 06:00:00 11.94 C 7.84 g/m*3 11.94 C 0 km/h
440 04-06-2010 07:00:00 12.44 C 8.04 g/m*3 12.44 C 0 km/h
441 04-06-2010 08:00:00 13.72 C 8.28 g/m*3 13.72 C 0 km/h
442 04-06-2010 09:00:00 16.78 C 8.37 g/m*3 16.78 C 0 km/h
443 04-06-2010 10:00:00 20.06 C 8.12 g/m*3 20.06 C 0 km/h
444 04-06-2010 11:00:00 22.1 C 7.18 g/m*3 22.1 C 0 km/h
445 04-06-2010 12:00:00 25.82 C 5.88 g/m*3 25.82 C 0 km/h
446 04-06-2010 13:00:00 28.98 C 5.91 g/m*3 28.98 C 0 km/h
447 04-06-2010 14:00:00 27.9 C 5.68 g/m*3 27.9 C 0 km/h
448 04-06-2010 15:00:00 29.14 C 5.79 g/m*3 29.14 C 0 km/h
449 04-06-2010 16:00:00 30.38 C 6.19 g/m*3 30.38 C 0 km/h
450 04-06-2010 17:00:00 31.04 C 6.41 g/m*3 31.04 C 0 km/h
Sensor: Nr:Datum:Temp:Abs-Feuchte:Windchill:Wind:
Aussen-T/F 451 04-06-2010 18:00:00 31.88 C 6.71 g/m*3 31.88 C 0 km/h
452 04-06-2010 19:00:00 30.44 C 6.21 g/m*3 30.44 C 0 km/h
453 04-06-2010 20:00:00 29.04 C 5.87 g/m*3 29.04 C 0 km/h
454 04-06-2010 21:00:00 24.3 C 6.28 g/m*3 24.3 C 0 km/h
455 04-06-2010 22:00:00 22.02 C 6.88 g/m*3 22.02 C 0 km/h
456 04-06-2010 23:00:00 19.82 C 7.56 g/m*3 19.82 C 0 km/h
457 05-06-2010 00:00:00 18.16 C 7.91 g/m*3 18.16 C 0 km/h
458 05-06-2010 01:00:00 17.14 C 7.97 g/m*3 17.14 C 0 km/h
459 05-06-2010 02:00:00 15.82 C 8.17 g/m*3 15.82 C 0 km/h
460 05-06-2010 03:00:00 14.84 C 8.43 g/m*3 14.84 C 0 km/h
461 05-06-2010 04:00:00 14.34 C 8.35 g/m*3 14.34 C 0 km/h
462 05-06-2010 05:00:00 13.44 C 8.27 g/m*3 13.44 C 0 km/h
463 05-06-2010 06:00:00 13.12 C 8.45 g/m*3 13.12 C 0 km/h
464 05-06-2010 07:00:00 13.76 C 8.58 g/m*3 13.76 C 0 km/h
465 05-06-2010 08:00:00 15.12 C 8.42 g/m*3 15.12 C 0 km/h
466 05-06-2010 09:00:00 17.9 C 8.64 g/m*3 17.9 C 0 km/h
467 05-06-2010 10:00:00 21.54 C 9 g/m*3 21.54 C 0 km/h
468 05-06-2010 11:00:00 25.04 C 8.44 g/m*3 25.04 C 0 km/h
469 05-06-2010 12:00:00 28.26 C 6.45 g/m*3 28.26 C 0 km/h
470 05-06-2010 13:00:00 30.56 C 6.25 g/m*3 30.56 C 0 km/h
471 05-06-2010 14:00:00 30.24 C 6.14 g/m*3 30.24 C 0 km/h
472 05-06-2010 15:00:00 31.8 C 6.68 g/m*3 31.8 C 0 km/h
473 05-06-2010 16:00:00 32.68 C 7 g/m*3 32.68 C 0 km/h
474 05-06-2010 17:00:00 33.16 C 7.18 g/m*3 33.16 C 0 km/h
475 05-06-2010 18:00:00 33.08 C 7.15 g/m*3 33.08 C 0 km/h
Sensor: Nr:Datum:Temp:Abs-Feuchte:Windchill:Wind:
Aussen-T/F 476 05-06-2010 19:00:00 31.78 C 7.07 g/m*3 31.78 C 0 km/h
477 05-06-2010 20:00:00 29.04 C 7.83 g/m*3 29.04 C 0 km/h
478 05-06-2010 21:00:00 25.36 C 7.75 g/m*3 25.36 C 0 km/h
479 05-06-2010 22:00:00 23.38 C 8.28 g/m*3 23.38 C 0 km/h
480 05-06-2010 23:00:00 21.88 C 8.29 g/m*3 21.88 C 0 km/h
481 06-06-2010 00:00:00 20.7 C 8.64 g/m*3 20.7 C 0 km/h
482 06-06-2010 01:00:00 19.28 C 8.95 g/m*3 19.28 C 0 km/h
483 06-06-2010 02:00:00 18.18 C 9.31 g/m*3 18.18 C 0 km/h
484 06-06-2010 03:00:00 17.36 C 9.23 g/m*3 17.36 C 0 km/h
485 06-06-2010 04:00:00 16.4 C 9.13 g/m*3 16.4 C 0 km/h
486 06-06-2010 05:00:00 15.46 C 9.2 g/m*3 15.46 C 0 km/h
487 06-06-2010 06:00:00 15.32 C 9.41 g/m*3 15.32 C 0 km/h
488 06-06-2010 07:00:00 16.06 C 9.52 g/m*3 16.06 C 0 km/h
489 06-06-2010 08:00:00 17.32 C 9.32 g/m*3 17.32 C 0 km/h
490 06-06-2010 09:00:00 19.54 C 8.98 g/m*3 19.54 C 0 km/h
491 06-06-2010 10:00:00 23.1 C 9.38 g/m*3 23.1 C 0 km/h
492 06-06-2010 11:00:00 27.14 C 9.6 g/m*3 27.14 C 0 km/h
493 06-06-2010 12:00:00 29.56 C 8.71 g/m*3 29.56 C 0 km/h
494 06-06-2010 13:00:00 30.1 C 8.23 g/m*3 30.1 C 0 km/h
495 06-06-2010 14:00:00 30.16 C 8.32 g/m*3 30.16 C 0 km/h
496 06-06-2010 15:00:00 31.12 C 7.73 g/m*3 31.12 C 0 km/h
497 06-06-2010 16:00:00 23.76 C 10.65 g/m*3 23.76 C 0 km/h
498 06-06-2010 17:00:00 18.7 C 13.61 g/m*3 18.7 C 0 km/h
499 06-06-2010 18:00:00 19.2 C 14.21 g/m*3 19.2 C 0 km/h
500 06-06-2010 19:00:00 19.22 C 14.23 g/m*3 19.22 C 0 km/h
Sensor: Nr:Datum:Temp:Abs-Feuchte:Windchill:Wind:
Aussen-T/F 501 06-06-2010 20:00:00 19 C 14.15 g/m*3 19 C 0 km/h
502 06-06-2010 21:00:00 18.6 C 13.85 g/m*3 18.6 C 0 km/h
503 06-06-2010 22:00:00 18.34 C 13.67 g/m*3 18.34 C 0 km/h
504 06-06-2010 23:00:00 18.3 C 13.51 g/m*3 18.3 C 0 km/h
505 07-06-2010 00:00:00 17.92 C 13.45 g/m*3 17.92 C 0 km/h
506 07-06-2010 01:00:00 17.82 C 13.77 g/m*3 17.82 C 0 km/h
507 07-06-2010 02:00:00 17.36 C 12.48 g/m*3 17.36 C 0 km/h
508 07-06-2010 03:00:00 15.46 C 10.07 g/m*3 15.46 C 0 km/h
509 07-06-2010 04:00:00 14 C 9.09 g/m*3 14 C 0 km/h
510 07-06-2010 05:00:00 13.6 C 9.16 g/m*3 13.6 C 0 km/h
511 07-06-2010 06:00:00 14.4 C 9.37 g/m*3 14.4 C 0 km/h
512 07-06-2010 07:00:00 15.04 C 9.18 g/m*3 15.04 C 0 km/h
513 07-06-2010 08:00:00 15.54 C 9.33 g/m*3 15.54 C 0 km/h
514 07-06-2010 09:00:00 17.08 C 9.22 g/m*3 17.08 C 0 km/h
515 07-06-2010 10:00:00 18.32 C 8.95 g/m*3 18.32 C 0 km/h
516 07-06-2010 11:00:00 19.46 C 8.71 g/m*3 19.46 C 0 km/h
517 07-06-2010 12:00:00 21.94 C 7.93 g/m*3 21.94 C 0 km/h
518 07-06-2010 13:00:00 23.78 C 7.26 g/m*3 23.78 C 0 km/h
519 07-06-2010 14:00:00 24 C 6.96 g/m*3 24 C 0 km/h
520 07-06-2010 15:00:00 24.3 C 6.64 g/m*3 24.3 C 0 km/h
521 07-06-2010 16:00:00 25.22 C 6.39 g/m*3 25.22 C 0 km/h
522 07-06-2010 17:00:00 24.66 C 5.96 g/m*3 24.66 C 0 km/h
523 07-06-2010 18:00:00 25.92 C 5.28 g/m*3 25.92 C 0 km/h
524 07-06-2010 19:00:00 25.44 C 5.29 g/m*3 25.44 C 0 km/h
525 07-06-2010 20:00:00 23.08 C 5.99 g/m*3 23.08 C 0 km/h
Sensor: Nr:Datum:Temp:Abs-Feuchte:Windchill:Wind:
Aussen-T/F 526 07-06-2010 21:00:00 20.04 C 6.79 g/m*3 20.04 C 0 km/h
527 07-06-2010 22:00:00 18.48 C 7.33 g/m*3 18.48 C 0 km/h
528 07-06-2010 23:00:00 17.26 C 8.08 g/m*3 17.26 C 0 km/h
529 08-06-2010 00:00:00 16.34 C 8.48 g/m*3 16.34 C 0 km/h
530 08-06-2010 01:00:00 15.22 C 8.5 g/m*3 15.22 C 0 km/h
531 08-06-2010 02:00:00 14.26 C 8.36 g/m*3 14.26 C 0 km/h
532 08-06-2010 03:00:00 13.84 C 8.36 g/m*3 13.84 C 0 km/h
533 08-06-2010 04:00:00 13.2 C 8.22 g/m*3 13.2 C 0 km/h
534 08-06-2010 05:00:00 13.4 C 8.42 g/m*3 13.4 C 0 km/h
535 08-06-2010 06:00:00 13.66 C 8.62 g/m*3 13.66 C 0 km/h
536 08-06-2010 07:00:00 14.36 C 8.8 g/m*3 14.36 C 0 km/h
537 08-06-2010 08:00:00 16.5 C 8.9 g/m*3 16.5 C 0 km/h
538 08-06-2010 09:00:00 19.18 C 8.96 g/m*3 19.18 C 0 km/h
539 08-06-2010 10:00:00 21.92 C 8.73 g/m*3 21.92 C 0 km/h
540 08-06-2010 11:00:00 25.46 C 8.08 g/m*3 25.46 C 0 km/h
541 08-06-2010 12:00:00 27.92 C 7.2 g/m*3 27.92 C 0 km/h
542 08-06-2010 13:00:00 27.58 C 6.75 g/m*3 27.58 C 0 km/h
543 08-06-2010 14:00:00 26.28 C 8.21 g/m*3 26.28 C 0 km/h
544 08-06-2010 15:00:00 26.36 C 8.4 g/m*3 26.36 C 0 km/h
545 08-06-2010 16:00:00 22.62 C 8.49 g/m*3 22.62 C 0 km/h
546 08-06-2010 17:00:00 20.84 C 10.49 g/m*3 20.84 C 0 km/h
547 08-06-2010 18:00:00 23.06 C 10.15 g/m*3 23.06 C 0 km/h
548 08-06-2010 19:00:00 23.2 C 10.15 g/m*3 23.2 C 0 km/h
549 08-06-2010 20:00:00 22 C 10.44 g/m*3 22 C 0 km/h
550 08-06-2010 21:00:00 20.6 C 10.85 g/m*3 20.6 C 0 km/h
Sensor: Nr:Datum:Temp:Abs-Feuchte:Windchill:Wind:
Aussen-T/F 551 08-06-2010 22:00:00 18.56 C 12.29 g/m*3 18.56 C 0 km/h
552 08-06-2010 23:00:00 18.08 C 12.5 g/m*3 18.08 C 0 km/h
553 09-06-2010 00:00:00 17.74 C 12.55 g/m*3 17.74 C 0 km/h
554 09-06-2010 01:00:00 17.68 C 12.33 g/m*3 17.68 C 0 km/h
555 09-06-2010 02:00:00 17.08 C 11.86 g/m*3 17.08 C 0 km/h
556 09-06-2010 03:00:00 17.06 C 12.08 g/m*3 17.06 C 0 km/h
557 09-06-2010 04:00:00 16.96 C 12.07 g/m*3 16.96 C 0 km/h
558 09-06-2010 05:00:00 16.84 C 12.01 g/m*3 16.84 C 0 km/h
559 09-06-2010 06:00:00 17.06 C 11.97 g/m*3 17.06 C 0 km/h
560 09-06-2010 07:00:00 18.2 C 12.25 g/m*3 18.2 C 0 km/h
561 09-06-2010 08:00:00 19.94 C 12.33 g/m*3 19.94 C 0 km/h
562 09-06-2010 09:00:00 21.8 C 11.86 g/m*3 21.8 C 0 km/h
563 09-06-2010 10:00:00 23.72 C 11.43 g/m*3 23.72 C 0 km/h
564 09-06-2010 11:00:00 25.56 C 10.17 g/m*3 25.56 C 0 km/h
565 09-06-2010 12:00:00 26.4 C 8.91 g/m*3 26.4 C 0 km/h
566 09-06-2010 13:00:00 26.72 C 8.97 g/m*3 26.72 C 0 km/h
567 09-06-2010 14:00:00 28.74 C 9.12 g/m*3 28.74 C 0 km/h
568 09-06-2010 15:00:00 29.54 C 8.16 g/m*3 29.54 C 0 km/h
569 09-06-2010 16:00:00 29.34 C 7.55 g/m*3 29.34 C 0 km/h
570 09-06-2010 17:00:00 27.86 C 9.18 g/m*3 27.86 C 0 km/h
571 09-06-2010 18:00:00 26.7 C 9.26 g/m*3 26.7 C 0 km/h
572 09-06-2010 19:00:00 26.16 C 9.73 g/m*3 26.16 C 0 km/h
573 09-06-2010 20:00:00 24.78 C 9.41 g/m*3 24.78 C 0 km/h
574 09-06-2010 21:00:00 23.4 C 9.21 g/m*3 23.4 C 0 km/h
575 09-06-2010 22:00:00 22.96 C 8.61 g/m*3 22.96 C 0 km/h
Sensor: Nr:Datum:Temp:Abs-Feuchte:Windchill:Wind:
Aussen-T/F 576 09-06-2010 23:00:00 19.26 C 12.51 g/m*3 19.26 C 0 km/h
577 10-06-2010 00:00:00 18.04 C 13.36 g/m*3 18.04 C 0 km/h
578 10-06-2010 01:00:00 17.6 C 13.59 g/m*3 17.6 C 0 km/h
579 10-06-2010 02:00:00 17.18 C 13.43 g/m*3 17.18 C 0 km/h
580 10-06-2010 03:00:00 16.98 C 13.21 g/m*3 16.98 C 0 km/h
581 10-06-2010 04:00:00 17.06 C 13.1 g/m*3 17.06 C 0 km/h
582 10-06-2010 05:00:00 16.88 C 13.16 g/m*3 16.88 C 0 km/h
583 10-06-2010 06:00:00 17.28 C 13.54 g/m*3 17.28 C 0 km/h
584 10-06-2010 07:00:00 17.9 C 13.86 g/m*3 17.9 C 0 km/h
585 10-06-2010 08:00:00 18.96 C 14.34 g/m*3 18.96 C 0 km/h
586 10-06-2010 09:00:00 19.46 C 14.27 g/m*3 19.46 C 0 km/h
587 10-06-2010 10:00:00 21.34 C 13.71 g/m*3 21.34 C 0 km/h
588 10-06-2010 11:00:00 22.12 C 12.82 g/m*3 22.12 C 0 km/h
589 10-06-2010 12:00:00 24.96 C 11.35 g/m*3 24.96 C 0 km/h
590 10-06-2010 13:00:00 27.26 C 10.76 g/m*3 27.26 C 0 km/h
591 10-06-2010 14:00:00 27.86 C 12.09 g/m*3 27.86 C 0 km/h
592 10-06-2010 15:00:00 28.3 C 11.83 g/m*3 28.3 C 0 km/h
593 10-06-2010 16:00:00 26.8 C 13.24 g/m*3 26.8 C 0 km/h
594 10-06-2010 17:00:00 28.94 C 12.71 g/m*3 28.94 C 0 km/h
595 10-06-2010 18:00:00 30.9 C 11.01 g/m*3 30.9 C 0 km/h
596 10-06-2010 19:00:00 31.24 C 11.73 g/m*3 31.24 C 0 km/h
597 10-06-2010 20:00:00 28.08 C 13.93 g/m*3 28.08 C 0 km/h
598 10-06-2010 21:00:00 24.96 C 12.82 g/m*3 24.96 C 0 km/h
599 10-06-2010 22:00:00 24.24 C 12.13 g/m*3 24.24 C 0 km/h
600 10-06-2010 23:00:00 22 C 11.49 g/m*3 22 C 0 km/h
Sensor: Nr:Datum:Temp:Abs-Feuchte:Windchill:Wind:
Aussen-T/F 601 11-06-2010 00:00:00 18.88 C 12.27 g/m*3 18.88 C 0 km/h
602 11-06-2010 01:00:00 17.84 C 13.51 g/m*3 17.84 C 0 km/h
603 11-06-2010 02:00:00 17.58 C 13.72 g/m*3 17.58 C 0 km/h
604 11-06-2010 03:00:00 17.4 C 13.75 g/m*3 17.4 C 0 km/h
605 11-06-2010 04:00:00 17.1 C 13.54 g/m*3 17.1 C 0 km/h
606 11-06-2010 05:00:00 17 C 13.57 g/m*3 17 C 0 km/h
607 11-06-2010 06:00:00 16.98 C 13.61 g/m*3 16.98 C 0 km/h
608 11-06-2010 07:00:00 16.88 C 13.65 g/m*3 16.88 C 0 km/h
609 11-06-2010 08:00:00 17.04 C 13.23 g/m*3 17.04 C 0 km/h
610 11-06-2010 09:00:00 19.32 C 13.65 g/m*3 19.32 C 0 km/h
611 11-06-2010 10:00:00 20.7 C 11.77 g/m*3 20.7 C 0 km/h
612 11-06-2010 11:00:00 22.76 C 10.83 g/m*3 22.76 C 0 km/h
613 11-06-2010 12:00:00 25.64 C 8.69 g/m*3 25.64 C 0 km/h
614 11-06-2010 13:00:00 27.58 C 7.71 g/m*3 27.58 C 0 km/h
615 11-06-2010 14:00:00 27.12 C 7.62 g/m*3 27.12 C 0 km/h
616 11-06-2010 15:00:00 28.68 C 7.34 g/m*3 28.68 C 0 km/h
617 11-06-2010 16:00:00 29.92 C 6.88 g/m*3 29.92 C 0 km/h
618 11-06-2010 17:00:00 30.58 C 6.32 g/m*3 30.58 C 0 km/h
619 11-06-2010 18:00:00 30.74 C 6.31 g/m*3 30.74 C 0 km/h
620 11-06-2010 19:00:00 30.7 C 6.49 g/m*3 30.7 C 0 km/h
621 11-06-2010 20:00:00 28.08 C 7.27 g/m*3 28.08 C 0 km/h
622 11-06-2010 21:00:00 24.48 C 8.49 g/m*3 24.48 C 0 km/h
623 11-06-2010 22:00:00 23.54 C 8.05 g/m*3 23.54 C 0 km/h
624 11-06-2010 23:00:00 22.86 C 7.67 g/m*3 22.86 C 0 km/h
625 12-06-2010 00:00:00 21.9 C 8.88 g/m*3 21.9 C 0 km/h
Sensor: Nr:Datum:Temp:Abs-Feuchte:Windchill:Wind:
Aussen-T/F 626 12-06-2010 01:00:00 20.94 C 9.78 g/m*3 20.94 C 0 km/h
627 12-06-2010 02:00:00 20.24 C 9.99 g/m*3 20.24 C 0 km/h
628 12-06-2010 03:00:00 19.74 C 10.14 g/m*3 19.74 C 0 km/h
629 12-06-2010 04:00:00 19.32 C 10.56 g/m*3 19.32 C 0 km/h
630 12-06-2010 05:00:00 18.72 C 11.12 g/m*3 18.72 C 0 km/h
631 12-06-2010 06:00:00 18.58 C 11.16 g/m*3 18.58 C 0 km/h
632 12-06-2010 07:00:00 18.38 C 12.16 g/m*3 18.38 C 0 km/h
633 12-06-2010 08:00:00 18.78 C 12.42 g/m*3 18.78 C 0 km/h
634 12-06-2010 09:00:00 19.28 C 11.6 g/m*3 19.28 C 0 km/h
635 12-06-2010 10:00:00 20.34 C 10.44 g/m*3 20.34 C 0 km/h
636 12-06-2010 11:00:00 22.44 C 9.59 g/m*3 22.44 C 0 km/h
637 12-06-2010 12:00:00 23.3 C 8.7 g/m*3 23.3 C 0 km/h
638 12-06-2010 13:00:00 24.16 C 8.47 g/m*3 24.16 C 0 km/h
639 12-06-2010 14:00:00 24.48 C 8.45 g/m*3 24.48 C 0 km/h
640 12-06-2010 15:00:00 22.98 C 9.24 g/m*3 22.98 C 0 km/h
641 12-06-2010 16:00:00 17.04 C 10.24 g/m*3 17.04 C 0 km/h
642 12-06-2010 17:00:00 14.22 C 9.85 g/m*3 14.22 C 0 km/h
643 12-06-2010 18:00:00 14.62 C 10.12 g/m*3 14.62 C 0 km/h
644 12-06-2010 19:00:00 14.82 C 9.79 g/m*3 14.82 C 0 km/h
645 12-06-2010 20:00:00 15.34 C 9.53 g/m*3 15.34 C 0 km/h
646 12-06-2010 21:00:00 14.98 C 9.4 g/m*3 14.98 C 0 km/h
647 12-06-2010 22:00:00 14.5 C 9.43 g/m*3 14.5 C 0 km/h
648 12-06-2010 23:00:00 13.28 C 8.98 g/m*3 13.28 C 0 km/h
649 13-06-2010 00:00:00 12.68 C 8.92 g/m*3 12.68 C 0 km/h
650 13-06-2010 01:00:00 13.3 C 9.4 g/m*3 13.3 C 0 km/h
Sensor: Nr:Datum:Temp:Abs-Feuchte:Windchill:Wind:
Aussen-T/F 651 13-06-2010 02:00:00 13.14 C 9.47 g/m*3 13.14 C 0 km/h
652 13-06-2010 03:00:00 12.16 C 9.3 g/m*3 12.16 C 0 km/h
653 13-06-2010 04:00:00 11.32 C 8.7 g/m*3 11.32 C 0 km/h
654 13-06-2010 05:00:00 10.82 C 8.33 g/m*3 10.82 C 0 km/h
655 13-06-2010 06:00:00 10.5 C 8.22 g/m*3 10.5 C 0 km/h
656 13-06-2010 07:00:00 11.38 C 8.65 g/m*3 11.38 C 0 km/h
657 13-06-2010 08:00:00 13.16 C 8.18 g/m*3 13.16 C 0 km/h
658 13-06-2010 09:00:00 15.84 C 7.64 g/m*3 15.84 C 0 km/h
659 13-06-2010 10:00:00 17.76 C 6.3 g/m*3 17.76 C 0 km/h
660 13-06-2010 11:00:00 19.54 C 5.92 g/m*3 19.54 C 0 km/h
661 13-06-2010 12:00:00 22.84 C 5.3 g/m*3 22.84 C 0 km/h
662 13-06-2010 13:00:00 24.8 C 4.87 g/m*3 24.8 C 0 km/h
663 13-06-2010 14:00:00 24.12 C 4.91 g/m*3 24.12 C 0 km/h
664 13-06-2010 15:00:00 24.62 C 4.69 g/m*3 24.62 C 0 km/h
665 13-06-2010 16:00:00 25.02 C 4.61 g/m*3 25.02 C 0 km/h
666 13-06-2010 17:00:00 26.06 C 4.89 g/m*3 26.06 C 0 km/h
667 13-06-2010 18:00:00 26.44 C 4.99 g/m*3 26.44 C 0 km/h
668 13-06-2010 19:00:00 25.06 C 4.85 g/m*3 25.06 C 0 km/h
669 13-06-2010 20:00:00 23.9 C 5.24 g/m*3 23.9 C 0 km/h
670 13-06-2010 21:00:00 19.64 C 6.36 g/m*3 19.64 C 0 km/h
671 13-06-2010 22:00:00 17.64 C 6.46 g/m*3 17.64 C 0 km/h
672 13-06-2010 23:00:00 16.28 C 6.93 g/m*3 16.28 C 0 km/h
673 14-06-2010 00:00:00 15.44 C 7.48 g/m*3 15.44 C 0 km/h
674 14-06-2010 01:00:00 14.52 C 7.37 g/m*3 14.52 C 0 km/h
675 14-06-2010 02:00:00 13.46 C 7.68 g/m*3 13.46 C 0 km/h
Sensor: Nr:Datum:Temp:Abs-Feuchte:Windchill:Wind:
Aussen-T/F 676 14-06-2010 03:00:00 12.66 C 7.86 g/m*3 12.66 C 0 km/h
677 14-06-2010 04:00:00 11.98 C 7.86 g/m*3 11.98 C 0 km/h
678 14-06-2010 05:00:00 11.48 C 7.65 g/m*3 11.48 C 0 km/h
679 14-06-2010 06:00:00 11.28 C 7.82 g/m*3 11.28 C 0 km/h
680 14-06-2010 07:00:00 11.7 C 8.22 g/m*3 11.7 C 0 km/h
681 14-06-2010 08:00:00 13.38 C 8.43 g/m*3 13.38 C 0 km/h
682 14-06-2010 09:00:00 16.82 C 8.04 g/m*3 16.82 C 0 km/h
683 14-06-2010 10:00:00 19.96 C 7.34 g/m*3 19.96 C 0 km/h
684 14-06-2010 11:00:00 22.92 C 6.51 g/m*3 22.92 C 0 km/h
685 14-06-2010 12:00:00 25.18 C 5.53 g/m*3 25.18 C 0 km/h
686 14-06-2010 13:00:00 26.34 C 5.21 g/m*3 26.34 C 0 km/h
687 14-06-2010 14:00:00 27.44 C 5.27 g/m*3 27.44 C 0 km/h
688 14-06-2010 15:00:00 26.9 C 5.32 g/m*3 26.9 C 0 km/h
689 14-06-2010 16:00:00 29.82 C 6.01 g/m*3 29.82 C 0 km/h
690 14-06-2010 17:00:00 29.14 C 5.79 g/m*3 29.14 C 0 km/h
691 14-06-2010 18:00:00 28.48 C 5.58 g/m*3 28.48 C 0 km/h
692 14-06-2010 19:00:00 25.2 C 6.29 g/m*3 25.2 C 0 km/h
693 14-06-2010 20:00:00 23.26 C 6.34 g/m*3 23.26 C 0 km/h
694 14-06-2010 21:00:00 20.06 C 6.14 g/m*3 20.06 C 0 km/h
695 14-06-2010 22:00:00 18.62 C 7.43 g/m*3 18.62 C 0 km/h
696 14-06-2010 23:00:00 18.36 C 8.57 g/m*3 18.36 C 0 km/h
697 15-06-2010 00:00:00 17.08 C 8.72 g/m*3 17.08 C 0 km/h
698 15-06-2010 01:00:00 16.02 C 9.03 g/m*3 16.02 C 0 km/h
699 15-06-2010 02:00:00 15.26 C 9.22 g/m*3 15.26 C 0 km/h
700 15-06-2010 03:00:00 14.64 C 9.31 g/m*3 14.64 C 0 km/h
Sensor: Nr:Datum:Temp:Abs-Feuchte:Windchill:Wind:
Aussen-T/F 701 15-06-2010 04:00:00 13.76 C 9.18 g/m*3 13.76 C 0 km/h
702 15-06-2010 05:00:00 13.48 C 9.32 g/m*3 13.48 C 0 km/h
703 15-06-2010 06:00:00 13.58 C 9.45 g/m*3 13.58 C 0 km/h
704 15-06-2010 07:00:00 14.92 C 9.83 g/m*3 14.92 C 0 km/h
705 15-06-2010 08:00:00 16.68 C 9.11 g/m*3 16.68 C 0 km/h
706 15-06-2010 09:00:00 17.7 C 8.36 g/m*3 17.7 C 0 km/h
707 15-06-2010 10:00:00 19.72 C 7.96 g/m*3 19.72 C 0 km/h
708 15-06-2010 11:00:00 20.7 C 8.03 g/m*3 20.7 C 0 km/h
709 15-06-2010 12:00:00 21.26 C 8.18 g/m*3 21.26 C 0 km/h
710 15-06-2010 13:00:00 21.56 C 7.72 g/m*3 21.56 C 0 km/h
711 15-06-2010 14:00:00 22.5 C 6.87 g/m*3 22.5 C 0 km/h
712 15-06-2010 15:00:00 23.76 C 6.01 g/m*3 23.76 C 0 km/h
713 15-06-2010 16:00:00 24.42 C 5.84 g/m*3 24.42 C 0 km/h
714 15-06-2010 17:00:00 24.16 C 5.62 g/m*3 24.16 C 0 km/h
715 15-06-2010 18:00:00 24.32 C 5.63 g/m*3 24.32 C 0 km/h
716 15-06-2010 19:00:00 23.36 C 5.45 g/m*3 23.36 C 0 km/h
717 15-06-2010 20:00:00 21.58 C 5.68 g/m*3 21.58 C 0 km/h
718 15-06-2010 21:00:00 19.18 C 5.63 g/m*3 19.18 C 0 km/h
719 15-06-2010 22:00:00 17.525 C 5.49 g/m*3 17.52 C 0 km/h
720 15-06-2010 23:00:00 16.16 C 5.92 g/m*3 16.16 C 0 km/h
721 16-06-2010 00:00:00 14.68 C 6.04 g/m*3 14.68 C 0 km/h
722 16-06-2010 01:00:00 13.4 C 6.21 g/m*3 13.4 C 0 km/h
723 16-06-2010 02:00:00 12.7 C 6.14 g/m*3 12.7 C 0 km/h
724 16-06-2010 03:00:00 11.82 C 6.09 g/m*3 11.82 C 0 km/h
725 16-06-2010 04:00:00 11.2 C 6.14 g/m*3 11.2 C 0 km/h
Sensor: Nr:Datum:Temp:Abs-Feuchte:Windchill:Wind:
Aussen-T/F 726 16-06-2010 05:00:00 10.66 C 6.19 g/m*3 10.66 C 0 km/h
727 16-06-2010 06:00:00 10.7 C 6.44 g/m*3 10.7 C 0 km/h
728 16-06-2010 07:00:00 11.82 C 6.79 g/m*3 11.82 C 0 km/h
729 16-06-2010 08:00:00 13.7 C 6.35 g/m*3 13.7 C 0 km/h
730 16-06-2010 09:00:00 15.96 C 5.74 g/m*3 15.96 C 0 km/h
731 16-06-2010 10:00:00 18.16 C 5.21 g/m*3 18.16 C 0 km/h
732 16-06-2010 11:00:00 20.48 C 4.59 g/m*3 20.48 C 0 km/h
733 16-06-2010 12:00:00 23.42 C 4.42 g/m*3 23.42 C 0 km/h
734 16-06-2010 13:00:00 26.24 C 4.93 g/m*3 26.24 C 0 km/h
735 16-06-2010 14:00:00 25.56 C 4.75 g/m*3 25.56 C 0 km/h
736 16-06-2010 15:00:00 26.16 C 4.91 g/m*3 26.16 C 0 km/h
737 16-06-2010 16:00:00 27.08 C 5.17 g/m*3 27.08 C 0 km/h
738 16-06-2010 17:00:00 26.94 C 5.13 g/m*3 26.94 C 0 km/h
739 16-06-2010 18:00:00 26.62 C 5.04 g/m*3 26.62 C 0 km/h
740 16-06-2010 19:00:00 25.08 C 4.81 g/m*3 25.08 C 0 km/h
741 16-06-2010 20:00:00 22.84 C 5.25 g/m*3 22.84 C 0 km/h
742 16-06-2010 21:00:00 20.76 C 5.85 g/m*3 20.76 C 0 km/h
743 16-06-2010 22:00:00 18.58 C 5.75 g/m*3 18.58 C 0 km/h
744 16-06-2010 23:00:00 17.32 C 5.9 g/m*3 17.32 C 0 km/h
745 17-06-2010 00:00:00 16.12 C 5.98 g/m*3 16.12 C 0 km/h
746 17-06-2010 01:00:00 15.38 C 6.06 g/m*3 15.38 C 0 km/h
747 17-06-2010 02:00:00 14.76 C 6.14 g/m*3 14.76 C 0 km/h
748 17-06-2010 03:00:00 14.48 C 6.11 g/m*3 14.48 C 0 km/h
749 17-06-2010 04:00:00 14.14 C 5.94 g/m*3 14.14 C 0 km/h
750 17-06-2010 05:00:00 13.62 C 5.84 g/m*3 13.62 C 0 km/h
Sensor: Nr:Datum:Temp:Abs-Feuchte:Windchill:Wind:
Aussen-T/F 751 17-06-2010 06:00:00 13.84 C 6.14 g/m*3 13.84 C 0 km/h
752 17-06-2010 07:00:00 15.14 C 6.29 g/m*3 15.14 C 0 km/h
753 17-06-2010 08:00:00 16.54 C 6.62 g/m*3 16.54 C 0 km/h
754 17-06-2010 09:00:00 14.46 C 8.06 g/m*3 14.46 C 0 km/h
755 17-06-2010 10:00:00 13.04 C 9.62 g/m*3 13.04 C 0 km/h
756 17-06-2010 11:00:00 13.8 C 10.51 g/m*3 13.8 C 0 km/h
757 17-06-2010 12:00:00 13.86 C 10.69 g/m*3 13.86 C 0 km/h
758 17-06-2010 13:00:00 13.78 C 10.81 g/m*3 13.78 C 0 km/h
759 17-06-2010 14:00:00 14.36 C 11.32 g/m*3 14.36 C 0 km/h
760 17-06-2010 15:00:00 16.58 C 12.22 g/m*3 16.58 C 0 km/h
761 17-06-2010 16:00:00 16.92 C 12.04 g/m*3 16.92 C 0 km/h
762 17-06-2010 17:00:00 16.7 C 11.82 g/m*3 16.7 C 0 km/h
763 17-06-2010 18:00:00 17.12 C 11.69 g/m*3 17.12 C 0 km/h
764 17-06-2010 19:00:00 16.62 C 11.97 g/m*3 16.62 C 0 km/h
765 17-06-2010 20:00:00 15.82 C 11.81 g/m*3 15.82 C 0 km/h
766 17-06-2010 21:00:00 15.46 C 11.74 g/m*3 15.46 C 0 km/h
767 17-06-2010 22:00:00 15.06 C 11.61 g/m*3 15.06 C 0 km/h
768 17-06-2010 23:00:00 14.46 C 11.29 g/m*3 14.46 C 0 km/h
769 18-06-2010 00:00:00 13.8 C 10.91 g/m*3 13.8 C 0 km/h
770 18-06-2010 01:00:00 14.04 C 11.12 g/m*3 14.04 C 0 km/h
771 18-06-2010 02:00:00 13.76 C 10.93 g/m*3 13.76 C 0 km/h
772 18-06-2010 03:00:00 13.48 C 10.72 g/m*3 13.48 C 0 km/h
773 18-06-2010 04:00:00 12.5 C 10 g/m*3 12.5 C 0 km/h
774 18-06-2010 05:00:00 12.1 C 9.76 g/m*3 12.1 C 0 km/h
775 18-06-2010 06:00:00 12.18 C 9.79 g/m*3 12.18 C 0 km/h
Sensor: Nr:Datum:Temp:Abs-Feuchte:Windchill:Wind:
Aussen-T/F 776 18-06-2010 07:00:00 12.74 C 9.86 g/m*3 12.74 C 0 km/h
777 18-06-2010 08:00:00 13.64 C 9.84 g/m*3 13.64 C 0 km/h
778 18-06-2010 09:00:00 15.48 C 9.74 g/m*3 15.48 C 0 km/h
779 18-06-2010 10:00:00 16.56 C 9.33 g/m*3 16.56 C 0 km/h
780 18-06-2010 11:00:00 16.18 C 8.93 g/m*3 16.18 C 0 km/h
781 18-06-2010 12:00:00 15.46 C 8.81 g/m*3 15.46 C 0 km/h
782 18-06-2010 13:00:00 15.84 C 8.58 g/m*3 15.84 C 0 km/h
783 18-06-2010 14:00:00 14.86 C 8.49 g/m*3 14.86 C 0 km/h
784 18-06-2010 15:00:00 14.94 C 8.41 g/m*3 14.94 C 0 km/h
785 18-06-2010 16:00:00 15.38 C 8.32 g/m*3 15.38 C 0 km/h
786 18-06-2010 17:00:00 19.16 C 7.27 g/m*3 19.16 C 0 km/h
787 18-06-2010 18:00:00 21.46 C 6.92 g/m*3 21.46 C 0 km/h
788 18-06-2010 19:00:00 19.52 C 7.23 g/m*3 19.52 C 0 km/h
789 18-06-2010 20:00:00 17.82 C 7.63 g/m*3 17.82 C 0 km/h
790 18-06-2010 21:00:00 15.02 C 9.53 g/m*3 15.02 C 0 km/h
791 18-06-2010 22:00:00 14.86 C 9.54 g/m*3 14.86 C 0 km/h
792 18-06-2010 23:00:00 14.8 C 7.52 g/m*3 14.8 C 0 km/h
793 19-06-2010 00:00:00 14.4 C 6.9 g/m*3 14.4 C 0 km/h
794 19-06-2010 01:00:00 13.6 C 7.13 g/m*3 13.6 C 0 km/h
795 19-06-2010 02:00:00 12.56 C 6.84 g/m*3 12.56 C 0 km/h
796 19-06-2010 03:00:00 12.08 C 6.68 g/m*3 12.08 C 0 km/h
797 19-06-2010 04:00:00 10.94 C 6.56 g/m*3 10.94 C 0 km/h
798 19-06-2010 05:00:00 11.14 C 6.58 g/m*3 11.14 C 0 km/h
799 19-06-2010 06:00:00 11.5 C 6.82 g/m*3 11.5 C 0 km/h
800 19-06-2010 07:00:00 11.86 C 6.7 g/m*3 11.86 C 0 km/h
Sensor: Nr:Datum:Temp:Abs-Feuchte:Windchill:Wind:
Aussen-T/F 801 19-06-2010 08:00:00 11.96 C 6.46 g/m*3 11.96 C 0 km/h
802 19-06-2010 09:00:00 12.48 C 6.61 g/m*3 12.48 C 0 km/h
803 19-06-2010 10:00:00 12.22 C 6.63 g/m*3 12.22 C 0 km/h
804 19-06-2010 11:00:00 14.74 C 6.26 g/m*3 14.74 C 0 km/h
805 19-06-2010 12:00:00 16.28 C 5.38 g/m*3 16.28 C 0 km/h
806 19-06-2010 13:00:00 16.96 C 5.98 g/m*3 16.96 C 0 km/h
807 19-06-2010 14:00:00 18.26 C 5.02 g/m*3 18.26 C 0 km/h
808 19-06-2010 15:00:00 18.32 C 4.82 g/m*3 18.32 C 0 km/h
809 19-06-2010 16:00:00 18.72 C 4.97 g/m*3 18.72 C 0 km/h
810 19-06-2010 17:00:00 17.66 C 5.12 g/m*3 17.66 C 0 km/h
811 19-06-2010 18:00:00 16.34 C 5.48 g/m*3 16.34 C 0 km/h
812 19-06-2010 19:00:00 16.68 C 5.37 g/m*3 16.68 C 0 km/h
813 19-06-2010 20:00:00 14.7 C 5.72 g/m*3 14.7 C 0 km/h
814 19-06-2010 21:00:00 14.14 C 6.18 g/m*3 14.14 C 0 km/h
815 19-06-2010 22:00:00 12.92 C 6.07 g/m*3 12.92 C 0 km/h
816 19-06-2010 23:00:00 12.08 C 6.23 g/m*3 12.08 C 0 km/h
817 20-06-2010 00:00:00 10.92 C 6.35 g/m*3 10.92 C 0 km/h
818 20-06-2010 01:00:00 10.46 C 5.96 g/m*3 10.46 C 0 km/h
819 20-06-2010 02:00:00 9.64 C 6.06 g/m*3 9.64 C 0 km/h
820 20-06-2010 03:00:00 9.46 C 6.57 g/m*3 9.46 C 0 km/h
821 20-06-2010 04:00:00 9.2 C 6.98 g/m*3 9.2 C 0 km/h
822 20-06-2010 05:00:00 9.34 C 7.12 g/m*3 9.34 C 0 km/h
823 20-06-2010 06:00:00 10.08 C 7.31 g/m*3 10.08 C 0 km/h
824 20-06-2010 07:00:00 10.44 C 7.38 g/m*3 10.44 C 0 km/h
825 20-06-2010 08:00:00 10.58 C 8.09 g/m*3 10.58 C 0 km/h
Sensor: Nr:Datum:Temp:Abs-Feuchte:Windchill:Wind:
Aussen-T/F 826 20-06-2010 09:00:00 12.48 C 8.02 g/m*3 12.48 C 0 km/h
827 20-06-2010 10:00:00 13.54 C 7.25 g/m*3 13.54 C 0 km/h
828 20-06-2010 11:00:00 13.44 C 6.95 g/m*3 13.44 C 0 km/h
829 20-06-2010 12:00:00 15.26 C 6.51 g/m*3 15.26 C 0 km/h
830 20-06-2010 13:00:00 16.36 C 6.4 g/m*3 16.36 C 0 km/h
831 20-06-2010 14:00:00 16.52 C 5.88 g/m*3 16.52 C 0 km/h
832 20-06-2010 15:00:00 17.86 C 5.88 g/m*3 17.86 C 0 km/h
833 20-06-2010 16:00:00 16.74 C 5.7 g/m*3 16.74 C 0 km/h
834 20-06-2010 17:00:00 16.32 C 5.78 g/m*3 16.32 C 0 km/h
835 20-06-2010 18:00:00 16.32 C 6.25 g/m*3 16.32 C 0 km/h
836 20-06-2010 19:00:00 15.68 C 6.01 g/m*3 15.68 C 0 km/h
837 20-06-2010 20:00:00 15.24 C 6.17 g/m*3 15.24 C 0 km/h
838 20-06-2010 21:00:00 14.58 C 6.67 g/m*3 14.58 C 0 km/h
839 20-06-2010 22:00:00 13.78 C 6.88 g/m*3 13.78 C 0 km/h
840 20-06-2010 23:00:00 12.64 C 6.92 g/m*3 12.64 C 0 km/h
841 21-06-2010 00:00:00 11.5 C 7.07 g/m*3 11.5 C 0 km/h
842 21-06-2010 01:00:00 10.94 C 7.02 g/m*3 10.94 C 0 km/h
843 21-06-2010 02:00:00 10.28 C 6.98 g/m*3 10.28 C 0 km/h
844 21-06-2010 03:00:00 9.64 C 6.81 g/m*3 9.64 C 0 km/h
845 21-06-2010 04:00:00 9.16 C 6.86 g/m*3 9.16 C 0 km/h
846 21-06-2010 05:00:00 8.68 C 6.89 g/m*3 8.68 C 0 km/h
847 21-06-2010 06:00:00 8.62 C 7.14 g/m*3 8.62 C 0 km/h
848 21-06-2010 07:00:00 10.1 C 7.34 g/m*3 10.1 C 0 km/h
849 21-06-2010 08:00:00 12.54 C 6.92 g/m*3 12.54 C 0 km/h
850 21-06-2010 09:00:00 13.74 C 6.1 g/m*3 13.74 C 0 km/h
Sensor: Nr:Datum:Temp:Abs-Feuchte:Windchill:Wind:
Aussen-T/F 851 21-06-2010 10:00:00 13.76 C 5.73 g/m*3 13.76 C 0 km/h
852 21-06-2010 11:00:00 14.68 C 5.38 g/m*3 14.68 C 0 km/h
853 21-06-2010 12:00:00 15.72 C 5.28 g/m*3 15.72 C 0 km/h
854 21-06-2010 13:00:00 16.7 C 5.14 g/m*3 16.7 C 0 km/h
855 21-06-2010 14:00:00 18.62 C 4.68 g/m*3 18.62 C 0 km/h
856 21-06-2010 15:00:00 18.66 C 4.57 g/m*3 18.66 C 0 km/h
857 21-06-2010 16:00:00 20.76 C 4.52 g/m*3 20.76 C 0 km/h
858 21-06-2010 17:00:00 19.58 C 4.62 g/m*3 19.58 C 0 km/h
859 21-06-2010 18:00:00 18.32 C 4.95 g/m*3 18.32 C 0 km/h
860 21-06-2010 19:00:00 17.54 C 5.14 g/m*3 17.54 C 0 km/h
861 21-06-2010 20:00:00 16.82 C 6.16 g/m*3 16.82 C 0 km/h
862 21-06-2010 21:00:00 15.24 C 6.19 g/m*3 15.24 C 0 km/h
863 21-06-2010 22:00:00 13.74 C 6.22 g/m*3 13.74 C 0 km/h
864 21-06-2010 23:00:00 13.32 C 6.48 g/m*3 13.32 C 0 km/h
865 22-06-2010 00:00:00 12.34 C 6.62 g/m*3 12.34 C 0 km/h
866 22-06-2010 01:00:00 12.24 C 7.01 g/m*3 12.24 C 0 km/h
867 22-06-2010 02:00:00 12.02 C 7.06 g/m*3 12.02 C 0 km/h
868 22-06-2010 03:00:00 11.82 C 7.29 g/m*3 11.82 C 0 km/h
869 22-06-2010 04:00:00 11.48 C 7.39 g/m*3 11.48 C 0 km/h
870 22-06-2010 05:00:00 11.44 C 7.49 g/m*3 11.44 C 0 km/h
871 22-06-2010 06:00:00 11.58 C 7.62 g/m*3 11.58 C 0 km/h
872 22-06-2010 07:00:00 12.24 C 7.68 g/m*3 12.24 C 0 km/h
873 22-06-2010 08:00:00 13 C 7.48 g/m*3 13 C 0 km/h
874 22-06-2010 09:00:00 15 C 7.36 g/m*3 15 C 0 km/h
875 22-06-2010 10:00:00 18.72 C 6.38 g/m*3 18.72 C 0 km/h
Sensor: Nr:Datum:Temp:Abs-Feuchte:Windchill:Wind:
Aussen-T/F 876 22-06-2010 11:00:00 20.24 C 5.82 g/m*3 20.24 C 0 km/h
877 22-06-2010 12:00:00 21.08 C 5.48 g/m*3 21.08 C 0 km/h
878 22-06-2010 13:00:00 21.68 C 5.3 g/m*3 21.68 C 0 km/h
879 22-06-2010 14:00:00 23.3 C 5.19 g/m*3 23.3 C 0 km/h
880 22-06-2010 15:00:00 24.54 C 4.93 g/m*3 24.54 C 0 km/h
881 22-06-2010 16:00:00 24.28 C 4.95 g/m*3 24.28 C 0 km/h
882 22-06-2010 17:00:00 23.3 C 5.19 g/m*3 23.3 C 0 km/h
883 22-06-2010 18:00:00 23.14 C 6.26 g/m*3 23.14 C 0 km/h
884 22-06-2010 19:00:00 23.48 C 6.29 g/m*3 23.48 C 0 km/h
885 22-06-2010 20:00:00 21.04 C 6.65 g/m*3 21.04 C 0 km/h
886 22-06-2010 21:00:00 18.02 C 6.46 g/m*3 18.02 C 0 km/h
887 22-06-2010 22:00:00 16.32 C 6.81 g/m*3 16.32 C 0 km/h
888 22-06-2010 23:00:00 14.98 C 6.99 g/m*3 14.98 C 0 km/h
889 23-06-2010 00:00:00 13.8 C 7.51 g/m*3 13.8 C 0 km/h
890 23-06-2010 01:00:00 12.68 C 7.72 g/m*3 12.68 C 0 km/h
891 23-06-2010 02:00:00 11.84 C 7.79 g/m*3 11.84 C 0 km/h
892 23-06-2010 03:00:00 11.02 C 7.72 g/m*3 11.02 C 0 km/h
893 23-06-2010 04:00:00 10.42 C 7.66 g/m*3 10.42 C 0 km/h
894 23-06-2010 05:00:00 10 C 7.69 g/m*3 10 C 0 km/h
895 23-06-2010 06:00:00 10.06 C 7.75 g/m*3 10.06 C 0 km/h
896 23-06-2010 07:00:00 10.64 C 7.77 g/m*3 10.64 C 0 km/h
897 23-06-2010 08:00:00 11.78 C 7.86 g/m*3 11.78 C 0 km/h
898 23-06-2010 09:00:00 14.16 C 7.82 g/m*3 14.16 C 0 km/h
899 23-06-2010 10:00:00 17.76 C 7.72 g/m*3 17.76 C 0 km/h
900 23-06-2010 11:00:00 21.04 C 7.42 g/m*3 21.04 C 0 km/h
Sensor: Nr:Datum:Temp:Abs-Feuchte:Windchill:Wind:
Aussen-T/F 901 23-06-2010 12:00:00 25.96 C 5.93 g/m*3 25.96 C 0 km/h
902 23-06-2010 13:00:00 28.04 C 5.56 g/m*3 28.04 C 0 km/h
903 23-06-2010 14:00:00 27.64 C 5.44 g/m*3 27.64 C 0 km/h
904 23-06-2010 15:00:00 28.64 C 5.69 g/m*3 28.64 C 0 km/h
905 23-06-2010 16:00:00 30.16 C 6.12 g/m*3 30.16 C 0 km/h
906 23-06-2010 17:00:00 29.46 C 5.89 g/m*3 29.46 C 0 km/h
907 23-06-2010 18:00:00 30.28 C 6.16 g/m*3 30.28 C 0 km/h
908 23-06-2010 19:00:00 29.14 C 5.79 g/m*3 29.14 C 0 km/h
909 23-06-2010 20:00:00 27.38 C 6.57 g/m*3 27.38 C 0 km/h
910 23-06-2010 21:00:00 22.68 C 6.86 g/m*3 22.68 C 0 km/h
911 23-06-2010 22:00:00 20.52 C 6.95 g/m*3 20.52 C 0 km/h
912 23-06-2010 23:00:00 19.12 C 7.25 g/m*3 19.12 C 0 km/h
913 24-06-2010 00:00:00 17.58 C 7.79 g/m*3 17.58 C 0 km/h
914 24-06-2010 01:00:00 16.08 C 8.24 g/m*3 16.08 C 0 km/h
915 24-06-2010 02:00:00 14.98 C 8.3 g/m*3 14.98 C 0 km/h
916 24-06-2010 03:00:00 14.18 C 8.34 g/m*3 14.18 C 0 km/h
917 24-06-2010 04:00:00 13.2 C 8.4 g/m*3 13.2 C 0 km/h
918 24-06-2010 05:00:00 12.62 C 8.42 g/m*3 12.62 C 0 km/h
919 24-06-2010 06:00:00 12.7 C 8.53 g/m*3 12.7 C 0 km/h
920 24-06-2010 07:00:00 13.42 C 8.43 g/m*3 13.42 C 0 km/h
921 24-06-2010 08:00:00 14.76 C 8.59 g/m*3 14.76 C 0 km/h
922 24-06-2010 09:00:00 17.46 C 8.57 g/m*3 17.46 C 0 km/h
923 24-06-2010 10:00:00 21.5 C 8.6 g/m*3 21.5 C 0 km/h
924 24-06-2010 11:00:00 24.96 C 7.72 g/m*3 24.96 C 0 km/h
925 24-06-2010 12:00:00 28.72 C 6.05 g/m*3 28.72 C 0 km/h
Sensor: Nr:Datum:Temp:Abs-Feuchte:Windchill:Wind:
Aussen-T/F 926 24-06-2010 13:00:00 30.34 C 6.18 g/m*3 30.34 C 0 km/h
927 24-06-2010 14:00:00 29.72 C 5.97 g/m*3 29.72 C 0 km/h
928 24-06-2010 15:00:00 30.9 C 6.37 g/m*3 30.9 C 0 km/h
929 24-06-2010 16:00:00 31.32 C 6.51 g/m*3 31.32 C 0 km/h
930 24-06-2010 17:00:00 32.64 C 6.99 g/m*3 32.64 C 0 km/h
931 24-06-2010 18:00:00 32.64 C 6.99 g/m*3 32.64 C 0 km/h
932 24-06-2010 19:00:00 31.72 C 6.65 g/m*3 31.72 C 0 km/h
933 24-06-2010 20:00:00 30.14 C 6.91 g/m*3 30.14 C 0 km/h
934 24-06-2010 21:00:00 25.24 C 7.09 g/m*3 25.24 C 0 km/h
935 24-06-2010 22:00:00 22.96 C 7.46 g/m*3 22.96 C 0 km/h
936 24-06-2010 23:00:00 21.38 C 7.72 g/m*3 21.38 C 0 km/h
937 25-06-2010 00:00:00 20.04 C 8.04 g/m*3 20.04 C 0 km/h
938 25-06-2010 01:00:00 18.86 C 8.37 g/m*3 18.86 C 0 km/h
939 25-06-2010 02:00:00 18.4 C 8.78 g/m*3 18.4 C 0 km/h
940 25-06-2010 03:00:00 17.06 C 9.12 g/m*3 17.06 C 0 km/h
941 25-06-2010 04:00:00 16.72 C 9.31 g/m*3 16.72 C 0 km/h
942 25-06-2010 05:00:00 16.16 C 9.35 g/m*3 16.16 C 0 km/h
943 25-06-2010 06:00:00 16.22 C 9.53 g/m*3 16.22 C 0 km/h
944 25-06-2010 07:00:00 17.12 C 9.68 g/m*3 17.12 C 0 km/h
945 25-06-2010 08:00:00 19.04 C 9.41 g/m*3 19.04 C 0 km/h
946 25-06-2010 09:00:00 20.38 C 9.15 g/m*3 20.38 C 0 km/h
947 25-06-2010 10:00:00 22.58 C 8.75 g/m*3 22.58 C 0 km/h
948 25-06-2010 11:00:00 24.32 C 8.24 g/m*3 24.32 C 0 km/h
949 25-06-2010 12:00:00 27.72 C 7.82 g/m*3 27.72 C 0 km/h
950 25-06-2010 13:00:00 29.04 C 7.25 g/m*3 29.04 C 0 km/h
Sensor: Nr:Datum:Temp:Abs-Feuchte:Windchill:Wind:
Aussen-T/F 951 25-06-2010 14:00:00 28.84 C 6.95 g/m*3 28.84 C 0 km/h
952 25-06-2010 15:00:00 29.6 C 6.47 g/m*3 29.6 C 0 km/h
953 25-06-2010 16:00:00 30.24 C 6.14 g/m*3 30.24 C 0 km/h
954 25-06-2010 17:00:00 30.7 C 6.3 g/m*3 30.7 C 0 km/h
955 25-06-2010 18:00:00 30.74 C 6.31 g/m*3 30.74 C 0 km/h
956 25-06-2010 19:00:00 30.2 C 6.19 g/m*3 30.2 C 0 km/h
957 25-06-2010 20:00:00 28.24 C 6.01 g/m*3 28.24 C 0 km/h
958 25-06-2010 21:00:00 24.98 C 7.08 g/m*3 24.98 C 0 km/h
959 25-06-2010 22:00:00 22.64 C 7.45 g/m*3 22.64 C 0 km/h
960 25-06-2010 23:00:00 21.04 C 7.79 g/m*3 21.04 C 0 km/h
961 26-06-2010 00:00:00 19.68 C 8.18 g/m*3 19.68 C 0 km/h
962 26-06-2010 01:00:00 18.6 C 8.31 g/m*3 18.6 C 0 km/h
963 26-06-2010 02:00:00 17.42 C 8.55 g/m*3 17.42 C 0 km/h
964 26-06-2010 03:00:00 16.46 C 8.66 g/m*3 16.46 C 0 km/h
965 26-06-2010 04:00:00 15.5 C 8.83 g/m*3 15.5 C 0 km/h
966 26-06-2010 05:00:00 14.76 C 8.92 g/m*3 14.76 C 0 km/h
967 26-06-2010 06:00:00 14.74 C 9.21 g/m*3 14.74 C 0 km/h
968 26-06-2010 07:00:00 15.38 C 9.32 g/m*3 15.38 C 0 km/h
969 26-06-2010 08:00:00 16.8 C 9.52 g/m*3 16.8 C 0 km/h
970 26-06-2010 09:00:00 19.56 C 9.6 g/m*3 19.56 C 0 km/h
971 26-06-2010 10:00:00 23.02 C 8.89 g/m*3 23.02 C 0 km/h
972 26-06-2010 11:00:00 26.18 C 7.23 g/m*3 26.18 C 0 km/h
973 26-06-2010 12:00:00 29.4 C 6.46 g/m*3 29.4 C 0 km/h
974 26-06-2010 13:00:00 31.08 C 6.43 g/m*3 31.08 C 0 km/h
975 26-06-2010 14:00:00 29.52 C 5.91 g/m*3 29.52 C 0 km/h
Sensor: Nr:Datum:Temp:Abs-Feuchte:Windchill:Wind:
Aussen-T/F 976 26-06-2010 15:00:00 30.66 C 6.28 g/m*3 30.66 C 0 km/h
977 26-06-2010 16:00:00 31.64 C 6.62 g/m*3 31.64 C 0 km/h
978 26-06-2010 17:00:00 32.84 C 7.06 g/m*3 32.84 C 0 km/h
979 26-06-2010 18:00:00 32.04 C 6.77 g/m*3 32.04 C 0 km/h
980 26-06-2010 19:00:00 31.24 C 6.48 g/m*3 31.24 C 0 km/h
981 26-06-2010 20:00:00 30.14 C 6.48 g/m*3 30.14 C 0 km/h
982 26-06-2010 21:00:00 25.86 C 7.1 g/m*3 25.86 C 0 km/h
983 26-06-2010 22:00:00 23.16 C 7.55 g/m*3 23.16 C 0 km/h
984 26-06-2010 23:00:00 21.56 C 7.83 g/m*3 21.56 C 0 km/h
985 27-06-2010 00:00:00 20.08 C 7.95 g/m*3 20.08 C 0 km/h
986 27-06-2010 01:00:00 18.76 C 8.32 g/m*3 18.76 C 0 km/h
987 27-06-2010 02:00:00 17.56 C 8.59 g/m*3 17.56 C 0 km/h
988 27-06-2010 03:00:00 16.64 C 8.84 g/m*3 16.64 C 0 km/h
989 27-06-2010 04:00:00 15.76 C 8.89 g/m*3 15.76 C 0 km/h
990 27-06-2010 05:00:00 15.04 C 8.92 g/m*3 15.04 C 0 km/h
991 27-06-2010 06:00:00 14.94 C 9.2 g/m*3 14.94 C 0 km/h
992 27-06-2010 07:00:00 15.36 C 9.36 g/m*3 15.36 C 0 km/h
993 27-06-2010 08:00:00 17.04 C 9.25 g/m*3 17.04 C 0 km/h
994 27-06-2010 09:00:00 20.34 C 9.41 g/m*3 20.34 C 0 km/h
995 27-06-2010 10:00:00 24.16 C 8.91 g/m*3 24.16 C 0 km/h
996 27-06-2010 11:00:00 27.22 C 7.82 g/m*3 27.22 C 0 km/h
997 27-06-2010 12:00:00 30.58 C 6.45 g/m*3 30.58 C 0 km/h
998 27-06-2010 13:00:00 31.9 C 6.72 g/m*3 31.9 C 0 km/h
999 27-06-2010 14:00:00 31.34 C 6.52 g/m*3 31.34 C 0 km/h
1000 27-06-2010 15:00:00 32.44 C 6.91 g/m*3 32.44 C 0 km/h
Sensor: Nr:Datum:Temp:Abs-Feuchte:Windchill:Wind:
Aussen-T/F 1001 27-06-2010 16:00:00 33.1 C 7.16 g/m*3 33.1 C 0 km/h
1002 27-06-2010 17:00:00 33.26 C 7.22 g/m*3 33.26 C 0 km/h
1003 27-06-2010 18:00:00 33.72 C 7.39 g/m*3 33.72 C 0 km/h
1004 27-06-2010 19:00:00 33.38 C 7.26 g/m*3 33.38 C 0 km/h
1005 27-06-2010 20:00:00 31.46 C 6.63 g/m*3 31.46 C 0 km/h
1006 27-06-2010 21:00:00 26.92 C 7.23 g/m*3 26.92 C 0 km/h
1007 27-06-2010 22:00:00 24.2 C 7.48 g/m*3 24.2 C 0 km/h
1008 27-06-2010 23:00:00 22.66 C 7.94 g/m*3 22.66 C 0 km/h
1009 28-06-2010 00:00:00 21 C 8.21 g/m*3 21 C 0 km/h
1010 28-06-2010 01:00:00 19.78 C 8.19 g/m*3 19.78 C 0 km/h
1011 28-06-2010 02:00:00 18.7 C 8.65 g/m*3 18.7 C 0 km/h
1012 28-06-2010 03:00:00 17.78 C 8.76 g/m*3 17.78 C 0 km/h
1013 28-06-2010 04:00:00 16.78 C 9.02 g/m*3 16.78 C 0 km/h
1014 28-06-2010 05:00:00 16.1 C 9.21 g/m*3 16.1 C 0 km/h
1015 28-06-2010 06:00:00 16.42 C 9.47 g/m*3 16.42 C 0 km/h
1016 28-06-2010 07:00:00 16.8 C 9.69 g/m*3 16.8 C 0 km/h
1017 28-06-2010 08:00:00 18.2 C 9.61 g/m*3 18.2 C 0 km/h
1018 28-06-2010 09:00:00 21.24 C 9.7 g/m*3 21.24 C 0 km/h
1019 28-06-2010 10:00:00 25.26 C 9.67 g/m*3 25.26 C 0 km/h
1020 28-06-2010 11:00:00 28.96 C 8.88 g/m*3 28.96 C 0 km/h
1021 28-06-2010 12:00:00 31.7 C 7.04 g/m*3 31.7 C 0 km/h
1022 28-06-2010 13:00:00 33.08 C 7.15 g/m*3 33.08 C 0 km/h
1023 28-06-2010 14:00:00 32.52 C 6.94 g/m*3 32.52 C 0 km/h
1024 28-06-2010 15:00:00 32.42 C 6.9 g/m*3 32.42 C 0 km/h
1025 28-06-2010 16:00:00 32.74 C 7.02 g/m*3 32.74 C 0 km/h
Sensor: Nr:Datum:Temp:Abs-Feuchte:Windchill:Wind:
Aussen-T/F 1026 28-06-2010 17:00:00 33.18 C 7.19 g/m*3 33.18 C 0 km/h
1027 28-06-2010 18:00:00 32.8 C 7.04 g/m*3 32.8 C 0 km/h
1028 28-06-2010 19:00:00 31.6 C 6.61 g/m*3 31.6 C 0 km/h
1029 28-06-2010 20:00:00 30.48 C 6.85 g/m*3 30.48 C 0 km/h
1030 28-06-2010 21:00:00 27.64 C 7.2 g/m*3 27.64 C 0 km/h
1031 28-06-2010 22:00:00 26.15 C 7.55 g/m*3 26.15 C 0 km/h
1032 28-06-2010 23:00:00 24.98 C 8.28 g/m*3 24.98 C 0 km/h
1033 29-06-2010 00:00:00 23.56 C 8.74 g/m*3 23.56 C 0 km/h
1034 29-06-2010 01:00:00 22.18 C 9.02 g/m*3 22.18 C 0 km/h
1035 29-06-2010 02:00:00 21.12 C 9.3 g/m*3 21.12 C 0 km/h
1036 29-06-2010 03:00:00 20.58 C 9.51 g/m*3 20.58 C 0 km/h
1037 29-06-2010 04:00:00 19.52 C 9.75 g/m*3 19.52 C 0 km/h
1038 29-06-2010 05:00:00 18.7 C 10.21 g/m*3 18.7 C 0 km/h
1039 29-06-2010 06:00:00 18.36 C 10.45 g/m*3 18.36 C 0 km/h
1040 29-06-2010 07:00:00 18.88 C 10.65 g/m*3 18.88 C 0 km/h
1041 29-06-2010 08:00:00 20.02 C 10.52 g/m*3 20.02 C 0 km/h
1042 29-06-2010 09:00:00 22.62 C 10.1 g/m*3 22.62 C 0 km/h
1043 29-06-2010 10:00:00 25.84 C 9.8 g/m*3 25.84 C 0 km/h
1044 29-06-2010 11:00:00 28.5 C 9.61 g/m*3 28.5 C 0 km/h
1045 29-06-2010 12:00:00 31.44 C 7.99 g/m*3 31.44 C 0 km/h
1046 29-06-2010 13:00:00 32.64 C 6.99 g/m*3 32.64 C 0 km/h
1047 29-06-2010 14:00:00 31.54 C 6.65 g/m*3 31.54 C 0 km/h
1048 29-06-2010 15:00:00 28.6 C 7.98 g/m*3 28.6 C 0 km/h
1049 29-06-2010 16:00:00 27.06 C 11.05 g/m*3 27.06 C 0 km/h
1050 29-06-2010 17:00:00 29.54 C 9.76 g/m*3 29.54 C 0 km/h
Sensor: Nr:Datum:Temp:Abs-Feuchte:Windchill:Wind:
Aussen-T/F 1051 29-06-2010 18:00:00 29.1 C 8.61 g/m*3 29.1 C 0 km/h
1052 29-06-2010 19:00:00 28.96 C 8.6 g/m*3 28.96 C 0 km/h
1053 29-06-2010 20:00:00 27.68 C 8.6 g/m*3 27.68 C 0 km/h
1054 29-06-2010 21:00:00 25.38 C 9.5 g/m*3 25.38 C 0 km/h
1055 29-06-2010 22:00:00 23 C 9.87 g/m*3 23 C 0 km/h
1056 29-06-2010 23:00:00 21.86 C 10.2 g/m*3 21.86 C 0 km/h
1057 30-06-2010 00:00:00 20.6 C 10.49 g/m*3 20.6 C 0 km/h
1058 30-06-2010 01:00:00 19.5 C 10.81 g/m*3 19.5 C 0 km/h
1059 30-06-2010 02:00:00 18.54 C 10.94 g/m*3 18.54 C 0 km/h
1060 30-06-2010 03:00:00 17.76 C 11.11 g/m*3 17.76 C 0 km/h
1061 30-06-2010 04:00:00 16.96 C 11.03 g/m*3 16.96 C 0 km/h
1062 30-06-2010 05:00:00 16.32 C 10.95 g/m*3 16.32 C 0 km/h
1063 30-06-2010 06:00:00 16.18 C 10.8 g/m*3 16.18 C 0 km/h
1064 30-06-2010 07:00:00 17.32 C 10.77 g/m*3 17.32 C 0 km/h
1065 30-06-2010 08:00:00 18.28 C 10.93 g/m*3 18.28 C 0 km/h
1066 30-06-2010 09:00:00 20.5 C 9.93 g/m*3 20.5 C 0 km/h
1067 30-06-2010 10:00:00 23.6 C 9.32 g/m*3 23.6 C 0 km/h
1068 30-06-2010 11:00:00 26.9 C 8.5 g/m*3 26.9 C 0 km/h
1069 30-06-2010 12:00:00 29.24 C 6.58 g/m*3 29.24 C 0 km/h
1070 30-06-2010 13:00:00 31.84 C 6.69 g/m*3 31.84 C 0 km/h
1071 30-06-2010 14:00:00 31.78 C 6.67 g/m*3 31.78 C 0 km/h
1072 30-06-2010 15:00:00 32.34 C 6.87 g/m*3 32.34 C 0 km/h
1073 30-06-2010 16:00:00 32.36 C 6.88 g/m*3 32.36 C 0 km/h
1074 30-06-2010 17:00:00 32.34 C 6.87 g/m*3 32.34 C 0 km/h
1075 30-06-2010 18:00:00 32.32 C 6.87 g/m*3 32.32 C 0 km/h
Sensor: Nr:Datum:Temp:Abs-Feuchte:Windchill:Wind:
Aussen-T/F 1076 30-06-2010 19:00:00 31.08 C 6.94 g/m*3 31.08 C 0 km/h
1077 30-06-2010 20:00:00 29.74 C 7.95 g/m*3 29.74 C 0 km/h
1078 30-06-2010 21:00:00 26.54 C 7.83 g/m*3 26.54 C 0 km/h
1079 30-06-2010 22:00:00 24.98 C 8.09 g/m*3 24.98 C 0 km/h
1080 30-06-2010 23:00:00 23.8 C 8.56 g/m*3 23.8 C 0 km/h
1081 01-07-2010 00:00:00 22.42 C 8.71 g/m*3 22.42 C 0 km/h
1082 01-07-2010 01:00:00 21.16 C 9.1 g/m*3 21.16 C 0 km/h
1083 01-07-2010 02:00:00 20 C 9.51 g/m*3 20 C 0 km/h
1084 01-07-2010 03:00:00 19.06 C 9.85 g/m*3 19.06 C 0 km/h
1085 01-07-2010 04:00:00 18.3 C 9.85 g/m*3 18.3 C 0 km/h
1086 01-07-2010 05:00:00 17.36 C 10.17 g/m*3 17.36 C 0 km/h
1087 01-07-2010 06:00:00 17.12 C 10.41 g/m*3 17.12 C 0 km/h
1088 01-07-2010 07:00:00 17.68 C 10.43 g/m*3 17.68 C 0 km/h
1089 01-07-2010 08:00:00 18.82 C 10.55 g/m*3 18.82 C 0 km/h
1090 01-07-2010 09:00:00 21.8 C 10.48 g/m*3 21.8 C 0 km/h
1091 01-07-2010 10:00:00 25.82 C 10.22 g/m*3 25.82 C 0 km/h
1092 01-07-2010 11:00:00 28.68 C 9.2 g/m*3 28.68 C 0 km/h
1093 01-07-2010 12:00:00 31.1 C 7.01 g/m*3 31.1 C 0 km/h
1094 01-07-2010 13:00:00 32.8 C 7.04 g/m*3 32.8 C 0 km/h
1095 01-07-2010 14:00:00 32.22 C 6.83 g/m*3 32.22 C 0 km/h
1096 01-07-2010 15:00:00 32.88 C 7.07 g/m*3 32.88 C 0 km/h
1097 01-07-2010 16:00:00 33.2 C 7.2 g/m*3 33.2 C 0 km/h
1098 01-07-2010 17:00:00 33.3 C 7.23 g/m*3 33.3 C 0 km/h
1099 01-07-2010 18:00:00 33.86 C 7.45 g/m*3 33.86 C 0 km/h
1100 01-07-2010 19:00:00 33.46 C 7.29 g/m*3 33.46 C 0 km/h
Sensor: Nr:Datum:Temp:Abs-Feuchte:Windchill:Wind:
Aussen-T/F 1101 01-07-2010 20:00:00 31.52 C 7.7 g/m*3 31.52 C 0 km/h
1102 01-07-2010 21:00:00 27.42 C 8.59 g/m*3 27.42 C 0 km/h
1103 01-07-2010 22:00:00 25.5 C 8.52 g/m*3 25.5 C 0 km/h
1104 01-07-2010 23:00:00 24.74 C 8.44 g/m*3 24.74 C 0 km/h
1105 02-07-2010 00:00:00 23.48 C 8.83 g/m*3 23.48 C 0 km/h
1106 02-07-2010 01:00:00 22.46 C 9.05 g/m*3 22.46 C 0 km/h
1107 02-07-2010 02:00:00 21.32 C 8.96 g/m*3 21.32 C 0 km/h
1108 02-07-2010 03:00:00 20.6 C 9.16 g/m*3 20.6 C 0 km/h
1109 02-07-2010 04:00:00 19.68 C 9.67 g/m*3 19.68 C 0 km/h
1110 02-07-2010 05:00:00 18.86 C 9.79 g/m*3 18.86 C 0 km/h
1111 02-07-2010 06:00:00 18.68 C 10.27 g/m*3 18.68 C 0 km/h
1112 02-07-2010 07:00:00 19.52 C 10.52 g/m*3 19.52 C 0 km/h
1113 02-07-2010 08:00:00 20.86 C 10.54 g/m*3 20.86 C 0 km/h
1114 02-07-2010 09:00:00 24.14 C 10.7 g/m*3 24.14 C 0 km/h
1115 02-07-2010 10:00:00 27.86 C 10.42 g/m*3 27.86 C 0 km/h
1116 02-07-2010 11:00:00 30.18 C 9.92 g/m*3 30.18 C 0 km/h
1117 02-07-2010 12:00:00 32.12 C 8.02 g/m*3 32.12 C 0 km/h
1118 02-07-2010 13:00:00 33.36 C 7.26 g/m*3 33.36 C 0 km/h
1119 02-07-2010 14:00:00 32.78 C 7.39 g/m*3 32.78 C 0 km/h
1120 02-07-2010 15:00:00 32.2 C 8.53 g/m*3 32.2 C 0 km/h
1121 02-07-2010 16:00:00 32.46 C 8.79 g/m*3 32.46 C 0 km/h
1122 02-07-2010 17:00:00 34.22 C 7.59 g/m*3 34.22 C 0 km/h
1123 02-07-2010 18:00:00 33.7 C 7.39 g/m*3 33.7 C 0 km/h
1124 02-07-2010 19:00:00 33.76 C 7.41 g/m*3 33.76 C 0 km/h
1125 02-07-2010 20:00:00 32.56 C 8.07 g/m*3 32.56 C 0 km/h
Sensor: Nr:Datum:Temp:Abs-Feuchte:Windchill:Wind:
Aussen-T/F 1126 02-07-2010 21:00:00 29.68 C 8.35 g/m*3 29.68 C 0 km/h
1127 02-07-2010 22:00:00 27.1 C 7.92 g/m*3 27.1 C 0 km/h
1128 02-07-2010 23:00:00 25.62 C 8.2 g/m*3 25.62 C 0 km/h
1129 03-07-2010 00:00:00 24.46 C 8.98 g/m*3 24.46 C 0 km/h
1130 03-07-2010 01:00:00 23.38 C 9.83 g/m*3 23.38 C 0 km/h
1131 03-07-2010 02:00:00 22.52 C 10.44 g/m*3 22.52 C 0 km/h
1132 03-07-2010 03:00:00 21.58 C 10.76 g/m*3 21.58 C 0 km/h
1133 03-07-2010 04:00:00 20.68 C 11.04 g/m*3 20.68 C 0 km/h
1134 03-07-2010 05:00:00 20.02 C 11.32 g/m*3 20.02 C 0 km/h
1135 03-07-2010 06:00:00 20.18 C 11.49 g/m*3 20.18 C 0 km/h
1136 03-07-2010 07:00:00 21.32 C 11.76 g/m*3 21.32 C 0 km/h
1137 03-07-2010 08:00:00 22.58 C 11.8 g/m*3 22.58 C 0 km/h
1138 03-07-2010 09:00:00 25.16 C 12.12 g/m*3 25.16 C 0 km/h
1139 03-07-2010 10:00:00 28.84 C 12.13 g/m*3 28.84 C 0 km/h
1140 03-07-2010 11:00:00 31.3 C 10.86 g/m*3 31.3 C 0 km/h
1141 03-07-2010 12:00:00 33.3 C 7.59 g/m*3 33.3 C 0 km/h
1142 03-07-2010 13:00:00 33.78 C 7.71 g/m*3 33.78 C 0 km/h
1143 03-07-2010 14:00:00 33.72 C 7.39 g/m*3 33.72 C 0 km/h
1144 03-07-2010 15:00:00 31.94 C 7.81 g/m*3 31.94 C 0 km/h
1145 03-07-2010 16:00:00 30.8 C 8.74 g/m*3 30.8 C 0 km/h
1146 03-07-2010 17:00:00 29.4 C 9.86 g/m*3 29.4 C 0 km/h
1147 03-07-2010 18:00:00 26.48 C 10.7 g/m*3 26.48 C 0 km/h
1148 03-07-2010 19:00:00 27.1 C 11.44 g/m*3 27.1 C 0 km/h
1149 03-07-2010 20:00:00 28.08 C 12.07 g/m*3 28.08 C 0 km/h
1150 03-07-2010 21:00:00 26.24 C 13.42 g/m*3 26.24 C 0 km/h
Sensor: Nr:Datum:Temp:Abs-Feuchte:Windchill:Wind:
Aussen-T/F 1151 03-07-2010 22:00:00 25.02 C 14.06 g/m*3 25.02 C 0 km/h
1152 03-07-2010 23:00:00 24.04 C 13.78 g/m*3 24.04 C 0 km/h
1153 04-07-2010 00:00:00 23.46 C 14.01 g/m*3 23.46 C 0 km/h
1154 04-07-2010 01:00:00 22.92 C 13.79 g/m*3 22.92 C 0 km/h
1155 04-07-2010 02:00:00 22.38 C 13.61 g/m*3 22.38 C 0 km/h
1156 04-07-2010 03:00:00 22.16 C 13.79 g/m*3 22.16 C 0 km/h
1157 04-07-2010 04:00:00 21.62 C 13.9 g/m*3 21.62 C 0 km/h
1158 04-07-2010 05:00:00 21.12 C 13.95 g/m*3 21.12 C 0 km/h
1159 04-07-2010 06:00:00 21.64 C 13.99 g/m*3 21.64 C 0 km/h
1160 04-07-2010 07:00:00 22.34 C 13.89 g/m*3 22.34 C 0 km/h
1161 04-07-2010 08:00:00 23.16 C 13.44 g/m*3 23.16 C 0 km/h
1162 04-07-2010 09:00:00 23.54 C 12.93 g/m*3 23.54 C 0 km/h
1163 04-07-2010 10:00:00 24.42 C 12.61 g/m*3 24.42 C 0 km/h
1164 04-07-2010 11:00:00 26.02 C 12.09 g/m*3 26.02 C 0 km/h
1165 04-07-2010 12:00:00 27.94 C 11 g/m*3 27.94 C 0 km/h
1166 04-07-2010 13:00:00 30.34 C 9.64 g/m*3 30.34 C 0 km/h
1167 04-07-2010 14:00:00 30.56 C 9.5 g/m*3 30.56 C 0 km/h
1168 04-07-2010 15:00:00 31.98 C 8.5 g/m*3 31.98 C 0 km/h
1169 04-07-2010 16:00:00 32.22 C 7.86 g/m*3 32.22 C 0 km/h
1170 04-07-2010 17:00:00 32.48 C 7.55 g/m*3 32.48 C 0 km/h
1171 04-07-2010 18:00:00 32.5 C 7.56 g/m*3 32.5 C 0 km/h
1172 04-07-2010 19:00:00 30.92 C 8.73 g/m*3 30.92 C 0 km/h
1173 04-07-2010 20:00:00 31.06 C 8.8 g/m*3 31.06 C 0 km/h
1174 04-07-2010 21:00:00 27.74 C 9.65 g/m*3 27.74 C 0 km/h
1175 04-07-2010 22:00:00 26.44 C 9.58 g/m*3 26.44 C 0 km/h
Sensor: Nr:Datum:Temp:Abs-Feuchte:Windchill:Wind:
Aussen-T/F 1176 04-07-2010 23:00:00 25.8 C 9.24 g/m*3 25.8 C 0 km/h
1177 05-07-2010 00:00:00 24.34 C 8.16 g/m*3 24.34 C 0 km/h
1178 05-07-2010 01:00:00 23.26 C 7.13 g/m*3 23.26 C 0 km/h
1179 05-07-2010 02:00:00 21.94 C 7.08 g/m*3 21.94 C 0 km/h
1180 05-07-2010 03:00:00 21.02 C 6.82 g/m*3 21.02 C 0 km/h
1181 05-07-2010 04:00:00 19.96 C 6.28 g/m*3 19.96 C 0 km/h
1182 05-07-2010 05:00:00 18.86 C 6.3 g/m*3 18.86 C 0 km/h
1183 05-07-2010 06:00:00 18.34 C 6.77 g/m*3 18.34 C 0 km/h
1184 05-07-2010 07:00:00 18.44 C 7.47 g/m*3 18.44 C 0 km/h
1185 05-07-2010 08:00:00 19.4 C 7.01 g/m*3 19.4 C 0 km/h
1186 05-07-2010 09:00:00 21.28 C 6.67 g/m*3 21.28 C 0 km/h
1187 05-07-2010 10:00:00 23.7 C 6.42 g/m*3 23.7 C 0 km/h
1188 05-07-2010 11:00:00 26.54 C 6.62 g/m*3 26.54 C 0 km/h
1189 05-07-2010 12:00:00 27.94 C 6.61 g/m*3 27.94 C 0 km/h
1190 05-07-2010 13:00:00 27.88 C 7.56 g/m*3 27.88 C 0 km/h
1191 05-07-2010 14:00:00 26.2 C 8.03 g/m*3 26.2 C 0 km/h
1192 05-07-2010 15:00:00 25.86 C 8.26 g/m*3 25.86 C 0 km/h
1193 05-07-2010 16:00:00 24.76 C 8.9 g/m*3 24.76 C 0 km/h
1194 05-07-2010 17:00:00 23.46 C 10.04 g/m*3 23.46 C 0 km/h
1195 05-07-2010 18:00:00 21.1 C 11.76 g/m*3 21.1 C 0 km/h
1196 05-07-2010 19:00:00 19.32 C 13.62 g/m*3 19.32 C 0 km/h
1197 05-07-2010 20:00:00 19.44 C 13.14 g/m*3 19.44 C 0 km/h
1198 05-07-2010 21:00:00 18.96 C 12.94 g/m*3 18.96 C 0 km/h
1199 05-07-2010 22:00:00 18.62 C 12.78 g/m*3 18.62 C 0 km/h
1200 05-07-2010 23:00:00 17.88 C 12.47 g/m*3 17.88 C 0 km/h
Sensor: Nr:Datum:Temp:Abs-Feuchte:Windchill:Wind:
Aussen-T/F 1201 06-07-2010 00:00:00 17.24 C 11.98 g/m*3 17.24 C 0 km/h
1202 06-07-2010 01:00:00 17.24 C 11.77 g/m*3 17.24 C 0 km/h
1203 06-07-2010 02:00:00 16.84 C 11.26 g/m*3 16.84 C 0 km/h
1204 06-07-2010 03:00:00 16.34 C 10.88 g/m*3 16.34 C 0 km/h
1205 06-07-2010 04:00:00 15.2 C 10.1 g/m*3 15.2 C 0 km/h
1206 06-07-2010 05:00:00 14.86 C 10.25 g/m*3 14.86 C 0 km/h
1207 06-07-2010 06:00:00 14.66 C 9.92 g/m*3 14.66 C 0 km/h
1208 06-07-2010 07:00:00 15.08 C 9.72 g/m*3 15.08 C 0 km/h
1209 06-07-2010 08:00:00 15.9 C 9.24 g/m*3 15.9 C 0 km/h
1210 06-07-2010 09:00:00 17.54 C 8.28 g/m*3 17.54 C 0 km/h
1211 06-07-2010 10:00:00 20.02 C 7.27 g/m*3 20.02 C 0 km/h
1212 06-07-2010 11:00:00 21.48 C 6.59 g/m*3 21.48 C 0 km/h
1213 06-07-2010 12:00:00 23.02 C 5.51 g/m*3 23.02 C 0 km/h
1214 06-07-2010 13:00:00 24.6 C 5.04 g/m*3 24.6 C 0 km/h
1215 06-07-2010 14:00:00 24.28 C 4.73 g/m*3 24.28 C 0 km/h
1216 06-07-2010 15:00:00 24.52 C 4.48 g/m*3 24.52 C 0 km/h
1217 06-07-2010 16:00:00 25.84 C 4.83 g/m*3 25.84 C 0 km/h
1218 06-07-2010 17:00:00 26.92 C 5.12 g/m*3 26.92 C 0 km/h
1219 06-07-2010 18:00:00 25.46 C 4.72 g/m*3 25.46 C 0 km/h
1220 06-07-2010 19:00:00 25.06 C 4.8 g/m*3 25.06 C 0 km/h
1221 06-07-2010 20:00:00 24.3 C 5.31 g/m*3 24.3 C 0 km/h
1222 06-07-2010 21:00:00 21.36 C 6.25 g/m*3 21.36 C 0 km/h
1223 06-07-2010 22:00:00 18.84 C 6.52 g/m*3 18.84 C 0 km/h
1224 06-07-2010 23:00:00 17.68 C 6.81 g/m*3 17.68 C 0 km/h
1225 07-07-2010 00:00:00 16.5 C 6.88 g/m*3 16.5 C 0 km/h
Sensor: Nr:Datum:Temp:Abs-Feuchte:Windchill:Wind:
Aussen-T/F 1226 07-07-2010 01:00:00 15.52 C 7.41 g/m*3 15.52 C 0 km/h
1227 07-07-2010 02:00:00 14.8 C 7.68 g/m*3 14.8 C 0 km/h
1228 07-07-2010 03:00:00 13.92 C 7.78 g/m*3 13.92 C 0 km/h
1229 07-07-2010 04:00:00 13.3 C 7.74 g/m*3 13.3 C 0 km/h
1230 07-07-2010 05:00:00 12.76 C 8 g/m*3 12.76 C 0 km/h
1231 07-07-2010 06:00:00 12.7 C 8.24 g/m*3 12.7 C 0 km/h
1232 07-07-2010 07:00:00 13.34 C 8.39 g/m*3 13.34 C 0 km/h
1233 07-07-2010 08:00:00 14.76 C 8.31 g/m*3 14.76 C 0 km/h
1234 07-07-2010 09:00:00 17.66 C 8.13 g/m*3 17.66 C 0 km/h
1235 07-07-2010 10:00:00 21.04 C 7.97 g/m*3 21.04 C 0 km/h
1236 07-07-2010 11:00:00 23.62 C 6 g/m*3 23.62 C 0 km/h
1237 07-07-2010 12:00:00 26.78 C 5.34 g/m*3 26.78 C 0 km/h
1238 07-07-2010 13:00:00 29.38 C 5.86 g/m*3 29.38 C 0 km/h
1239 07-07-2010 14:00:00 28.34 C 5.54 g/m*3 28.34 C 0 km/h
1240 07-07-2010 15:00:00 30.4 C 6.2 g/m*3 30.4 C 0 km/h
1241 07-07-2010 16:00:00 31.96 C 6.74 g/m*3 31.96 C 0 km/h
1242 07-07-2010 17:00:00 32.54 C 6.95 g/m*3 32.54 C 0 km/h
1243 07-07-2010 18:00:00 32.88 C 7.07 g/m*3 32.88 C 0 km/h
1244 07-07-2010 19:00:00 32.4 C 6.9 g/m*3 32.4 C 0 km/h
1245 07-07-2010 20:00:00 31.26 C 6.49 g/m*3 31.26 C 0 km/h
1246 07-07-2010 21:00:00 26.86 C 6.69 g/m*3 26.86 C 0 km/h
1247 07-07-2010 22:00:00 24.4 C 6.85 g/m*3 24.4 C 0 km/h
1248 07-07-2010 23:00:00 23.7 C 7.1 g/m*3 23.7 C 0 km/h
1249 08-07-2010 00:00:00 22.38 C 7.74 g/m*3 22.38 C 0 km/h
1250 08-07-2010 01:00:00 20.54 C 7.99 g/m*3 20.54 C 0 km/h
Sensor: Nr:Datum:Temp:Abs-Feuchte:Windchill:Wind:
Aussen-T/F 1251 08-07-2010 02:00:00 19.78 C 8.19 g/m*3 19.78 C 0 km/h
1252 08-07-2010 03:00:00 19.4 C 8.14 g/m*3 19.4 C 0 km/h
1253 08-07-2010 04:00:00 18.52 C 8.43 g/m*3 18.52 C 0 km/h
1254 08-07-2010 05:00:00 17.78 C 8.4 g/m*3 17.78 C 0 km/h
1255 08-07-2010 06:00:00 17.38 C 8.5 g/m*3 17.38 C 0 km/h
1256 08-07-2010 07:00:00 17.92 C 8.93 g/m*3 17.92 C 0 km/h
1257 08-07-2010 08:00:00 19.12 C 8.9 g/m*3 19.12 C 0 km/h
1258 08-07-2010 09:00:00 22.24 C 9.17 g/m*3 22.24 C 0 km/h
1259 08-07-2010 10:00:00 25.96 C 8.94 g/m*3 25.96 C 0 km/h
1260 08-07-2010 11:00:00 29.18 C 7.08 g/m*3 29.18 C 0 km/h
1261 08-07-2010 12:00:00 31.5 C 6.57 g/m*3 31.5 C 0 km/h
1262 08-07-2010 13:00:00 32.88 C 7.07 g/m*3 32.88 C 0 km/h
1263 08-07-2010 14:00:00 32.36 C 6.88 g/m*3 32.36 C 0 km/h
1264 08-07-2010 15:00:00 33.26 C 7.22 g/m*3 33.26 C 0 km/h
1265 08-07-2010 16:00:00 33.62 C 7.36 g/m*3 33.62 C 0 km/h
1266 08-07-2010 17:00:00 33.96 C 7.49 g/m*3 33.96 C 0 km/h
1267 08-07-2010 18:00:00 34.38 C 7.65 g/m*3 34.38 C 0 km/h
1268 08-07-2010 19:00:00 34.14 C 7.56 g/m*3 34.14 C 0 km/h
1269 08-07-2010 20:00:00 33 C 7.19 g/m*3 33 C 0 km/h
1270 08-07-2010 21:00:00 29.98 C 8.3 g/m*3 29.98 C 0 km/h
1271 08-07-2010 22:00:00 28.02 C 8.22 g/m*3 28.02 C 0 km/h
1272 08-07-2010 23:00:00 27.12 C 8.08 g/m*3 27.12 C 0 km/h
1273 09-07-2010 00:00:00 25.66 C 8.41 g/m*3 25.66 C 0 km/h
1274 09-07-2010 01:00:00 23.78 C 8.81 g/m*3 23.78 C 0 km/h
1275 09-07-2010 02:00:00 22.4 C 8.94 g/m*3 22.4 C 0 km/h
Sensor: Nr:Datum:Temp:Abs-Feuchte:Windchill:Wind:
Aussen-T/F 1276 09-07-2010 03:00:00 21.24 C 9.21 g/m*3 21.24 C 0 km/h
1277 09-07-2010 04:00:00 20.16 C 9.45 g/m*3 20.16 C 0 km/h
1278 09-07-2010 05:00:00 19.22 C 9.48 g/m*3 19.22 C 0 km/h
1279 09-07-2010 06:00:00 19.06 C 9.98 g/m*3 19.06 C 0 km/h
1280 09-07-2010 07:00:00 19.9 C 10.1 g/m*3 19.9 C 0 km/h
1281 09-07-2010 08:00:00 21.5 C 9.96 g/m*3 21.5 C 0 km/h
1282 09-07-2010 09:00:00 24.16 C 10.14 g/m*3 24.16 C 0 km/h
1283 09-07-2010 10:00:00 27.94 C 10.3 g/m*3 27.94 C 0 km/h
1284 09-07-2010 11:00:00 30.82 C 9.19 g/m*3 30.82 C 0 km/h
1285 09-07-2010 12:00:00 33.14 C 7.17 g/m*3 33.14 C 0 km/h
1286 09-07-2010 13:00:00 34.56 C 7.73 g/m*3 34.56 C 0 km/h
1287 09-07-2010 14:00:00 33.26 C 7.22 g/m*3 33.26 C 0 km/h
1288 09-07-2010 15:00:00 33.48 C 7.3 g/m*3 33.48 C 0 km/h
1289 09-07-2010 16:00:00 32.28 C 7.74 g/m*3 32.28 C 0 km/h
1290 09-07-2010 17:00:00 32.32 C 7.76 g/m*3 32.32 C 0 km/h
1291 09-07-2010 18:00:00 33.42 C 7.28 g/m*3 33.42 C 0 km/h
1292 09-07-2010 19:00:00 33.48 C 7.3 g/m*3 33.48 C 0 km/h
1293 09-07-2010 20:00:00 32.04 C 7.58 g/m*3 32.04 C 0 km/h
1294 09-07-2010 21:00:00 29.94 C 8.71 g/m*3 29.94 C 0 km/h
1295 09-07-2010 22:00:00 28.78 C 9.48 g/m*3 28.78 C 0 km/h
1296 09-07-2010 23:00:00 27.78 C 9.62 g/m*3 27.78 C 0 km/h
1297 10-07-2010 00:00:00 26.3 C 10.1 g/m*3 26.3 C 0 km/h
1298 10-07-2010 01:00:00 24.96 C 10.57 g/m*3 24.96 C 0 km/h
1299 10-07-2010 02:00:00 24.2 C 10.78 g/m*3 24.2 C 0 km/h
1300 10-07-2010 03:00:00 23.1 C 11.41 g/m*3 23.1 C 0 km/h
Sensor: Nr:Datum:Temp:Abs-Feuchte:Windchill:Wind:
Aussen-T/F 1301 10-07-2010 04:00:00 22.34 C 11.48 g/m*3 22.34 C 0 km/h
1302 10-07-2010 05:00:00 21.64 C 11.67 g/m*3 21.64 C 0 km/h
1303 10-07-2010 06:00:00 21.3 C 11.97 g/m*3 21.3 C 0 km/h
1304 10-07-2010 07:00:00 21.9 C 12.23 g/m*3 21.9 C 0 km/h
1305 10-07-2010 08:00:00 23.38 C 12.01 g/m*3 23.38 C 0 km/h
1306 10-07-2010 09:00:00 26.04 C 11.76 g/m*3 26.04 C 0 km/h
1307 10-07-2010 10:00:00 29.44 C 11.53 g/m*3 29.44 C 0 km/h
1308 10-07-2010 11:00:00 31.46 C 9.25 g/m*3 31.46 C 0 km/h
1309 10-07-2010 12:00:00 33.42 C 7.5 g/m*3 33.42 C 0 km/h
1310 10-07-2010 13:00:00 34.8 C 7.82 g/m*3 34.8 C 0 km/h
1311 10-07-2010 14:00:00 34.44 C 7.68 g/m*3 34.44 C 0 km/h
1312 10-07-2010 15:00:00 35.2 C 7.99 g/m*3 35.2 C 0 km/h
1313 10-07-2010 16:00:00 35.62 C 8.17 g/m*3 35.62 C 0 km/h
1314 10-07-2010 17:00:00 35.8 C 8.24 g/m*3 35.8 C 0 km/h
1315 10-07-2010 18:00:00 35.92 C 8.29 g/m*3 35.92 C 0 km/h
1316 10-07-2010 19:00:00 35.38 C 8.06 g/m*3 35.38 C 0 km/h
1317 10-07-2010 20:00:00 33.58 C 8.22 g/m*3 33.58 C 0 km/h
1318 10-07-2010 21:00:00 31.3 C 9.43 g/m*3 31.3 C 0 km/h
1319 10-07-2010 22:00:00 30.44 C 9.94 g/m*3 30.44 C 0 km/h
1320 10-07-2010 23:00:00 30.2 C 9.81 g/m*3 30.2 C 0 km/h
1321 11-07-2010 00:00:00 29.85 C 9.85 g/m*3 29.85 C 0 km/h
1322 11-07-2010 01:00:00 28.52 C 11.19 g/m*3 28.52 C 0 km/h
1323 11-07-2010 02:00:00 24.02 C 15.9 g/m*3 24.02 C 0 km/h
1324 11-07-2010 03:00:00 23.38 C 16.26 g/m*3 23.38 C 0 km/h
1325 11-07-2010 04:00:00 21.98 C 16.44 g/m*3 21.98 C 0 km/h
Sensor: Nr:Datum:Temp:Abs-Feuchte:Windchill:Wind:
Aussen-T/F 1326 11-07-2010 05:00:00 22 C 16.23 g/m*3 22 C 0 km/h
1327 11-07-2010 06:00:00 21.84 C 16.08 g/m*3 21.84 C 0 km/h
1328 11-07-2010 07:00:00 22.76 C 15.73 g/m*3 22.76 C 0 km/h
1329 11-07-2010 08:00:00 24.22 C 15.46 g/m*3 24.22 C 0 km/h
1330 11-07-2010 09:00:00 24.42 C 14.79 g/m*3 24.42 C 0 km/h
1331 11-07-2010 10:00:00 26.8 C 12.93 g/m*3 26.8 C 0 km/h
1332 11-07-2010 11:00:00 28.54 C 12.27 g/m*3 28.54 C 0 km/h
1333 11-07-2010 12:00:00 30.44 C 10.81 g/m*3 30.44 C 0 km/h
1334 11-07-2010 13:00:00 31.66 C 9.15 g/m*3 31.66 C 0 km/h
1335 11-07-2010 14:00:00 32.06 C 8.33 g/m*3 32.06 C 0 km/h
1336 11-07-2010 15:00:00 32.84 C 7.55 g/m*3 32.84 C 0 km/h
1337 11-07-2010 16:00:00 33.7 C 7.39 g/m*3 33.7 C 0 km/h
1338 11-07-2010 17:00:00 34.26 C 7.61 g/m*3 34.26 C 0 km/h
1339 11-07-2010 18:00:00 34.12 C 7.55 g/m*3 34.12 C 0 km/h
1340 11-07-2010 19:00:00 33.92 C 7.47 g/m*3 33.92 C 0 km/h
1341 11-07-2010 20:00:00 33.3 C 7.88 g/m*3 33.3 C 0 km/h
1342 11-07-2010 21:00:00 30.88 C 10.11 g/m*3 30.88 C 0 km/h
1343 11-07-2010 22:00:00 29.82 C 10.87 g/m*3 29.82 C 0 km/h
1344 11-07-2010 23:00:00 28.54 C 11.15 g/m*3 28.54 C 0 km/h
1345 12-07-2010 00:00:00 27.24 C 11.84 g/m*3 27.24 C 0 km/h
1346 12-07-2010 01:00:00 26.02 C 12.33 g/m*3 26.02 C 0 km/h
1347 12-07-2010 02:00:00 25.12 C 12.7 g/m*3 25.12 C 0 km/h
1348 12-07-2010 03:00:00 24.18 C 13.1 g/m*3 24.18 C 0 km/h
1349 12-07-2010 04:00:00 23.32 C 13.06 g/m*3 23.32 C 0 km/h
1350 12-07-2010 05:00:00 22.66 C 13.18 g/m*3 22.66 C 0 km/h
Sensor: Nr:Datum:Temp:Abs-Feuchte:Windchill:Wind:
Aussen-T/F 1351 12-07-2010 06:00:00 22.54 C 13.37 g/m*3 22.54 C 0 km/h
1352 12-07-2010 07:00:00 22.86 C 13.62 g/m*3 22.86 C 0 km/h
1353 12-07-2010 08:00:00 23.86 C 13.64 g/m*3 23.86 C 0 km/h
1354 12-07-2010 09:00:00 26.72 C 13.58 g/m*3 26.72 C 0 km/h
1355 12-07-2010 10:00:00 29.96 C 12.53 g/m*3 29.96 C 0 km/h
1356 12-07-2010 11:00:00 31.78 C 9.94 g/m*3 31.78 C 0 km/h
1357 12-07-2010 12:00:00 31.04 C 8.15 g/m*3 31.04 C 0 km/h
1358 12-07-2010 13:00:00 28.12 C 11.77 g/m*3 28.12 C 0 km/h
1359 12-07-2010 14:00:00 30.7 C 9.45 g/m*3 30.7 C 0 km/h
1360 12-07-2010 15:00:00 31.62 C 7.94 g/m*3 31.62 C 0 km/h
1361 12-07-2010 16:00:00 31.9 C 6.72 g/m*3 31.9 C 0 km/h
1362 12-07-2010 17:00:00 31.54 C 6.59 g/m*3 31.54 C 0 km/h
1363 12-07-2010 18:00:00 30.18 C 7.41 g/m*3 30.18 C 0 km/h
1364 12-07-2010 19:00:00 28.68 C 7.62 g/m*3 28.68 C 0 km/h
1365 12-07-2010 20:00:00 26.96 C 7.86 g/m*3 26.96 C 0 km/h
1366 12-07-2010 21:00:00 25.72 C 8.96 g/m*3 25.72 C 0 km/h
1367 12-07-2010 22:00:00 24.62 C 9.24 g/m*3 24.62 C 0 km/h
1368 12-07-2010 23:00:00 23.48 C 9.72 g/m*3 23.48 C 0 km/h
1369 13-07-2010 00:00:00 22.3 C 10.35 g/m*3 22.3 C 0 km/h
1370 13-07-2010 01:00:00 21.42 C 10.7 g/m*3 21.42 C 0 km/h
1371 13-07-2010 02:00:00 20.66 C 10.92 g/m*3 20.66 C 0 km/h
1372 13-07-2010 03:00:00 19.88 C 11.22 g/m*3 19.88 C 0 km/h
1373 13-07-2010 04:00:00 19.62 C 11.66 g/m*3 19.62 C 0 km/h
1374 13-07-2010 05:00:00 18.72 C 12.25 g/m*3 18.72 C 0 km/h
1375 13-07-2010 06:00:00 18.8 C 12.11 g/m*3 18.8 C 0 km/h
Sensor: Nr:Datum:Temp:Abs-Feuchte:Windchill:Wind:
Aussen-T/F 1376 13-07-2010 07:00:00 19.62 C 12.03 g/m*3 19.62 C 0 km/h
1377 13-07-2010 08:00:00 20.92 C 11.96 g/m*3 20.92 C 0 km/h
1378 13-07-2010 09:00:00 22.64 C 11.8 g/m*3 22.64 C 0 km/h
1379 13-07-2010 10:00:00 24.6 C 11.07 g/m*3 24.6 C 0 km/h
1380 13-07-2010 11:00:00 26.1 C 10.28 g/m*3 26.1 C 0 km/h
1381 13-07-2010 12:00:00 29.44 C 8.59 g/m*3 29.44 C 0 km/h
1382 13-07-2010 13:00:00 29.32 C 8.01 g/m*3 29.32 C 0 km/h
1383 13-07-2010 14:00:00 29.04 C 8.35 g/m*3 29.04 C 0 km/h
1384 13-07-2010 15:00:00 30.72 C 7.31 g/m*3 30.72 C 0 km/h
1385 13-07-2010 16:00:00 31.06 C 6.87 g/m*3 31.06 C 0 km/h
1386 13-07-2010 17:00:00 31.74 C 6.66 g/m*3 31.74 C 0 km/h
1387 13-07-2010 18:00:00 31.86 C 6.7 g/m*3 31.86 C 0 km/h
1388 13-07-2010 19:00:00 31.36 C 6.53 g/m*3 31.36 C 0 km/h
1389 13-07-2010 20:00:00 31.12 C 6.76 g/m*3 31.12 C 0 km/h
1390 13-07-2010 21:00:00 27.84 C 8.03 g/m*3 27.84 C 0 km/h
1391 13-07-2010 22:00:00 25.46 C 8.6 g/m*3 25.46 C 0 km/h
1392 13-07-2010 23:00:00 24.42 C 9.13 g/m*3 24.42 C 0 km/h
1393 14-07-2010 00:00:00 23.68 C 9.61 g/m*3 23.68 C 0 km/h
1394 14-07-2010 01:00:00 23.16 C 10 g/m*3 23.16 C 0 km/h
1395 14-07-2010 02:00:00 22.54 C 10.33 g/m*3 22.54 C 0 km/h
1396 14-07-2010 03:00:00 21.58 C 10.61 g/m*3 21.58 C 0 km/h
1397 14-07-2010 04:00:00 20.72 C 11.03 g/m*3 20.72 C 0 km/h
1398 14-07-2010 05:00:00 20.1 C 11.13 g/m*3 20.1 C 0 km/h
1399 14-07-2010 06:00:00 20.3 C 11.29 g/m*3 20.3 C 0 km/h
1400 14-07-2010 07:00:00 20.58 C 11.58 g/m*3 20.58 C 0 km/h
Sensor: Nr:Datum:Temp:Abs-Feuchte:Windchill:Wind:
Aussen-T/F 1401 14-07-2010 08:00:00 21.82 C 11.76 g/m*3 21.82 C 0 km/h
1402 14-07-2010 09:00:00 24.66 C 11.92 g/m*3 24.66 C 0 km/h
1403 14-07-2010 10:00:00 27.88 C 10.48 g/m*3 27.88 C 0 km/h
1404 14-07-2010 11:00:00 30.4 C 9.23 g/m*3 30.4 C 0 km/h
1405 14-07-2010 12:00:00 31.44 C 8.19 g/m*3 31.44 C 0 km/h
1406 14-07-2010 13:00:00 32.42 C 7.39 g/m*3 32.42 C 0 km/h
1407 14-07-2010 14:00:00 32.94 C 7.1 g/m*3 32.94 C 0 km/h
1408 14-07-2010 15:00:00 33.26 C 7.22 g/m*3 33.26 C 0 km/h
1409 14-07-2010 16:00:00 34.4 C 7.66 g/m*3 34.4 C 0 km/h
1410 14-07-2010 17:00:00 34.5 C 7.7 g/m*3 34.5 C 0 km/h
1411 14-07-2010 18:00:00 34.66 C 7.77 g/m*3 34.66 C 0 km/h
1412 14-07-2010 19:00:00 25.84 C 13.61 g/m*3 25.84 C 0 km/h
1413 14-07-2010 20:00:00 22.34 C 16.51 g/m*3 22.34 C 0 km/h
1414 14-07-2010 21:00:00 21.74 C 15.41 g/m*3 21.74 C 0 km/h
1415 14-07-2010 22:00:00 21.5 C 14.67 g/m*3 21.5 C 0 km/h
1416 14-07-2010 23:00:00 21.28 C 14 g/m*3 21.28 C 0 km/h
1417 15-07-2010 00:00:00 21.04 C 13.44 g/m*3 21.04 C 0 km/h
1418 15-07-2010 01:00:00 20.16 C 11.76 g/m*3 20.16 C 0 km/h
1419 15-07-2010 02:00:00 19.58 C 11.63 g/m*3 19.58 C 0 km/h
1420 15-07-2010 03:00:00 19.32 C 11.06 g/m*3 19.32 C 0 km/h
1421 15-07-2010 04:00:00 18.94 C 11.04 g/m*3 18.94 C 0 km/h
1422 15-07-2010 05:00:00 18.76 C 11.18 g/m*3 18.76 C 0 km/h
1423 15-07-2010 06:00:00 18.9 C 10.98 g/m*3 18.9 C 0 km/h
1424 15-07-2010 07:00:00 18.5 C 11.9 g/m*3 18.5 C 0 km/h
1425 15-07-2010 08:00:00 18.42 C 11.68 g/m*3 18.42 C 0 km/h
Sensor: Nr:Datum:Temp:Abs-Feuchte:Windchill:Wind:
Aussen-T/F 1426 15-07-2010 09:00:00 19.58 C 9.07 g/m*3 19.58 C 0 km/h
1427 15-07-2010 10:00:00 21.22 C 7.57 g/m*3 21.22 C 0 km/h
1428 15-07-2010 11:00:00 22.32 C 6.76 g/m*3 22.32 C 0 km/h
1429 15-07-2010 12:00:00 24.42 C 5.84 g/m*3 24.42 C 0 km/h
1430 15-07-2010 13:00:00 26.14 C 5.1 g/m*3 26.14 C 0 km/h
1431 15-07-2010 14:00:00 26.22 C 4.93 g/m*3 26.22 C 0 km/h
1432 15-07-2010 15:00:00 26.9 C 5.12 g/m*3 26.9 C 0 km/h
1433 15-07-2010 16:00:00 27.82 C 5.39 g/m*3 27.82 C 0 km/h
1434 15-07-2010 17:00:00 28.46 C 5.58 g/m*3 28.46 C 0 km/h
1435 15-07-2010 18:00:00 27.98 C 5.43 g/m*3 27.98 C 0 km/h
1436 15-07-2010 19:00:00 27.26 C 5.22 g/m*3 27.26 C 0 km/h
1437 15-07-2010 20:00:00 26.6 C 5.24 g/m*3 26.6 C 0 km/h
1438 15-07-2010 21:00:00 23.74 C 6.09 g/m*3 23.74 C 0 km/h
1439 15-07-2010 22:00:00 21.46 C 6.4 g/m*3 21.46 C 0 km/h
1440 15-07-2010 23:00:00 19.92 C 6.78 g/m*3 19.92 C 0 km/h
1441 16-07-2010 00:00:00 18.6 C 6.91 g/m*3 18.6 C 0 km/h
1442 16-07-2010 01:00:00 17.76 C 7.3 g/m*3 17.76 C 0 km/h
1443 16-07-2010 02:00:00 16.74 C 7.89 g/m*3 16.74 C 0 km/h
1444 16-07-2010 03:00:00 15.96 C 8.1 g/m*3 15.96 C 0 km/h
1445 16-07-2010 04:00:00 15.22 C 8.16 g/m*3 15.22 C 0 km/h
1446 16-07-2010 05:00:00 14.64 C 8.3 g/m*3 14.64 C 0 km/h
1447 16-07-2010 06:00:00 14.46 C 8.61 g/m*3 14.46 C 0 km/h
1448 16-07-2010 07:00:00 15.16 C 8.88 g/m*3 15.16 C 0 km/h
1449 16-07-2010 08:00:00 16.62 C 9 g/m*3 16.62 C 0 km/h
1450 16-07-2010 09:00:00 19.68 C 9.36 g/m*3 19.68 C 0 km/h
Sensor: Nr:Datum:Temp:Abs-Feuchte:Windchill:Wind:
Aussen-T/F 1451 16-07-2010 10:00:00 23.6 C 8.72 g/m*3 23.6 C 0 km/h
1452 16-07-2010 11:00:00 26.26 C 5.83 g/m*3 26.26 C 0 km/h
1453 16-07-2010 12:00:00 28.54 C 5.66 g/m*3 28.54 C 0 km/h
1454 16-07-2010 13:00:00 30.68 C 6.29 g/m*3 30.68 C 0 km/h
1455 16-07-2010 14:00:00 31.06 C 6.42 g/m*3 31.06 C 0 km/h
1456 16-07-2010 15:00:00 31.86 C 6.7 g/m*3 31.86 C 0 km/h
1457 16-07-2010 16:00:00 32.44 C 6.91 g/m*3 32.44 C 0 km/h
1458 16-07-2010 17:00:00 32.56 C 6.96 g/m*3 32.56 C 0 km/h
1459 16-07-2010 18:00:00 32.72 C 7.01 g/m*3 32.72 C 0 km/h
1460 16-07-2010 19:00:00 31.24 C 6.55 g/m*3 31.24 C 0 km/h
1461 16-07-2010 20:00:00 29.4 C 7.22 g/m*3 29.4 C 0 km/h
1462 16-07-2010 21:00:00 28.3 C 7.46 g/m*3 28.3 C 0 km/h
1463 16-07-2010 22:00:00 26.38 C 7.71 g/m*3 26.38 C 0 km/h
1464 16-07-2010 23:00:00 25.56 C 8.46 g/m*3 25.56 C 0 km/h
1465 17-07-2010 00:00:00 23.3 C 9.12 g/m*3 23.3 C 0 km/h
1466 17-07-2010 01:00:00 20.7 C 11.2 g/m*3 20.7 C 0 km/h
1467 17-07-2010 02:00:00 20.18 C 11.11 g/m*3 20.18 C 0 km/h
1468 17-07-2010 03:00:00 19.88 C 11.88 g/m*3 19.88 C 0 km/h
1469 17-07-2010 04:00:00 19.16 C 12.5 g/m*3 19.16 C 0 km/h
1470 17-07-2010 05:00:00 18.08 C 13.36 g/m*3 18.08 C 0 km/h
1471 17-07-2010 06:00:00 17.68 C 13.38 g/m*3 17.68 C 0 km/h
1472 17-07-2010 07:00:00 17.88 C 13.54 g/m*3 17.88 C 0 km/h
1473 17-07-2010 08:00:00 17.64 C 13.38 g/m*3 17.64 C 0 km/h
1474 17-07-2010 09:00:00 18.54 C 13.51 g/m*3 18.54 C 0 km/h
1475 17-07-2010 10:00:00 19.6 C 12.56 g/m*3 19.6 C 0 km/h
Sensor: Nr:Datum:Temp:Abs-Feuchte:Windchill:Wind:
Aussen-T/F 1476 17-07-2010 11:00:00 22.2 C 11.5 g/m*3 22.2 C 0 km/h
1477 17-07-2010 12:00:00 24.66 C 9.08 g/m*3 24.66 C 0 km/h
1478 17-07-2010 13:00:00 26.02 C 7.56 g/m*3 26.02 C 0 km/h
1479 17-07-2010 14:00:00 26.14 C 7.26 g/m*3 26.14 C 0 km/h
1480 17-07-2010 15:00:00 27.18 C 6.5 g/m*3 27.18 C 0 km/h
1481 17-07-2010 16:00:00 26.72 C 6.08 g/m*3 26.72 C 0 km/h
1482 17-07-2010 17:00:00 25.8 C 7.42 g/m*3 25.8 C 0 km/h
1483 17-07-2010 18:00:00 24 C 7.57 g/m*3 24 C 0 km/h
1484 17-07-2010 19:00:00 24.16 C 7.11 g/m*3 24.16 C 0 km/h
1485 17-07-2010 20:00:00 24.46 C 5.81 g/m*3 24.46 C 0 km/h
1486 17-07-2010 21:00:00 22.26 C 6.15 g/m*3 22.26 C 0 km/h
1487 17-07-2010 22:00:00 21.44 C 6.28 g/m*3 21.44 C 0 km/h
1488 17-07-2010 23:00:00 20.12 C 6.13 g/m*3 20.12 C 0 km/h
1489 18-07-2010 00:00:00 18.64 C 6.06 g/m*3 18.64 C 0 km/h
1490 18-07-2010 01:00:00 17.16 C 6.34 g/m*3 17.16 C 0 km/h
1491 18-07-2010 02:00:00 15.96 C 6.88 g/m*3 15.96 C 0 km/h
1492 18-07-2010 03:00:00 14.8 C 7.14 g/m*3 14.8 C 0 km/h
1493 18-07-2010 04:00:00 13.9 C 7.48 g/m*3 13.9 C 0 km/h
1494 18-07-2010 05:00:00 13 C 7.83 g/m*3 13 C 0 km/h
1495 18-07-2010 06:00:00 12.56 C 8.1 g/m*3 12.56 C 0 km/h
1496 18-07-2010 07:00:00 12.96 C 8.05 g/m*3 12.96 C 0 km/h
1497 18-07-2010 08:00:00 14.54 C 7.9 g/m*3 14.54 C 0 km/h
1498 18-07-2010 09:00:00 17.16 C 7.68 g/m*3 17.16 C 0 km/h
1499 18-07-2010 10:00:00 20.18 C 7.09 g/m*3 20.18 C 0 km/h
1500 18-07-2010 11:00:00 22.12 C 5.75 g/m*3 22.12 C 0 km/h
Sensor: Nr:Datum:Temp:Abs-Feuchte:Windchill:Wind:
Aussen-T/F 1501 18-07-2010 12:00:00 25.16 C 4.88 g/m*3 25.16 C 0 km/h
1502 18-07-2010 13:00:00 27.62 C 5.33 g/m*3 27.62 C 0 km/h
1503 18-07-2010 14:00:00 27.34 C 5.24 g/m*3 27.34 C 0 km/h
1504 18-07-2010 15:00:00 29.58 C 5.93 g/m*3 29.58 C 0 km/h
1505 18-07-2010 16:00:00 30.76 C 6.32 g/m*3 30.76 C 0 km/h
1506 18-07-2010 17:00:00 31.26 C 6.49 g/m*3 31.26 C 0 km/h
1507 18-07-2010 18:00:00 31.26 C 6.49 g/m*3 31.26 C 0 km/h
1508 18-07-2010 19:00:00 30.48 C 6.22 g/m*3 30.48 C 0 km/h
1509 18-07-2010 20:00:00 29.1 C 5.78 g/m*3 29.1 C 0 km/h
1510 18-07-2010 21:00:00 24.12 C 5.39 g/m*3 24.12 C 0 km/h
1511 18-07-2010 22:00:00 21.72 C 5.92 g/m*3 21.72 C 0 km/h
1512 18-07-2010 23:00:00 20.34 C 6.28 g/m*3 20.34 C 0 km/h
1513 19-07-2010 00:00:00 18.92 C 6.36 g/m*3 18.92 C 0 km/h
1514 19-07-2010 01:00:00 17.68 C 6.66 g/m*3 17.68 C 0 km/h
1515 19-07-2010 02:00:00 16.46 C 6.86 g/m*3 16.46 C 0 km/h
1516 19-07-2010 03:00:00 15.48 C 7.1 g/m*3 15.48 C 0 km/h
1517 19-07-2010 04:00:00 14.62 C 7.32 g/m*3 14.62 C 0 km/h
1518 19-07-2010 05:00:00 13.8 C 7.51 g/m*3 13.8 C 0 km/h
1519 19-07-2010 06:00:00 13.58 C 7.88 g/m*3 13.58 C 0 km/h
1520 19-07-2010 07:00:00 14.02 C 8.21 g/m*3 14.02 C 0 km/h
1521 19-07-2010 08:00:00 15.3 C 8.28 g/m*3 15.3 C 0 km/h
1522 19-07-2010 09:00:00 18.52 C 8.55 g/m*3 18.52 C 0 km/h
1523 19-07-2010 10:00:00 22.46 C 8.01 g/m*3 22.46 C 0 km/h
1524 19-07-2010 11:00:00 25.78 C 6.54 g/m*3 25.78 C 0 km/h
1525 19-07-2010 12:00:00 28.82 C 5.8 g/m*3 28.82 C 0 km/h
Sensor: Nr:Datum:Temp:Abs-Feuchte:Windchill:Wind:
Aussen-T/F 1526 19-07-2010 13:00:00 31.2 C 6.47 g/m*3 31.2 C 0 km/h
1527 19-07-2010 14:00:00 30.84 C 6.35 g/m*3 30.84 C 0 km/h
1528 19-07-2010 15:00:00 31.7 C 6.64 g/m*3 31.7 C 0 km/h
1529 19-07-2010 16:00:00 32.82 C 7.05 g/m*3 32.82 C 0 km/h
1530 19-07-2010 17:00:00 33.58 C 7.34 g/m*3 33.58 C 0 km/h
1531 19-07-2010 18:00:00 33.5 C 7.31 g/m*3 33.5 C 0 km/h
1532 19-07-2010 19:00:00 32.84 C 7.06 g/m*3 32.84 C 0 km/h
1533 19-07-2010 20:00:00 31.38 C 6.53 g/m*3 31.38 C 0 km/h
1534 19-07-2010 21:00:00 26.84 C 6.79 g/m*3 26.84 C 0 km/h
1535 19-07-2010 22:00:00 24.12 C 7.05 g/m*3 24.12 C 0 km/h
1536 19-07-2010 23:00:00 22.9 C 7.32 g/m*3 22.9 C 0 km/h
1537 20-07-2010 00:00:00 21.74 C 7.84 g/m*3 21.74 C 0 km/h
1538 20-07-2010 01:00:00 20.42 C 8.08 g/m*3 20.42 C 0 km/h
1539 20-07-2010 02:00:00 19.32 C 8.24 g/m*3 19.32 C 0 km/h
1540 20-07-2010 03:00:00 18.2 C 8.36 g/m*3 18.2 C 0 km/h
1541 20-07-2010 04:00:00 17.24 C 8.48 g/m*3 17.24 C 0 km/h
1542 20-07-2010 05:00:00 16.48 C 8.58 g/m*3 16.48 C 0 km/h
1543 20-07-2010 06:00:00 16.1 C 8.96 g/m*3 16.1 C 0 km/h
1544 20-07-2010 07:00:00 16.78 C 9.25 g/m*3 16.78 C 0 km/h
1545 20-07-2010 08:00:00 18.04 C 9.24 g/m*3 18.04 C 0 km/h
1546 20-07-2010 09:00:00 20.96 C 9.21 g/m*3 20.96 C 0 km/h
1547 20-07-2010 10:00:00 24.8 C 8.29 g/m*3 24.8 C 0 km/h
1548 20-07-2010 11:00:00 27.74 C 6.76 g/m*3 27.74 C 0 km/h
1549 20-07-2010 12:00:00 30.42 C 6.33 g/m*3 30.42 C 0 km/h
1550 20-07-2010 13:00:00 32.22 C 6.83 g/m*3 32.22 C 0 km/h
Sensor: Nr:Datum:Temp:Abs-Feuchte:Windchill:Wind:
Aussen-T/F 1551 20-07-2010 14:00:00 31.78 C 6.67 g/m*3 31.78 C 0 km/h
1552 20-07-2010 15:00:00 32.34 C 6.87 g/m*3 32.34 C 0 km/h
1553 20-07-2010 16:00:00 33.06 C 7.14 g/m*3 33.06 C 0 km/h
1554 20-07-2010 17:00:00 33.26 C 7.22 g/m*3 33.26 C 0 km/h
1555 20-07-2010 18:00:00 32.92 C 7.09 g/m*3 32.92 C 0 km/h
1556 20-07-2010 19:00:00 32.02 C 6.76 g/m*3 32.02 C 0 km/h
1557 20-07-2010 20:00:00 30.72 C 6.37 g/m*3 30.72 C 0 km/h
1558 20-07-2010 21:00:00 26.48 C 6.4 g/m*3 26.48 C 0 km/h
1559 20-07-2010 22:00:00 24.4 C 6.59 g/m*3 24.4 C 0 km/h
1560 20-07-2010 23:00:00 23.48 C 6.93 g/m*3 23.48 C 0 km/h
1561 21-07-2010 00:00:00 21.98 C 7.6 g/m*3 21.98 C 0 km/h
1562 21-07-2010 01:00:00 20.86 C 8.03 g/m*3 20.86 C 0 km/h
1563 21-07-2010 02:00:00 19.68 C 8.31 g/m*3 19.68 C 0 km/h
1564 21-07-2010 03:00:00 18.78 C 8.4 g/m*3 18.78 C 0 km/h
1565 21-07-2010 04:00:00 18.08 C 8.58 g/m*3 18.08 C 0 km/h
1566 21-07-2010 05:00:00 17.38 C 8.76 g/m*3 17.38 C 0 km/h
1567 21-07-2010 06:00:00 17.16 C 8.91 g/m*3 17.16 C 0 km/h
1568 21-07-2010 07:00:00 17.8 C 9.32 g/m*3 17.8 C 0 km/h
1569 21-07-2010 08:00:00 19.2 C 9.07 g/m*3 19.2 C 0 km/h
1570 21-07-2010 09:00:00 22.32 C 9.41 g/m*3 22.32 C 0 km/h
1571 21-07-2010 10:00:00 26.54 C 8.63 g/m*3 26.54 C 0 km/h
1572 21-07-2010 11:00:00 29.66 C 7.38 g/m*3 29.66 C 0 km/h
1573 21-07-2010 12:00:00 31.36 C 6.59 g/m*3 31.36 C 0 km/h
1574 21-07-2010 13:00:00 32.52 C 6.94 g/m*3 32.52 C 0 km/h
1575 21-07-2010 14:00:00 32.58 C 6.96 g/m*3 32.58 C 0 km/h
Sensor: Nr:Datum:Temp:Abs-Feuchte:Windchill:Wind:
Aussen-T/F 1576 21-07-2010 15:00:00 32.56 C 6.96 g/m*3 32.56 C 0 km/h
1577 21-07-2010 16:00:00 32.44 C 6.91 g/m*3 32.44 C 0 km/h
1578 21-07-2010 17:00:00 31.5 C 6.77 g/m*3 31.5 C 0 km/h
1579 21-07-2010 18:00:00 30.12 C 7.33 g/m*3 30.12 C 0 km/h
1580 21-07-2010 19:00:00 28.72 C 8.03 g/m*3 28.72 C 0 km/h
1581 21-07-2010 20:00:00 23.58 C 12.15 g/m*3 23.58 C 0 km/h
1582 21-07-2010 21:00:00 23.02 C 11.85 g/m*3 23.02 C 0 km/h
1583 21-07-2010 22:00:00 23 C 11.76 g/m*3 23 C 0 km/h
1584 21-07-2010 23:00:00 22.88 C 11.47 g/m*3 22.88 C 0 km/h
1585 22-07-2010 00:00:00 22.56 C 11.58 g/m*3 22.56 C 0 km/h
1586 22-07-2010 01:00:00 22.16 C 11.64 g/m*3 22.16 C 0 km/h
1587 22-07-2010 02:00:00 21.28 C 11.51 g/m*3 21.28 C 0 km/h
1588 22-07-2010 03:00:00 20.92 C 11.16 g/m*3 20.92 C 0 km/h
1589 22-07-2010 04:00:00 20.5 C 10.36 g/m*3 20.5 C 0 km/h
1590 22-07-2010 05:00:00 19.9 C 9.83 g/m*3 19.9 C 0 km/h
1591 22-07-2010 06:00:00 18.92 C 10.93 g/m*3 18.92 C 0 km/h
1592 22-07-2010 07:00:00 19.24 C 11.54 g/m*3 19.24 C 0 km/h
1593 22-07-2010 08:00:00 21.04 C 10.94 g/m*3 21.04 C 0 km/h
1594 22-07-2010 09:00:00 22.06 C 10.32 g/m*3 22.06 C 0 km/h
1595 22-07-2010 10:00:00 21.58 C 10.68 g/m*3 21.58 C 0 km/h
1596 22-07-2010 11:00:00 21.78 C 11.84 g/m*3 21.78 C 0 km/h
1597 22-07-2010 12:00:00 22.38 C 11.47 g/m*3 22.38 C 0 km/h
1598 22-07-2010 13:00:00 20.9 C 12.79 g/m*3 20.9 C 0 km/h
1599 22-07-2010 14:00:00 21.26 C 12.53 g/m*3 21.26 C 0 km/h
1600 22-07-2010 15:00:00 21.38 C 12.92 g/m*3 21.38 C 0 km/h
Sensor: Nr:Datum:Temp:Abs-Feuchte:Windchill:Wind:
Aussen-T/F 1601 22-07-2010 16:00:00 23.2 C 11.56 g/m*3 23.2 C 0 km/h
1602 22-07-2010 17:00:00 22.04 C 13.31 g/m*3 22.04 C 0 km/h
1603 22-07-2010 18:00:00 23 C 12.09 g/m*3 23 C 0 km/h
1604 22-07-2010 19:00:00 22.68 C 11.91 g/m*3 22.68 C 0 km/h
1605 22-07-2010 20:00:00 21.86 C 12.01 g/m*3 21.86 C 0 km/h
1606 22-07-2010 21:00:00 21.06 C 11.91 g/m*3 21.06 C 0 km/h
1607 22-07-2010 22:00:00 20.48 C 11.8 g/m*3 20.48 C 0 km/h
1608 22-07-2010 23:00:00 20.2 C 11.82 g/m*3 20.2 C 0 km/h
1609 23-07-2010 00:00:00 20.1 C 12.06 g/m*3 20.1 C 0 km/h
1610 23-07-2010 01:00:00 20 C 12.3 g/m*3 20 C 0 km/h
1611 23-07-2010 02:00:00 19.22 C 12.22 g/m*3 19.22 C 0 km/h
1612 23-07-2010 03:00:00 16.34 C 11.63 g/m*3 16.34 C 0 km/h
1613 23-07-2010 04:00:00 16.04 C 11.69 g/m*3 16.04 C 0 km/h
1614 23-07-2010 05:00:00 15.9 C 11.51 g/m*3 15.9 C 0 km/h
1615 23-07-2010 06:00:00 15.86 C 11.54 g/m*3 15.86 C 0 km/h
1616 23-07-2010 07:00:00 17.26 C 12.26 g/m*3 17.26 C 0 km/h
1617 23-07-2010 08:00:00 18.02 C 12.09 g/m*3 18.02 C 0 km/h
1618 23-07-2010 09:00:00 19.08 C 11.82 g/m*3 19.08 C 0 km/h
1619 23-07-2010 10:00:00 21.4 C 10.46 g/m*3 21.4 C 0 km/h
1620 23-07-2010 11:00:00 24.14 C 9.69 g/m*3 24.14 C 0 km/h
1621 23-07-2010 12:00:00 26.46 C 8.09 g/m*3 26.46 C 0 km/h
1622 23-07-2010 13:00:00 27.82 C 6.62 g/m*3 27.82 C 0 km/h
1623 23-07-2010 14:00:00 29.34 C 6.55 g/m*3 29.34 C 0 km/h
1624 23-07-2010 15:00:00 28.4 C 6.39 g/m*3 28.4 C 0 km/h
1625 23-07-2010 16:00:00 28.54 C 6.33 g/m*3 28.54 C 0 km/h
Sensor: Nr:Datum:Temp:Abs-Feuchte:Windchill:Wind:
Aussen-T/F 1626 23-07-2010 17:00:00 22.32 C 9.33 g/m*3 22.32 C 0 km/h
1627 23-07-2010 18:00:00 18.1 C 11.53 g/m*3 18.1 C 0 km/h
1628 23-07-2010 19:00:00 16.96 C 12.18 g/m*3 16.96 C 0 km/h
1629 23-07-2010 20:00:00 15.98 C 12.3 g/m*3 15.98 C 0 km/h
1630 23-07-2010 21:00:00 15.58 C 12.25 g/m*3 15.58 C 0 km/h
1631 23-07-2010 22:00:00 15.125 C 12.02 g/m*3 15.13 C 0 km/h
1632 23-07-2010 23:00:00 15.1 C 12.08 g/m*3 15.1 C 0 km/h
1633 24-07-2010 00:00:00 15.02 C 12.07 g/m*3 15.02 C 0 km/h
1634 24-07-2010 01:00:00 15.12 C 12.14 g/m*3 15.12 C 0 km/h
1635 24-07-2010 02:00:00 15.26 C 12.38 g/m*3 15.26 C 0 km/h
1636 24-07-2010 03:00:00 15.56 C 12.6 g/m*3 15.56 C 0 km/h
1637 24-07-2010 04:00:00 15.64 C 12.4 g/m*3 15.64 C 0 km/h
1638 24-07-2010 05:00:00 15.54 C 11.95 g/m*3 15.54 C 0 km/h
1639 24-07-2010 06:00:00 15.42 C 11.65 g/m*3 15.42 C 0 km/h
1640 24-07-2010 07:00:00 15.5 C 11.58 g/m*3 15.5 C 0 km/h
1641 24-07-2010 08:00:00 16.16 C 11.31 g/m*3 16.16 C 0 km/h
1642 24-07-2010 09:00:00 17.24 C 10.8 g/m*3 17.24 C 0 km/h
1643 24-07-2010 10:00:00 18.62 C 9.66 g/m*3 18.62 C 0 km/h
1644 24-07-2010 11:00:00 19.44 C 8.83 g/m*3 19.44 C 0 km/h
1645 24-07-2010 12:00:00 20.52 C 8.19 g/m*3 20.52 C 0 km/h
1646 24-07-2010 13:00:00 22.72 C 6.63 g/m*3 22.72 C 0 km/h
1647 24-07-2010 14:00:00 23.48 C 6.17 g/m*3 23.48 C 0 km/h
1648 24-07-2010 15:00:00 24.1 C 5.47 g/m*3 24.1 C 0 km/h
1649 24-07-2010 16:00:00 23.86 C 4.66 g/m*3 23.86 C 0 km/h
1650 24-07-2010 17:00:00 24.36 C 4.44 g/m*3 24.36 C 0 km/h
Sensor: Nr:Datum:Temp:Abs-Feuchte:Windchill:Wind:
Aussen-T/F 1651 24-07-2010 18:00:00 23.48 C 4.22 g/m*3 23.48 C 0 km/h
1652 24-07-2010 19:00:00 23.22 C 4.16 g/m*3 23.22 C 0 km/h
1653 24-07-2010 20:00:00 22.72 C 4.05 g/m*3 22.72 C 0 km/h
1654 24-07-2010 21:00:00 19.76 C 4.5 g/m*3 19.76 C 0 km/h
1655 24-07-2010 22:00:00 17.5 C 5.19 g/m*3 17.5 C 0 km/h
1656 24-07-2010 23:00:00 15.92 C 6.1 g/m*3 15.92 C 0 km/h
1657 25-07-2010 00:00:00 14.54 C 6.58 g/m*3 14.54 C 0 km/h
1658 25-07-2010 01:00:00 13.5 C 6.81 g/m*3 13.5 C 0 km/h
1659 25-07-2010 02:00:00 12.7 C 6.97 g/m*3 12.7 C 0 km/h
1660 25-07-2010 03:00:00 11.86 C 7.06 g/m*3 11.86 C 0 km/h
1661 25-07-2010 04:00:00 10.96 C 7.31 g/m*3 10.96 C 0 km/h
1662 25-07-2010 05:00:00 10.16 C 7.38 g/m*3 10.16 C 0 km/h
1663 25-07-2010 06:00:00 10.04 C 7.4 g/m*3 10.04 C 0 km/h
1664 25-07-2010 07:00:00 10.92 C 7.55 g/m*3 10.92 C 0 km/h
1665 25-07-2010 08:00:00 12.12 C 7.9 g/m*3 12.12 C 0 km/h
1666 25-07-2010 09:00:00 14.94 C 7.61 g/m*3 14.94 C 0 km/h
1667 25-07-2010 10:00:00 17.8 C 6.77 g/m*3 17.8 C 0 km/h
1668 25-07-2010 11:00:00 20.86 C 6.14 g/m*3 20.86 C 0 km/h
1669 25-07-2010 12:00:00 22.94 C 5.9 g/m*3 22.94 C 0 km/h
1670 25-07-2010 13:00:00 23.38 C 6.22 g/m*3 23.38 C 0 km/h
1671 25-07-2010 14:00:00 22.2 C 6.95 g/m*3 22.2 C 0 km/h
1672 25-07-2010 15:00:00 21.58 C 7.01 g/m*3 21.58 C 0 km/h
1673 25-07-2010 16:00:00 21.98 C 7.13 g/m*3 21.98 C 0 km/h
1674 25-07-2010 17:00:00 23.4 C 6.6 g/m*3 23.4 C 0 km/h
1675 25-07-2010 18:00:00 22.26 C 7.53 g/m*3 22.26 C 0 km/h
Sensor: Nr:Datum:Temp:Abs-Feuchte:Windchill:Wind:
Aussen-T/F 1676 25-07-2010 19:00:00 20.8 C 7.89 g/m*3 20.8 C 0 km/h
1677 25-07-2010 20:00:00 20.16 C 7.82 g/m*3 20.16 C 0 km/h
1678 25-07-2010 21:00:00 19.08 C 9.43 g/m*3 19.08 C 0 km/h
1679 25-07-2010 22:00:00 18.38 C 10.18 g/m*3 18.38 C 0 km/h
1680 25-07-2010 23:00:00 17.88 C 10.28 g/m*3 17.88 C 0 km/h
1681 26-07-2010 00:00:00 17.56 C 9.93 g/m*3 17.56 C 0 km/h
1682 26-07-2010 01:00:00 17.26 C 9.99 g/m*3 17.26 C 0 km/h
1683 26-07-2010 02:00:00 16.8 C 10.04 g/m*3 16.8 C 0 km/h
1684 26-07-2010 03:00:00 16.42 C 10.2 g/m*3 16.42 C 0 km/h
1685 26-07-2010 04:00:00 16.24 C 10.59 g/m*3 16.24 C 0 km/h
1686 26-07-2010 05:00:00 15.52 C 11.28 g/m*3 15.52 C 0 km/h
1687 26-07-2010 06:00:00 15.4 C 11.46 g/m*3 15.4 C 0 km/h
1688 26-07-2010 07:00:00 16.02 C 11.95 g/m*3 16.02 C 0 km/h
1689 26-07-2010 08:00:00 16.98 C 11.91 g/m*3 16.98 C 0 km/h
1690 26-07-2010 09:00:00 18.38 C 11.72 g/m*3 18.38 C 0 km/h
1691 26-07-2010 10:00:00 20.24 C 10.76 g/m*3 20.24 C 0 km/h
1692 26-07-2010 11:00:00 20.94 C 10.59 g/m*3 20.94 C 0 km/h
1693 26-07-2010 12:00:00 19.04 C 12.55 g/m*3 19.04 C 0 km/h
1694 26-07-2010 13:00:00 18.16 C 12.72 g/m*3 18.16 C 0 km/h
1695 26-07-2010 14:00:00 17.36 C 13.16 g/m*3 17.36 C 0 km/h
1696 26-07-2010 15:00:00 17.92 C 13.7 g/m*3 17.92 C 0 km/h
1697 26-07-2010 16:00:00 19.68 C 13.4 g/m*3 19.68 C 0 km/h
1698 26-07-2010 17:00:00 19.08 C 11.33 g/m*3 19.08 C 0 km/h
1699 26-07-2010 18:00:00 17.16 C 11.34 g/m*3 17.16 C 0 km/h
1700 26-07-2010 19:00:00 16.92 C 11.61 g/m*3 16.92 C 0 km/h
Sensor: Nr:Datum:Temp:Abs-Feuchte:Windchill:Wind:
Aussen-T/F 1701 26-07-2010 20:00:00 16.16 C 11.12 g/m*3 16.16 C 0 km/h
1702 26-07-2010 21:00:00 15.3 C 11.28 g/m*3 15.3 C 0 km/h
1703 26-07-2010 22:00:00 15.22 C 10.86 g/m*3 15.22 C 0 km/h
1704 26-07-2010 23:00:00 15.26 C 10.84 g/m*3 15.26 C 0 km/h
1705 27-07-2010 00:00:00 15.34 C 11.13 g/m*3 15.34 C 0 km/h
1706 27-07-2010 01:00:00 15.48 C 11.2 g/m*3 15.48 C 0 km/h
1707 27-07-2010 02:00:00 15.6 C 11.04 g/m*3 15.6 C 0 km/h
1708 27-07-2010 03:00:00 15.42 C 10.97 g/m*3 15.42 C 0 km/h
1709 27-07-2010 04:00:00 15.26 C 10.84 g/m*3 15.26 C 0 km/h
1710 27-07-2010 05:00:00 15.14 C 10.84 g/m*3 15.14 C 0 km/h
1711 27-07-2010 06:00:00 15.28 C 10.77 g/m*3 15.28 C 0 km/h
1712 27-07-2010 07:00:00 15.68 C 10.64 g/m*3 15.68 C 0 km/h
1713 27-07-2010 08:00:00 16.22 C 10.6 g/m*3 16.22 C 0 km/h
1714 27-07-2010 09:00:00 16.88 C 10.54 g/m*3 16.88 C 0 km/h
1715 27-07-2010 10:00:00 18.52 C 10.07 g/m*3 18.52 C 0 km/h
1716 27-07-2010 11:00:00 20.18 C 9.57 g/m*3 20.18 C 0 km/h
1717 27-07-2010 12:00:00 22.08 C 9.09 g/m*3 22.08 C 0 km/h
1718 27-07-2010 13:00:00 23.96 C 7.9 g/m*3 23.96 C 0 km/h
1719 27-07-2010 14:00:00 24.42 C 7.66 g/m*3 24.42 C 0 km/h
1720 27-07-2010 15:00:00 25.38 C 7.57 g/m*3 25.38 C 0 km/h
1721 27-07-2010 16:00:00 27.9 C 6.82 g/m*3 27.9 C 0 km/h
1722 27-07-2010 17:00:00 28.32 C 6.2 g/m*3 28.32 C 0 km/h
1723 27-07-2010 18:00:00 25.06 C 7.67 g/m*3 25.06 C 0 km/h
1724 27-07-2010 19:00:00 23.42 C 8.63 g/m*3 23.42 C 0 km/h
1725 27-07-2010 20:00:00 22 C 8.38 g/m*3 22 C 0 km/h
Sensor: Nr:Datum:Temp:Abs-Feuchte:Windchill:Wind:
Aussen-T/F 1726 27-07-2010 21:00:00 20.46 C 8.7 g/m*3 20.46 C 0 km/h
1727 27-07-2010 22:00:00 19.12 C 9.16 g/m*3 19.12 C 0 km/h
1728 27-07-2010 23:00:00 18.44 C 9.33 g/m*3 18.44 C 0 km/h
1729 28-07-2010 00:00:00 18.2 C 9.79 g/m*3 18.2 C 0 km/h
1730 28-07-2010 01:00:00 17.16 C 9.85 g/m*3 17.16 C 0 km/h
1731 28-07-2010 02:00:00 16.96 C 10.22 g/m*3 16.96 C 0 km/h
1732 28-07-2010 03:00:00 17.04 C 10.33 g/m*3 17.04 C 0 km/h
1733 28-07-2010 04:00:00 16.96 C 10.48 g/m*3 16.96 C 0 km/h
1734 28-07-2010 05:00:00 16.84 C 10.58 g/m*3 16.84 C 0 km/h
1735 28-07-2010 06:00:00 17.02 C 10.81 g/m*3 17.02 C 0 km/h
1736 28-07-2010 07:00:00 16.32 C 12.11 g/m*3 16.32 C 0 km/h
1737 28-07-2010 08:00:00 17.1 C 13.01 g/m*3 17.1 C 0 km/h
1738 28-07-2010 09:00:00 17.56 C 12.78 g/m*3 17.56 C 0 km/h
1739 28-07-2010 10:00:00 17.7 C 13.25 g/m*3 17.7 C 0 km/h
1740 28-07-2010 11:00:00 20.26 C 13.58 g/m*3 20.26 C 0 km/h
1741 28-07-2010 12:00:00 21.22 C 13.02 g/m*3 21.22 C 0 km/h
1742 28-07-2010 13:00:00 23.74 C 12.26 g/m*3 23.74 C 0 km/h
1743 28-07-2010 14:00:00 25.74 C 9.31 g/m*3 25.74 C 0 km/h
1744 28-07-2010 15:00:00 26 C 7.69 g/m*3 26 C 0 km/h
1745 28-07-2010 16:00:00 27.78 C 7.04 g/m*3 27.78 C 0 km/h
1746 28-07-2010 17:00:00 28.8 C 6.65 g/m*3 28.8 C 0 km/h
1747 28-07-2010 18:00:00 26.74 C 6.7 g/m*3 26.74 C 0 km/h
1748 28-07-2010 19:00:00 22.5 C 10.07 g/m*3 22.5 C 0 km/h
1749 28-07-2010 20:00:00 21.78 C 10.2 g/m*3 21.78 C 0 km/h
1750 28-07-2010 21:00:00 20.6 C 10.63 g/m*3 20.6 C 0 km/h
Sensor: Nr:Datum:Temp:Abs-Feuchte:Windchill:Wind:
Aussen-T/F 1751 28-07-2010 22:00:00 19.78 C 11.26 g/m*3 19.78 C 0 km/h
1752 28-07-2010 23:00:00 18.38 C 13.01 g/m*3 18.38 C 0 km/h
1753 29-07-2010 00:00:00 17.16 C 13.12 g/m*3 17.16 C 0 km/h
1754 29-07-2010 01:00:00 16.06 C 12.63 g/m*3 16.06 C 0 km/h
1755 29-07-2010 02:00:00 15.16 C 12.04 g/m*3 15.16 C 0 km/h
1756 29-07-2010 03:00:00 14.76 C 11.85 g/m*3 14.76 C 0 km/h
1757 29-07-2010 04:00:00 14.44 C 11.65 g/m*3 14.44 C 0 km/h
1758 29-07-2010 05:00:00 14.34 C 11.6 g/m*3 14.34 C 0 km/h
1759 29-07-2010 06:00:00 14.62 C 11.9 g/m*3 14.62 C 0 km/h
1760 29-07-2010 07:00:00 14.88 C 12.07 g/m*3 14.88 C 0 km/h
1761 29-07-2010 08:00:00 15.38 C 12.47 g/m*3 15.38 C 0 km/h
1762 29-07-2010 09:00:00 15.48 C 12.23 g/m*3 15.48 C 0 km/h
1763 29-07-2010 10:00:00 15.22 C 11.67 g/m*3 15.22 C 0 km/h
1764 29-07-2010 11:00:00 14.64 C 11.42 g/m*3 14.64 C 0 km/h
1765 29-07-2010 12:00:00 17.28 C 12.6 g/m*3 17.28 C 0 km/h
1766 29-07-2010 13:00:00 18.44 C 11.1 g/m*3 18.44 C 0 km/h
1767 29-07-2010 14:00:00 17.76 C 10.93 g/m*3 17.76 C 0 km/h
1768 29-07-2010 15:00:00 18.24 C 10.75 g/m*3 18.24 C 0 km/h
1769 29-07-2010 16:00:00 19.64 C 10.93 g/m*3 19.64 C 0 km/h
1770 29-07-2010 17:00:00 17.12 C 11.16 g/m*3 17.12 C 0 km/h
1771 29-07-2010 18:00:00 17.82 C 11.31 g/m*3 17.82 C 0 km/h
1772 29-07-2010 19:00:00 18.34 C 9.69 g/m*3 18.34 C 0 km/h
1773 29-07-2010 20:00:00 17.6 C 9.51 g/m*3 17.6 C 0 km/h
1774 29-07-2010 21:00:00 16.04 C 9.92 g/m*3 16.04 C 0 km/h
1775 29-07-2010 22:00:00 15.66 C 9.9 g/m*3 15.66 C 0 km/h
Sensor: Nr:Datum:Temp:Abs-Feuchte:Windchill:Wind:
Aussen-T/F 1776 29-07-2010 23:00:00 15.7 C 9.61 g/m*3 15.7 C 0 km/h
1777 30-07-2010 00:00:00 15.2 C 9.84 g/m*3 15.2 C 0 km/h
1778 30-07-2010 01:00:00 15.2 C 9.86 g/m*3 15.2 C 0 km/h
1779 30-07-2010 02:00:00 14.74 C 9.89 g/m*3 14.74 C 0 km/h
1780 30-07-2010 03:00:00 14.6 C 10.24 g/m*3 14.6 C 0 km/h
1781 30-07-2010 04:00:00 14.42 C 10.4 g/m*3 14.42 C 0 km/h
1782 30-07-2010 05:00:00 14.7 C 10.6 g/m*3 14.7 C 0 km/h
1783 30-07-2010 06:00:00 14.76 C 10.51 g/m*3 14.76 C 0 km/h
1784 30-07-2010 07:00:00 15.18 C 10.53 g/m*3 15.18 C 0 km/h
1785 30-07-2010 08:00:00 16.28 C 10.56 g/m*3 16.28 C 0 km/h
1786 30-07-2010 09:00:00 17.26 C 9.79 g/m*3 17.26 C 0 km/h
1787 30-07-2010 10:00:00 19 C 9 g/m*3 19 C 0 km/h
1788 30-07-2010 11:00:00 22 C 8.35 g/m*3 22 C 0 km/h
1789 30-07-2010 12:00:00 21.54 C 8.32 g/m*3 21.54 C 0 km/h
1790 30-07-2010 13:00:00 24 C 7.48 g/m*3 24 C 0 km/h
1791 30-07-2010 14:00:00 24.48 C 7.6 g/m*3 24.48 C 0 km/h
1792 30-07-2010 15:00:00 25.14 C 7.15 g/m*3 25.14 C 0 km/h
1793 30-07-2010 16:00:00 25.94 C 6.6 g/m*3 25.94 C 0 km/h
1794 30-07-2010 17:00:00 26.82 C 6.42 g/m*3 26.82 C 0 km/h
1795 30-07-2010 18:00:00 26.8 C 6.06 g/m*3 26.8 C 0 km/h
1796 30-07-2010 19:00:00 26.02 C 6.97 g/m*3 26.02 C 0 km/h
1797 30-07-2010 20:00:00 22.54 C 7.53 g/m*3 22.54 C 0 km/h
1798 30-07-2010 21:00:00 19.84 C 7.7 g/m*3 19.84 C 0 km/h
1799 30-07-2010 22:00:00 18.5 C 7.47 g/m*3 18.5 C 0 km/h
1800 30-07-2010 23:00:00 17 C 8.54 g/m*3 17 C 0 km/h
Sensor: Nr:Datum:Temp:Abs-Feuchte:Windchill:Wind:
Aussen-T/F 1801 31-07-2010 00:00:00 15.92 C 8.73 g/m*3 15.92 C 0 km/h
1802 31-07-2010 01:00:00 14.84 C 8.79 g/m*3 14.84 C 0 km/h
1803 31-07-2010 02:00:00 14.04 C 8.66 g/m*3 14.04 C 0 km/h
1804 31-07-2010 03:00:00 13.34 C 8.64 g/m*3 13.34 C 0 km/h
1805 31-07-2010 04:00:00 12.7 C 8.66 g/m*3 12.7 C 0 km/h
1806 31-07-2010 05:00:00 12.26 C 8.67 g/m*3 12.26 C 0 km/h
1807 31-07-2010 06:00:00 12.02 C 8.77 g/m*3 12.02 C 0 km/h
1808 31-07-2010 07:00:00 12.6 C 9.12 g/m*3 12.6 C 0 km/h
1809 31-07-2010 08:00:00 13.84 C 9.27 g/m*3 13.84 C 0 km/h
1810 31-07-2010 09:00:00 16.36 C 9.55 g/m*3 16.36 C 0 km/h
1811 31-07-2010 10:00:00 22 C 9.04 g/m*3 22 C 0 km/h
1812 31-07-2010 11:00:00 23.48 C 7.44 g/m*3 23.48 C 0 km/h
1813 31-07-2010 12:00:00 24.12 C 6.83 g/m*3 24.12 C 0 km/h
1814 31-07-2010 13:00:00 25.56 C 6.56 g/m*3 25.56 C 0 km/h
1815 31-07-2010 14:00:00 26.84 C 6.63 g/m*3 26.84 C 0 km/h
1816 31-07-2010 15:00:00 27.88 C 6.32 g/m*3 27.88 C 0 km/h
1817 31-07-2010 16:00:00 29.44 C 6 g/m*3 29.44 C 0 km/h
1818 31-07-2010 17:00:00 29.84 C 6.01 g/m*3 29.84 C 0 km/h
1819 31-07-2010 18:00:00 29.86 C 6.08 g/m*3 29.86 C 0 km/h
1820 31-07-2010 19:00:00 27.88 C 7.24 g/m*3 27.88 C 0 km/h
1821 31-07-2010 20:00:00 24.6 C 8.19 g/m*3 24.6 C 0 km/h
1822 31-07-2010 21:00:00 23.04 C 8.41 g/m*3 23.04 C 0 km/h
1823 31-07-2010 22:00:00 22.02 C 9.17 g/m*3 22.02 C 0 km/h
1824 31-07-2010 23:00:00 20.5 C 11.74 g/m*3 20.5 C 0 km/h
1825 01-08-2010 00:00:00 19.4 C 12.38 g/m*3 19.4 C 0 km/h
Sensor: Nr:Datum:Temp:Abs-Feuchte:Windchill:Wind:
Aussen-T/F 1826 01-08-2010 01:00:00 18.26 C 13.1 g/m*3 18.26 C 0 km/h
1827 01-08-2010 02:00:00 18.1 C 13.38 g/m*3 18.1 C 0 km/h
1828 01-08-2010 03:00:00 17.98 C 13.16 g/m*3 17.98 C 0 km/h
1829 01-08-2010 04:00:00 17.84 C 12.93 g/m*3 17.84 C 0 km/h
1830 01-08-2010 05:00:00 17.72 C 12.78 g/m*3 17.72 C 0 km/h
1831 01-08-2010 06:00:00 17.42 C 13.15 g/m*3 17.42 C 0 km/h
1832 01-08-2010 07:00:00 18.34 C 13.73 g/m*3 18.34 C 0 km/h
1833 01-08-2010 08:00:00 19.68 C 13.77 g/m*3 19.68 C 0 km/h
1834 01-08-2010 09:00:00 20.86 C 13.56 g/m*3 20.86 C 0 km/h
1835 01-08-2010 10:00:00 21.94 C 13.58 g/m*3 21.94 C 0 km/h
1836 01-08-2010 11:00:00 24.06 C 12.92 g/m*3 24.06 C 0 km/h
1837 01-08-2010 12:00:00 25.46 C 10.72 g/m*3 25.46 C 0 km/h
1838 01-08-2010 13:00:00 27.84 C 9.43 g/m*3 27.84 C 0 km/h
1839 01-08-2010 14:00:00 29.02 C 7.94 g/m*3 29.02 C 0 km/h
1840 01-08-2010 15:00:00 30.04 C 7.23 g/m*3 30.04 C 0 km/h
1841 01-08-2010 16:00:00 30.66 C 7.1 g/m*3 30.66 C 0 km/h
1842 01-08-2010 17:00:00 30.1 C 7.44 g/m*3 30.1 C 0 km/h
1843 01-08-2010 18:00:00 28.36 C 8.38 g/m*3 28.36 C 0 km/h
1844 01-08-2010 19:00:00 25.88 C 9.48 g/m*3 25.88 C 0 km/h
1845 01-08-2010 20:00:00 24.64 C 10.24 g/m*3 24.64 C 0 km/h
1846 01-08-2010 21:00:00 23.16 C 9.83 g/m*3 23.16 C 0 km/h
1847 01-08-2010 22:00:00 21.96 C 9.53 g/m*3 21.96 C 0 km/h
1848 01-08-2010 23:00:00 21.08 C 9.97 g/m*3 21.08 C 0 km/h
1849 02-08-2010 00:00:00 19.74 C 10.01 g/m*3 19.74 C 0 km/h
1850 02-08-2010 01:00:00 19.24 C 10.28 g/m*3 19.24 C 0 km/h
Sensor: Nr:Datum:Temp:Abs-Feuchte:Windchill:Wind:
Aussen-T/F 1851 02-08-2010 02:00:00 18.64 C 10.53 g/m*3 18.64 C 0 km/h
1852 02-08-2010 03:00:00 17.94 C 10.62 g/m*3 17.94 C 0 km/h
1853 02-08-2010 04:00:00 17.1 C 10.86 g/m*3 17.1 C 0 km/h
1854 02-08-2010 05:00:00 16.32 C 10.64 g/m*3 16.32 C 0 km/h
1855 02-08-2010 06:00:00 16.48 C 10.91 g/m*3 16.48 C 0 km/h
1856 02-08-2010 07:00:00 16.38 C 10.96 g/m*3 16.38 C 0 km/h
1857 02-08-2010 08:00:00 16.86 C 11.16 g/m*3 16.86 C 0 km/h
1858 02-08-2010 09:00:00 18.68 C 11.16 g/m*3 18.68 C 0 km/h
1859 02-08-2010 10:00:00 20.88 C 10.59 g/m*3 20.88 C 0 km/h
1860 02-08-2010 11:00:00 23.84 C 9.31 g/m*3 23.84 C 0 km/h
1861 02-08-2010 12:00:00 25.54 C 8.16 g/m*3 25.54 C 0 km/h
1862 02-08-2010 13:00:00 23.28 C 8.65 g/m*3 23.28 C 0 km/h
1863 02-08-2010 14:00:00 20.48 C 11.23 g/m*3 20.48 C 0 km/h
1864 02-08-2010 15:00:00 21.32 C 11.23 g/m*3 21.32 C 0 km/h
1865 02-08-2010 16:00:00 23.06 C 10.93 g/m*3 23.06 C 0 km/h
1866 02-08-2010 17:00:00 24.2 C 9.77 g/m*3 24.2 C 0 km/h
1867 02-08-2010 18:00:00 21.28 C 11.17 g/m*3 21.28 C 0 km/h
1868 02-08-2010 19:00:00 20.02 C 12.35 g/m*3 20.02 C 0 km/h
1869 02-08-2010 20:00:00 18.6 C 13.5 g/m*3 18.6 C 0 km/h
1870 02-08-2010 21:00:00 17.58 C 13.45 g/m*3 17.58 C 0 km/h
1871 02-08-2010 22:00:00 17.12 C 13.32 g/m*3 17.12 C 0 km/h
1872 02-08-2010 23:00:00 16.04 C 12.43 g/m*3 16.04 C 0 km/h
1873 03-08-2010 00:00:00 15.94 C 12.08 g/m*3 15.94 C 0 km/h
1874 03-08-2010 01:00:00 15.96 C 12.02 g/m*3 15.96 C 0 km/h
1875 03-08-2010 02:00:00 15.46 C 11.76 g/m*3 15.46 C 0 km/h
Sensor: Nr:Datum:Temp:Abs-Feuchte:Windchill:Wind:
Aussen-T/F 1876 03-08-2010 03:00:00 15.26 C 12.06 g/m*3 15.26 C 0 km/h
1877 03-08-2010 04:00:00 15.02 C 12.04 g/m*3 15.02 C 0 km/h
1878 03-08-2010 05:00:00 14.96 C 12.08 g/m*3 14.96 C 0 km/h
1879 03-08-2010 06:00:00 14.62 C 11.9 g/m*3 14.62 C 0 km/h
1880 03-08-2010 07:00:00 15.06 C 12.23 g/m*3 15.06 C 0 km/h
1881 03-08-2010 08:00:00 15.96 C 12.37 g/m*3 15.96 C 0 km/h
1882 03-08-2010 09:00:00 16.78 C 11.71 g/m*3 16.78 C 0 km/h
1883 03-08-2010 10:00:00 17.64 C 11.03 g/m*3 17.64 C 0 km/h
1884 03-08-2010 11:00:00 18.94 C 9.58 g/m*3 18.94 C 0 km/h
1885 03-08-2010 12:00:00 21.22 C 7.94 g/m*3 21.22 C 0 km/h
1886 03-08-2010 13:00:00 21.34 C 7.66 g/m*3 21.34 C 0 km/h
1887 03-08-2010 14:00:00 21.88 C 8.29 g/m*3 21.88 C 0 km/h
1888 03-08-2010 15:00:00 24.2 C 6.29 g/m*3 24.2 C 0 km/h
1889 03-08-2010 16:00:00 25.38 C 5.31 g/m*3 25.38 C 0 km/h
1890 03-08-2010 17:00:00 25.84 C 4.97 g/m*3 25.84 C 0 km/h
1891 03-08-2010 18:00:00 26.12 C 5.15 g/m*3 26.12 C 0 km/h
1892 03-08-2010 19:00:00 23.6 C 5.91 g/m*3 23.6 C 0 km/h
1893 03-08-2010 20:00:00 21.72 C 7.22 g/m*3 21.72 C 0 km/h
1894 03-08-2010 21:00:00 18.32 C 7.61 g/m*3 18.32 C 0 km/h
1895 03-08-2010 22:00:00 17.26 C 8.29 g/m*3 17.26 C 0 km/h
1896 03-08-2010 23:00:00 16.12 C 8.51 g/m*3 16.12 C 0 km/h
1897 04-08-2010 00:00:00 15.44 C 8.98 g/m*3 15.44 C 0 km/h
1898 04-08-2010 01:00:00 15.68 C 9.22 g/m*3 15.68 C 0 km/h
1899 04-08-2010 02:00:00 15.42 C 9.71 g/m*3 15.42 C 0 km/h
1900 04-08-2010 03:00:00 15.36 C 9.7 g/m*3 15.36 C 0 km/h
Sensor: Nr:Datum:Temp:Abs-Feuchte:Windchill:Wind:
Aussen-T/F 1901 04-08-2010 04:00:00 15.2 C 9.53 g/m*3 15.2 C 0 km/h
1902 04-08-2010 05:00:00 15.14 C 9.57 g/m*3 15.14 C 0 km/h
1903 04-08-2010 06:00:00 15.28 C 9.78 g/m*3 15.28 C 0 km/h
1904 04-08-2010 07:00:00 15.88 C 10.01 g/m*3 15.88 C 0 km/h
1905 04-08-2010 08:00:00 16.86 C 9.96 g/m*3 16.86 C 0 km/h
1906 04-08-2010 09:00:00 18.8 C 9.86 g/m*3 18.8 C 0 km/h
1907 04-08-2010 10:00:00 21.08 C 9.13 g/m*3 21.08 C 0 km/h
1908 04-08-2010 11:00:00 22.5 C 8.11 g/m*3 22.5 C 0 km/h
1909 04-08-2010 12:00:00 23.72 C 7.02 g/m*3 23.72 C 0 km/h
1910 04-08-2010 13:00:00 24.98 C 6.39 g/m*3 24.98 C 0 km/h
1911 04-08-2010 14:00:00 24.56 C 6.65 g/m*3 24.56 C 0 km/h
1912 04-08-2010 15:00:00 23.88 C 6.83 g/m*3 23.88 C 0 km/h
1913 04-08-2010 16:00:00 23.36 C 7.01 g/m*3 23.36 C 0 km/h
1914 04-08-2010 17:00:00 23.1 C 7.23 g/m*3 23.1 C 0 km/h
1915 04-08-2010 18:00:00 23.32 C 7.37 g/m*3 23.32 C 0 km/h
1916 04-08-2010 19:00:00 22.44 C 7.84 g/m*3 22.44 C 0 km/h
1917 04-08-2010 20:00:00 21.14 C 8.98 g/m*3 21.14 C 0 km/h
1918 04-08-2010 21:00:00 20.1 C 9.11 g/m*3 20.1 C 0 km/h
1919 04-08-2010 22:00:00 19.325 C 10.09 g/m*3 19.33 C 0 km/h
1920 04-08-2010 23:00:00 18.32 C 11.46 g/m*3 18.32 C 0 km/h
1921 05-08-2010 00:00:00 16.78 C 12.37 g/m*3 16.78 C 0 km/h
1922 05-08-2010 01:00:00 16.28 C 12.44 g/m*3 16.28 C 0 km/h
1923 05-08-2010 02:00:00 15.82 C 12.37 g/m*3 15.82 C 0 km/h
1924 05-08-2010 03:00:00 15.54 C 12.3 g/m*3 15.54 C 0 km/h
1925 05-08-2010 04:00:00 15.3 C 12.14 g/m*3 15.3 C 0 km/h
Sensor: Nr:Datum:Temp:Abs-Feuchte:Windchill:Wind:
Aussen-T/F 1926 05-08-2010 05:00:00 15.32 C 12.21 g/m*3 15.32 C 0 km/h
1927 05-08-2010 06:00:00 15.68 C 12.56 g/m*3 15.68 C 0 km/h
1928 05-08-2010 07:00:00 15.72 C 12.57 g/m*3 15.72 C 0 km/h
1929 05-08-2010 08:00:00 16.2 C 12.55 g/m*3 16.2 C 0 km/h
1930 05-08-2010 09:00:00 16.84 C 11.44 g/m*3 16.84 C 0 km/h
1931 05-08-2010 10:00:00 17.46 C 10.38 g/m*3 17.46 C 0 km/h
1932 05-08-2010 11:00:00 18.36 C 9.67 g/m*3 18.36 C 0 km/h
1933 05-08-2010 12:00:00 18.42 C 9.35 g/m*3 18.42 C 0 km/h
1934 05-08-2010 13:00:00 18.98 C 8.2 g/m*3 18.98 C 0 km/h
1935 05-08-2010 14:00:00 21.28 C 7.56 g/m*3 21.28 C 0 km/h
1936 05-08-2010 15:00:00 23 C 6.41 g/m*3 23 C 0 km/h
1937 05-08-2010 16:00:00 25.08 C 5.69 g/m*3 25.08 C 0 km/h
1938 05-08-2010 17:00:00 23.98 C 5.3 g/m*3 23.98 C 0 km/h
1939 05-08-2010 18:00:00 22.7 C 5.62 g/m*3 22.7 C 0 km/h
1940 05-08-2010 19:00:00 21.26 C 6.17 g/m*3 21.26 C 0 km/h
1941 05-08-2010 20:00:00 20.22 C 6.9 g/m*3 20.22 C 0 km/h
1942 05-08-2010 21:00:00 18.94 C 7.15 g/m*3 18.94 C 0 km/h
1943 05-08-2010 22:00:00 17.7 C 7.48 g/m*3 17.7 C 0 km/h
1944 05-08-2010 23:00:00 17 C 8.1 g/m*3 17 C 0 km/h
1945 06-08-2010 00:00:00 16.02 C 8.48 g/m*3 16.02 C 0 km/h
1946 06-08-2010 01:00:00 15.26 C 8.62 g/m*3 15.26 C 0 km/h
1947 06-08-2010 02:00:00 14.52 C 8.87 g/m*3 14.52 C 0 km/h
1948 06-08-2010 03:00:00 13.96 C 8.86 g/m*3 13.96 C 0 km/h
1949 06-08-2010 04:00:00 13.44 C 9.3 g/m*3 13.44 C 0 km/h
1950 06-08-2010 05:00:00 12.96 C 9.34 g/m*3 12.96 C 0 km/h
Sensor: Nr:Datum:Temp:Abs-Feuchte:Windchill:Wind:
Aussen-T/F 1951 06-08-2010 06:00:00 13.34 C 9.29 g/m*3 13.34 C 0 km/h
1952 06-08-2010 07:00:00 13.18 C 9.27 g/m*3 13.18 C 0 km/h
1953 06-08-2010 08:00:00 13.48 C 9.49 g/m*3 13.48 C 0 km/h
1954 06-08-2010 09:00:00 15.46 C 9.44 g/m*3 15.46 C 0 km/h
1955 06-08-2010 10:00:00 17.84 C 8.31 g/m*3 17.84 C 0 km/h
1956 06-08-2010 11:00:00 19.84 C 7.22 g/m*3 19.84 C 0 km/h
1957 06-08-2010 12:00:00 21.34 C 6.17 g/m*3 21.34 C 0 km/h
1958 06-08-2010 13:00:00 23.7 C 4.79 g/m*3 23.7 C 0 km/h
1959 06-08-2010 14:00:00 24.84 C 4.56 g/m*3 24.84 C 0 km/h
1960 06-08-2010 15:00:00 25.28 C 4.68 g/m*3 25.28 C 0 km/h
1961 06-08-2010 16:00:00 28.1 C 5.47 g/m*3 28.1 C 0 km/h
1962 06-08-2010 17:00:00 24.86 C 7.63 g/m*3 24.86 C 0 km/h
1963 06-08-2010 18:00:00 26.42 C 4.98 g/m*3 26.42 C 0 km/h
1964 06-08-2010 19:00:00 26.2 C 4.92 g/m*3 26.2 C 0 km/h
1965 06-08-2010 20:00:00 23.66 C 5.29 g/m*3 23.66 C 0 km/h
1966 06-08-2010 21:00:00 19.3 C 6.14 g/m*3 19.3 C 0 km/h
1967 06-08-2010 22:00:00 17.72 C 6.34 g/m*3 17.72 C 0 km/h
1968 06-08-2010 23:00:00 16.4 C 6.67 g/m*3 16.4 C 0 km/h
1969 07-08-2010 00:00:00 15.04 C 7.15 g/m*3 15.04 C 0 km/h
1970 07-08-2010 01:00:00 13.94 C 7.55 g/m*3 13.94 C 0 km/h
1971 07-08-2010 02:00:00 13 C 7.89 g/m*3 13 C 0 km/h
1972 07-08-2010 03:00:00 12.32 C 7.74 g/m*3 12.32 C 0 km/h
1973 07-08-2010 04:00:00 11.64 C 7.71 g/m*3 11.64 C 0 km/h
1974 07-08-2010 05:00:00 11.06 C 7.7 g/m*3 11.06 C 0 km/h
1975 07-08-2010 06:00:00 10.48 C 7.77 g/m*3 10.48 C 0 km/h
Sensor: Nr:Datum:Temp:Abs-Feuchte:Windchill:Wind:
Aussen-T/F 1976 07-08-2010 07:00:00 10.7 C 7.96 g/m*3 10.7 C 0 km/h
1977 07-08-2010 08:00:00 11.74 C 8.07 g/m*3 11.74 C 0 km/h
1978 07-08-2010 09:00:00 14.06 C 8.4 g/m*3 14.06 C 0 km/h
1979 07-08-2010 10:00:00 18.22 C 8.5 g/m*3 18.22 C 0 km/h
1980 07-08-2010 11:00:00 21.26 C 6.36 g/m*3 21.26 C 0 km/h
1981 07-08-2010 12:00:00 22.86 C 5.46 g/m*3 22.86 C 0 km/h
1982 07-08-2010 13:00:00 25.48 C 4.87 g/m*3 25.48 C 0 km/h
1983 07-08-2010 14:00:00 26.66 C 5.05 g/m*3 26.66 C 0 km/h
1984 07-08-2010 15:00:00 27.78 C 5.37 g/m*3 27.78 C 0 km/h
1985 07-08-2010 16:00:00 29.2 C 5.81 g/m*3 29.2 C 0 km/h
1986 07-08-2010 17:00:00 29.3 C 5.84 g/m*3 29.3 C 0 km/h
1987 07-08-2010 18:00:00 27.4 C 6.26 g/m*3 27.4 C 0 km/h
1988 07-08-2010 19:00:00 25.16 C 6.83 g/m*3 25.16 C 0 km/h
1989 07-08-2010 20:00:00 23.86 C 6.99 g/m*3 23.86 C 0 km/h
1990 07-08-2010 21:00:00 22.46 C 7.05 g/m*3 22.46 C 0 km/h
1991 07-08-2010 22:00:00 21.96 C 7.4 g/m*3 21.96 C 0 km/h
1992 07-08-2010 23:00:00 21.6 C 7.74 g/m*3 21.6 C 0 km/h
1993 08-08-2010 00:00:00 21.04 C 8.12 g/m*3 21.04 C 0 km/h
1994 08-08-2010 01:00:00 20.16 C 8.44 g/m*3 20.16 C 0 km/h
1995 08-08-2010 02:00:00 19.82 C 9.44 g/m*3 19.82 C 0 km/h
1996 08-08-2010 03:00:00 18.68 C 10.01 g/m*3 18.68 C 0 km/h
1997 08-08-2010 04:00:00 18.36 C 10.39 g/m*3 18.36 C 0 km/h
1998 08-08-2010 05:00:00 17.56 C 11.46 g/m*3 17.56 C 0 km/h
1999 08-08-2010 06:00:00 16.68 C 12.49 g/m*3 16.68 C 0 km/h
2000 08-08-2010 07:00:00 16.66 C 12.96 g/m*3 16.66 C 0 km/h
Sensor: Nr:Datum:Temp:Abs-Feuchte:Windchill:Wind:
Aussen-T/F 2001 08-08-2010 08:00:00 17.2 C 13.47 g/m*3 17.2 C 0 km/h
2002 08-08-2010 09:00:00 17.64 C 13.35 g/m*3 17.64 C 0 km/h
2003 08-08-2010 10:00:00 18.46 C 12.66 g/m*3 18.46 C 0 km/h
2004 08-08-2010 11:00:00 16.48 C 12.15 g/m*3 16.48 C 0 km/h
2005 08-08-2010 12:00:00 16.58 C 12.56 g/m*3 16.58 C 0 km/h
2006 08-08-2010 13:00:00 17.16 C 12.86 g/m*3 17.16 C 0 km/h
2007 08-08-2010 14:00:00 18.98 C 12.57 g/m*3 18.98 C 0 km/h
2008 08-08-2010 15:00:00 20.18 C 12.5 g/m*3 20.18 C 0 km/h
2009 08-08-2010 16:00:00 19.94 C 12.36 g/m*3 19.94 C 0 km/h
2010 08-08-2010 17:00:00 21.68 C 12 g/m*3 21.68 C 0 km/h
2011 08-08-2010 18:00:00 21.42 C 10.21 g/m*3 21.42 C 0 km/h
2012 08-08-2010 19:00:00 19.98 C 10.77 g/m*3 19.98 C 0 km/h
2013 08-08-2010 20:00:00 17.72 C 11.81 g/m*3 17.72 C 0 km/h
2014 08-08-2010 21:00:00 17.46 C 11.42 g/m*3 17.46 C 0 km/h
2015 08-08-2010 22:00:00 17.1 C 11.5 g/m*3 17.1 C 0 km/h
2016 08-08-2010 23:00:00 16.7 C 11.68 g/m*3 16.7 C 0 km/h
2017 09-08-2010 00:00:00 16.42 C 12.05 g/m*3 16.42 C 0 km/h
2018 09-08-2010 01:00:00 16.44 C 12.17 g/m*3 16.44 C 0 km/h
2019 09-08-2010 02:00:00 15.6 C 11.68 g/m*3 15.6 C 0 km/h
2020 09-08-2010 03:00:00 15.6 C 11.7 g/m*3 15.6 C 0 km/h
2021 09-08-2010 04:00:00 15.74 C 11.4 g/m*3 15.74 C 0 km/h
2022 09-08-2010 05:00:00 14.84 C 10.97 g/m*3 14.84 C 0 km/h
2023 09-08-2010 06:00:00 14.6 C 11.31 g/m*3 14.6 C 0 km/h
2024 09-08-2010 07:00:00 14.6 C 11.34 g/m*3 14.6 C 0 km/h
2025 09-08-2010 08:00:00 15.22 C 11.05 g/m*3 15.22 C 0 km/h
Sensor: Nr:Datum:Temp:Abs-Feuchte:Windchill:Wind:
Aussen-T/F 2026 09-08-2010 09:00:00 15.8 C 10.82 g/m*3 15.8 C 0 km/h
2027 09-08-2010 10:00:00 17.4 C 10.55 g/m*3 17.4 C 0 km/h
2028 09-08-2010 11:00:00 19.6 C 9.25 g/m*3 19.6 C 0 km/h
2029 09-08-2010 12:00:00 21.3 C 8.61 g/m*3 21.3 C 0 km/h
2030 09-08-2010 13:00:00 24.36 C 8.17 g/m*3 24.36 C 0 km/h
2031 09-08-2010 14:00:00 24.1 C 7.83 g/m*3 24.1 C 0 km/h
2032 09-08-2010 15:00:00 25.54 C 7.59 g/m*3 25.54 C 0 km/h
2033 09-08-2010 16:00:00 26.18 C 6.84 g/m*3 26.18 C 0 km/h
2034 09-08-2010 17:00:00 26.22 C 8.08 g/m*3 26.22 C 0 km/h
2035 09-08-2010 18:00:00 27.5 C 7.88 g/m*3 27.5 C 0 km/h
2036 09-08-2010 19:00:00 23.52 C 8.81 g/m*3 23.52 C 0 km/h
2037 09-08-2010 20:00:00 21.26 C 8.55 g/m*3 21.26 C 0 km/h
2038 09-08-2010 21:00:00 19.76 C 8.79 g/m*3 19.76 C 0 km/h
2039 09-08-2010 22:00:00 18.64 C 8.97 g/m*3 18.64 C 0 km/h
2040 09-08-2010 23:00:00 18.12 C 9.25 g/m*3 18.12 C 0 km/h
2041 10-08-2010 00:00:00 17.62 C 9.79 g/m*3 17.62 C 0 km/h
2042 10-08-2010 01:00:00 17.52 C 10.15 g/m*3 17.52 C 0 km/h
2043 10-08-2010 02:00:00 17.38 C 10.04 g/m*3 17.38 C 0 km/h
2044 10-08-2010 03:00:00 17.14 C 10.1 g/m*3 17.14 C 0 km/h
2045 10-08-2010 04:00:00 16.86 C 10.24 g/m*3 16.86 C 0 km/h
2046 10-08-2010 05:00:00 15.62 C 10.09 g/m*3 15.62 C 0 km/h
2047 10-08-2010 06:00:00 14.66 C 9.92 g/m*3 14.66 C 0 km/h
2048 10-08-2010 07:00:00 14.88 C 10.31 g/m*3 14.88 C 0 km/h
2049 10-08-2010 08:00:00 15.84 C 10.71 g/m*3 15.84 C 0 km/h
2050 10-08-2010 09:00:00 18.2 C 10.6 g/m*3 18.2 C 0 km/h
Sensor: Nr:Datum:Temp:Abs-Feuchte:Windchill:Wind:
Aussen-T/F 2051 10-08-2010 10:00:00 20.92 C 11.01 g/m*3 20.92 C 0 km/h
2052 10-08-2010 11:00:00 23.74 C 9.52 g/m*3 23.74 C 0 km/h
2053 10-08-2010 12:00:00 25.9 C 6.83 g/m*3 25.9 C 0 km/h
2054 10-08-2010 13:00:00 28.16 C 5.98 g/m*3 28.16 C 0 km/h
2055 10-08-2010 14:00:00 29.04 C 6.22 g/m*3 29.04 C 0 km/h
2056 10-08-2010 15:00:00 28.46 C 7.36 g/m*3 28.46 C 0 km/h
2057 10-08-2010 16:00:00 29.88 C 6.51 g/m*3 29.88 C 0 km/h
2058 10-08-2010 17:00:00 29.94 C 6.47 g/m*3 29.94 C 0 km/h
2059 10-08-2010 18:00:00 29.68 C 6.74 g/m*3 29.68 C 0 km/h
2060 10-08-2010 19:00:00 26.94 C 8.16 g/m*3 26.94 C 0 km/h
2061 10-08-2010 20:00:00 24.76 C 8.27 g/m*3 24.76 C 0 km/h
2062 10-08-2010 21:00:00 23.36 C 8.77 g/m*3 23.36 C 0 km/h
2063 10-08-2010 22:00:00 22.86 C 8.93 g/m*3 22.86 C 0 km/h
2064 10-08-2010 23:00:00 21.9 C 9.26 g/m*3 21.9 C 0 km/h
2065 11-08-2010 00:00:00 21.46 C 9.67 g/m*3 21.46 C 0 km/h
2066 11-08-2010 01:00:00 20.54 C 10.56 g/m*3 20.54 C 0 km/h
2067 11-08-2010 02:00:00 18.38 C 12.32 g/m*3 18.38 C 0 km/h
2068 11-08-2010 03:00:00 17.64 C 13.14 g/m*3 17.64 C 0 km/h
2069 11-08-2010 04:00:00 17.52 C 13.4 g/m*3 17.52 C 0 km/h
2070 11-08-2010 05:00:00 17.42 C 13.24 g/m*3 17.42 C 0 km/h
2071 11-08-2010 06:00:00 17.4 C 13.04 g/m*3 17.4 C 0 km/h
2072 11-08-2010 07:00:00 17.62 C 13.03 g/m*3 17.62 C 0 km/h
2073 11-08-2010 08:00:00 18.68 C 13.02 g/m*3 18.68 C 0 km/h
2074 11-08-2010 09:00:00 19.64 C 11.51 g/m*3 19.64 C 0 km/h
2075 11-08-2010 10:00:00 20.8 C 11.08 g/m*3 20.8 C 0 km/h
Sensor: Nr:Datum:Temp:Abs-Feuchte:Windchill:Wind:
Aussen-T/F 2076 11-08-2010 11:00:00 20.62 C 11.18 g/m*3 20.62 C 0 km/h
2077 11-08-2010 12:00:00 22.46 C 11 g/m*3 22.46 C 0 km/h
2078 11-08-2010 13:00:00 23.8 C 10.37 g/m*3 23.8 C 0 km/h
2079 11-08-2010 14:00:00 24.4 C 10.1 g/m*3 24.4 C 0 km/h
2080 11-08-2010 15:00:00 25.56 C 9.88 g/m*3 25.56 C 0 km/h
2081 11-08-2010 16:00:00 22.88 C 12 g/m*3 22.88 C 0 km/h
2082 11-08-2010 17:00:00 21.74 C 14 g/m*3 21.74 C 0 km/h
2083 11-08-2010 18:00:00 22.86 C 14.31 g/m*3 22.86 C 0 km/h
2084 11-08-2010 19:00:00 21.28 C 13.7 g/m*3 21.28 C 0 km/h
2085 11-08-2010 20:00:00 19.56 C 13.57 g/m*3 19.56 C 0 km/h
2086 11-08-2010 21:00:00 18.84 C 14.4 g/m*3 18.84 C 0 km/h
2087 11-08-2010 22:00:00 18.48 C 14.38 g/m*3 18.48 C 0 km/h
2088 11-08-2010 23:00:00 18.3 C 14.38 g/m*3 18.3 C 0 km/h
2089 12-08-2010 00:00:00 17.88 C 14.27 g/m*3 17.88 C 0 km/h
2090 12-08-2010 01:00:00 17.52 C 14.03 g/m*3 17.52 C 0 km/h
2091 12-08-2010 02:00:00 17.16 C 13.73 g/m*3 17.16 C 0 km/h
2092 12-08-2010 03:00:00 16.86 C 13.49 g/m*3 16.86 C 0 km/h
2093 12-08-2010 04:00:00 16.46 C 13.22 g/m*3 16.46 C 0 km/h
2094 12-08-2010 05:00:00 16.48 C 13.3 g/m*3 16.48 C 0 km/h
2095 12-08-2010 06:00:00 16.72 C 13.52 g/m*3 16.72 C 0 km/h
2096 12-08-2010 07:00:00 16.86 C 13.6 g/m*3 16.86 C 0 km/h
2097 12-08-2010 08:00:00 16.64 C 12.89 g/m*3 16.64 C 0 km/h
2098 12-08-2010 09:00:00 17.72 C 13.44 g/m*3 17.72 C 0 km/h
2099 12-08-2010 10:00:00 18.58 C 12.24 g/m*3 18.58 C 0 km/h
2100 12-08-2010 11:00:00 18.62 C 12.17 g/m*3 18.62 C 0 km/h
Sensor: Nr:Datum:Temp:Abs-Feuchte:Windchill:Wind:
Aussen-T/F 2101 12-08-2010 12:00:00 19.56 C 11.25 g/m*3 19.56 C 0 km/h
2102 12-08-2010 13:00:00 20.26 C 9.58 g/m*3 20.26 C 0 km/h
2103 12-08-2010 14:00:00 20.3 C 9.04 g/m*3 20.3 C 0 km/h
2104 12-08-2010 15:00:00 23.02 C 8.4 g/m*3 23.02 C 0 km/h
2105 12-08-2010 16:00:00 22.56 C 7.14 g/m*3 22.56 C 0 km/h
2106 12-08-2010 17:00:00 25.42 C 5.89 g/m*3 25.42 C 0 km/h
2107 12-08-2010 18:00:00 23.3 C 6.65 g/m*3 23.3 C 0 km/h
2108 12-08-2010 19:00:00 21.68 C 8.23 g/m*3 21.68 C 0 km/h
2109 12-08-2010 20:00:00 20.1 C 8.45 g/m*3 20.1 C 0 km/h
2110 12-08-2010 21:00:00 19.14 C 7.99 g/m*3 19.14 C 0 km/h
2111 12-08-2010 22:00:00 18.44 C 8.58 g/m*3 18.44 C 0 km/h
2112 12-08-2010 23:00:00 17.34 C 9.19 g/m*3 17.34 C 0 km/h
2113 13-08-2010 00:00:00 16.82 C 9.42 g/m*3 16.82 C 0 km/h
2114 13-08-2010 01:00:00 16.18 C 9.26 g/m*3 16.18 C 0 km/h
2115 13-08-2010 02:00:00 15.82 C 9.68 g/m*3 15.82 C 0 km/h
2116 13-08-2010 03:00:00 15.34 C 9.84 g/m*3 15.34 C 0 km/h
2117 13-08-2010 04:00:00 15.04 C 10 g/m*3 15.04 C 0 km/h
2118 13-08-2010 05:00:00 14.76 C 9.98 g/m*3 14.76 C 0 km/h
2119 13-08-2010 06:00:00 14.7 C 10.05 g/m*3 14.7 C 0 km/h
2120 13-08-2010 07:00:00 15.02 C 10.12 g/m*3 15.02 C 0 km/h
2121 13-08-2010 08:00:00 15.16 C 10.33 g/m*3 15.16 C 0 km/h
2122 13-08-2010 09:00:00 16.26 C 10.3 g/m*3 16.26 C 0 km/h
2123 13-08-2010 10:00:00 18.84 C 9.65 g/m*3 18.84 C 0 km/h
2124 13-08-2010 11:00:00 21.24 C 8.4 g/m*3 21.24 C 0 km/h
2125 13-08-2010 12:00:00 22.2 C 7.74 g/m*3 22.2 C 0 km/h
Sensor: Nr:Datum:Temp:Abs-Feuchte:Windchill:Wind:
Aussen-T/F 2126 13-08-2010 13:00:00 23 C 6.99 g/m*3 23 C 0 km/h
2127 13-08-2010 14:00:00 23.92 C 6.5 g/m*3 23.92 C 0 km/h
2128 13-08-2010 15:00:00 24.42 C 6.02 g/m*3 24.42 C 0 km/h
2129 13-08-2010 16:00:00 24.24 C 6.75 g/m*3 24.24 C 0 km/h
2130 13-08-2010 17:00:00 23.66 C 7.43 g/m*3 23.66 C 0 km/h
2131 13-08-2010 18:00:00 22.5 C 8.15 g/m*3 22.5 C 0 km/h
2132 13-08-2010 19:00:00 21.84 C 7.88 g/m*3 21.84 C 0 km/h
2133 13-08-2010 20:00:00 19.9 C 7.94 g/m*3 19.9 C 0 km/h
2134 13-08-2010 21:00:00 17.66 C 7.83 g/m*3 17.66 C 0 km/h
2135 13-08-2010 22:00:00 16.72 C 8.2 g/m*3 16.72 C 0 km/h
2136 13-08-2010 23:00:00 15.44 C 8.64 g/m*3 15.44 C 0 km/h
2137 14-08-2010 00:00:00 14.7 C 8.91 g/m*3 14.7 C 0 km/h
2138 14-08-2010 01:00:00 13.98 C 9.11 g/m*3 13.98 C 0 km/h
2139 14-08-2010 02:00:00 13.32 C 9 g/m*3 13.32 C 0 km/h
2140 14-08-2010 03:00:00 12.6 C 8.87 g/m*3 12.6 C 0 km/h
2141 14-08-2010 04:00:00 12.06 C 8.75 g/m*3 12.06 C 0 km/h
2142 14-08-2010 05:00:00 11.62 C 8.76 g/m*3 11.62 C 0 km/h
2143 14-08-2010 06:00:00 11.12 C 8.73 g/m*3 11.12 C 0 km/h
2144 14-08-2010 07:00:00 11.28 C 8.9 g/m*3 11.28 C 0 km/h
2145 14-08-2010 08:00:00 12.32 C 9.42 g/m*3 12.32 C 0 km/h
2146 14-08-2010 09:00:00 14.4 C 9.94 g/m*3 14.4 C 0 km/h
2147 14-08-2010 10:00:00 17.62 C 10.39 g/m*3 17.62 C 0 km/h
2148 14-08-2010 11:00:00 20.68 C 10.36 g/m*3 20.68 C 0 km/h
2149 14-08-2010 12:00:00 22.96 C 9.19 g/m*3 22.96 C 0 km/h
2150 14-08-2010 13:00:00 26.24 C 7.4 g/m*3 26.24 C 0 km/h
Sensor: Nr:Datum:Temp:Abs-Feuchte:Windchill:Wind:
Aussen-T/F 2151 14-08-2010 14:00:00 27.62 C 6.98 g/m*3 27.62 C 0 km/h
2152 14-08-2010 15:00:00 28.04 C 6.7 g/m*3 28.04 C 0 km/h
2153 14-08-2010 16:00:00 30.1 C 6.46 g/m*3 30.1 C 0 km/h
2154 14-08-2010 17:00:00 30.88 C 6.36 g/m*3 30.88 C 0 km/h
2155 14-08-2010 18:00:00 31.22 C 6.48 g/m*3 31.22 C 0 km/h
2156 14-08-2010 19:00:00 27.86 C 7.56 g/m*3 27.86 C 0 km/h
2157 14-08-2010 20:00:00 24.86 C 8.18 g/m*3 24.86 C 0 km/h
2158 14-08-2010 21:00:00 22.14 C 8.73 g/m*3 22.14 C 0 km/h
2159 14-08-2010 22:00:00 21.24 C 9.14 g/m*3 21.24 C 0 km/h
2160 14-08-2010 23:00:00 20.36 C 9.14 g/m*3 20.36 C 0 km/h
2161 15-08-2010 00:00:00 19.74 C 8.82 g/m*3 19.74 C 0 km/h
2162 15-08-2010 01:00:00 19.38 C 8.73 g/m*3 19.38 C 0 km/h
2163 15-08-2010 02:00:00 18.98 C 8.98 g/m*3 18.98 C 0 km/h
2164 15-08-2010 03:00:00 18.6 C 9.29 g/m*3 18.6 C 0 km/h
2165 15-08-2010 04:00:00 18.14 C 9.14 g/m*3 18.14 C 0 km/h
2166 15-08-2010 05:00:00 18.06 C 8.88 g/m*3 18.06 C 0 km/h
2167 15-08-2010 06:00:00 17.9 C 9.04 g/m*3 17.9 C 0 km/h
2168 15-08-2010 07:00:00 17.1 C 9.69 g/m*3 17.1 C 0 km/h
2169 15-08-2010 08:00:00 15.24 C 11.48 g/m*3 15.24 C 0 km/h
2170 15-08-2010 09:00:00 15.2 C 11.99 g/m*3 15.2 C 0 km/h
2171 15-08-2010 10:00:00 15.48 C 12.44 g/m*3 15.48 C 0 km/h
2172 15-08-2010 11:00:00 15.82 C 12.8 g/m*3 15.82 C 0 km/h
2173 15-08-2010 12:00:00 16.04 C 12.97 g/m*3 16.04 C 0 km/h
2174 15-08-2010 13:00:00 16.14 C 13.05 g/m*3 16.14 C 0 km/h
2175 15-08-2010 14:00:00 16.44 C 13.29 g/m*3 16.44 C 0 km/h
Sensor: Nr:Datum:Temp:Abs-Feuchte:Windchill:Wind:
Aussen-T/F 2176 15-08-2010 15:00:00 16.4 C 13.26 g/m*3 16.4 C 0 km/h
2177 15-08-2010 16:00:00 16.48 C 13.32 g/m*3 16.48 C 0 km/h
2178 15-08-2010 17:00:00 16.68 C 13.48 g/m*3 16.68 C 0 km/h
2179 15-08-2010 18:00:00 16.6 C 13.42 g/m*3 16.6 C 0 km/h
2180 15-08-2010 19:00:00 16.6 C 13.42 g/m*3 16.6 C 0 km/h
2181 15-08-2010 20:00:00 16.38 C 13.24 g/m*3 16.38 C 0 km/h
2182 15-08-2010 21:00:00 16.24 C 13.13 g/m*3 16.24 C 0 km/h
2183 15-08-2010 22:00:00 16.14 C 13.05 g/m*3 16.14 C 0 km/h
2184 15-08-2010 23:00:00 15.5 C 12.56 g/m*3 15.5 C 0 km/h
2185 16-08-2010 00:00:00 14.9 C 12.11 g/m*3 14.9 C 0 km/h
2186 16-08-2010 01:00:00 14.72 C 11.87 g/m*3 14.72 C 0 km/h
2187 16-08-2010 02:00:00 14.6 C 11.61 g/m*3 14.6 C 0 km/h
2188 16-08-2010 03:00:00 14.6 C 11.64 g/m*3 14.6 C 0 km/h
2189 16-08-2010 04:00:00 14.5 C 11.34 g/m*3 14.5 C 0 km/h
2190 16-08-2010 05:00:00 14.5 C 11.39 g/m*3 14.5 C 0 km/h
2191 16-08-2010 06:00:00 14.54 C 11.37 g/m*3 14.54 C 0 km/h
2192 16-08-2010 07:00:00 14.84 C 11.45 g/m*3 14.84 C 0 km/h
2193 16-08-2010 08:00:00 15.92 C 11.44 g/m*3 15.92 C 0 km/h
2194 16-08-2010 09:00:00 17.4 C 11.09 g/m*3 17.4 C 0 km/h
2195 16-08-2010 10:00:00 17.2 C 10.84 g/m*3 17.2 C 0 km/h
2196 16-08-2010 11:00:00 17.7 C 11.09 g/m*3 17.7 C 0 km/h
2197 16-08-2010 12:00:00 17.76 C 11.45 g/m*3 17.76 C 0 km/h
2198 16-08-2010 13:00:00 18.38 C 10.59 g/m*3 18.38 C 0 km/h
2199 16-08-2010 14:00:00 19.88 C 9.88 g/m*3 19.88 C 0 km/h
2200 16-08-2010 15:00:00 19.72 C 9.42 g/m*3 19.72 C 0 km/h
Sensor: Nr:Datum:Temp:Abs-Feuchte:Windchill:Wind:
Aussen-T/F 2201 16-08-2010 16:00:00 19.76 C 9.75 g/m*3 19.76 C 0 km/h
2202 16-08-2010 17:00:00 19.96 C 9.79 g/m*3 19.96 C 0 km/h
2203 16-08-2010 18:00:00 19.76 C 9.65 g/m*3 19.76 C 0 km/h
2204 16-08-2010 19:00:00 18.6 C 10.06 g/m*3 18.6 C 0 km/h
2205 16-08-2010 20:00:00 17.9 C 10.63 g/m*3 17.9 C 0 km/h
2206 16-08-2010 21:00:00 17.44 C 11.32 g/m*3 17.44 C 0 km/h
2207 16-08-2010 22:00:00 17.58 C 11.83 g/m*3 17.58 C 0 km/h
2208 16-08-2010 23:00:00 17.76 C 12.05 g/m*3 17.76 C 0 km/h
2209 17-08-2010 00:00:00 17.62 C 11.95 g/m*3 17.62 C 0 km/h
2210 17-08-2010 01:00:00 16.68 C 12.29 g/m*3 16.68 C 0 km/h
2211 17-08-2010 02:00:00 16.48 C 12.37 g/m*3 16.48 C 0 km/h
2212 17-08-2010 03:00:00 16.42 C 11.79 g/m*3 16.42 C 0 km/h
2213 17-08-2010 04:00:00 16.42 C 11.18 g/m*3 16.42 C 0 km/h
2214 17-08-2010 05:00:00 15.62 C 11.34 g/m*3 15.62 C 0 km/h
2215 17-08-2010 06:00:00 15.84 C 11.23 g/m*3 15.84 C 0 km/h
2216 17-08-2010 07:00:00 16.36 C 10.83 g/m*3 16.36 C 0 km/h
2217 17-08-2010 08:00:00 16.72 C 10.33 g/m*3 16.72 C 0 km/h
2218 17-08-2010 09:00:00 16.98 C 9.65 g/m*3 16.98 C 0 km/h
2219 17-08-2010 10:00:00 17.06 C 9.35 g/m*3 17.06 C 0 km/h
2220 17-08-2010 11:00:00 17.58 C 9.2 g/m*3 17.58 C 0 km/h
2221 17-08-2010 12:00:00 16.62 C 10.13 g/m*3 16.62 C 0 km/h
2222 17-08-2010 13:00:00 17.3 C 11.73 g/m*3 17.3 C 0 km/h
2223 17-08-2010 14:00:00 17.74 C 9.16 g/m*3 17.74 C 0 km/h
2224 17-08-2010 15:00:00 17.08 C 8.75 g/m*3 17.08 C 0 km/h
2225 17-08-2010 16:00:00 14.7 C 9.74 g/m*3 14.7 C 0 km/h
Sensor: Nr:Datum:Temp:Abs-Feuchte:Windchill:Wind:
Aussen-T/F 2226 17-08-2010 17:00:00 14.42 C 9.98 g/m*3 14.42 C 0 km/h
2227 17-08-2010 18:00:00 14.8 C 11 g/m*3 14.8 C 0 km/h
2228 17-08-2010 19:00:00 14.84 C 11.05 g/m*3 14.84 C 0 km/h
2229 17-08-2010 20:00:00 14.32 C 11.02 g/m*3 14.32 C 0 km/h
2230 17-08-2010 21:00:00 14.38 C 11.31 g/m*3 14.38 C 0 km/h
2231 17-08-2010 22:00:00 14.62 C 10.75 g/m*3 14.62 C 0 km/h
2232 17-08-2010 23:00:00 15 C 10.05 g/m*3 15 C 0 km/h
2233 18-08-2010 00:00:00 15.52 C 9.66 g/m*3 15.52 C 0 km/h
2234 18-08-2010 01:00:00 15.76 C 9.43 g/m*3 15.76 C 0 km/h
2235 18-08-2010 02:00:00 15.54 C 9.43 g/m*3 15.54 C 0 km/h
2236 18-08-2010 03:00:00 15.46 C 9.49 g/m*3 15.46 C 0 km/h
2237 18-08-2010 04:00:00 15.2 C 9.55 g/m*3 15.2 C 0 km/h
2238 18-08-2010 05:00:00 14.96 C 9.8 g/m*3 14.96 C 0 km/h
2239 18-08-2010 06:00:00 15.08 C 9.56 g/m*3 15.08 C 0 km/h
2240 18-08-2010 07:00:00 15.44 C 9.69 g/m*3 15.44 C 0 km/h
2241 18-08-2010 08:00:00 16.16 C 9.88 g/m*3 16.16 C 0 km/h
2242 18-08-2010 09:00:00 17.1 C 10.16 g/m*3 17.1 C 0 km/h
2243 18-08-2010 10:00:00 18.16 C 10.2 g/m*3 18.16 C 0 km/h
2244 18-08-2010 11:00:00 18.7 C 10.18 g/m*3 18.7 C 0 km/h
2245 18-08-2010 12:00:00 18.82 C 10.67 g/m*3 18.82 C 0 km/h
2246 18-08-2010 13:00:00 20.8 C 10.25 g/m*3 20.8 C 0 km/h
2247 18-08-2010 14:00:00 22.84 C 9.04 g/m*3 22.84 C 0 km/h
2248 18-08-2010 15:00:00 22.24 C 9.01 g/m*3 22.24 C 0 km/h
2249 18-08-2010 16:00:00 23.68 C 9.02 g/m*3 23.68 C 0 km/h
2250 18-08-2010 17:00:00 23.88 C 8.86 g/m*3 23.88 C 0 km/h
Sensor: Nr:Datum:Temp:Abs-Feuchte:Windchill:Wind:
Aussen-T/F 2251 18-08-2010 18:00:00 22.36 C 9.15 g/m*3 22.36 C 0 km/h
2252 18-08-2010 19:00:00 20.68 C 9.35 g/m*3 20.68 C 0 km/h
2253 18-08-2010 20:00:00 19.44 C 10 g/m*3 19.44 C 0 km/h
2254 18-08-2010 21:00:00 18.82 C 10.19 g/m*3 18.82 C 0 km/h
2255 18-08-2010 22:00:00 17.6 C 10.59 g/m*3 17.6 C 0 km/h
2256 18-08-2010 23:00:00 17.58 C 10.19 g/m*3 17.58 C 0 km/h
2257 19-08-2010 00:00:00 17.36 C 9.14 g/m*3 17.36 C 0 km/h
2258 19-08-2010 01:00:00 16.86 C 9.18 g/m*3 16.86 C 0 km/h
2259 19-08-2010 02:00:00 16.32 C 8.81 g/m*3 16.32 C 0 km/h
2260 19-08-2010 03:00:00 15.9 C 9.21 g/m*3 15.9 C 0 km/h
2261 19-08-2010 04:00:00 15.54 C 9.38 g/m*3 15.54 C 0 km/h
2262 19-08-2010 05:00:00 15.1 C 9.31 g/m*3 15.1 C 0 km/h
2263 19-08-2010 06:00:00 14.18 C 8.9 g/m*3 14.18 C 0 km/h
2264 19-08-2010 07:00:00 13.92 C 8.21 g/m*3 13.92 C 0 km/h
2265 19-08-2010 08:00:00 14.78 C 8.05 g/m*3 14.78 C 0 km/h
2266 19-08-2010 09:00:00 15.72 C 8.06 g/m*3 15.72 C 0 km/h
2267 19-08-2010 10:00:00 17.9 C 7.7 g/m*3 17.9 C 0 km/h
2268 19-08-2010 11:00:00 20 C 7.26 g/m*3 20 C 0 km/h
2269 19-08-2010 12:00:00 21.44 C 6.65 g/m*3 21.44 C 0 km/h
2270 19-08-2010 13:00:00 22.64 C 6.16 g/m*3 22.64 C 0 km/h
2271 19-08-2010 14:00:00 23.04 C 6.02 g/m*3 23.04 C 0 km/h
2272 19-08-2010 15:00:00 23.74 C 6.22 g/m*3 23.74 C 0 km/h
2273 19-08-2010 16:00:00 23.28 C 7.64 g/m*3 23.28 C 0 km/h
2274 19-08-2010 17:00:00 23.9 C 7.53 g/m*3 23.9 C 0 km/h
2275 19-08-2010 18:00:00 25.42 C 5.75 g/m*3 25.42 C 0 km/h
Sensor: Nr:Datum:Temp:Abs-Feuchte:Windchill:Wind:
Aussen-T/F 2276 19-08-2010 19:00:00 25.24 C 6.63 g/m*3 25.24 C 0 km/h
2277 19-08-2010 20:00:00 20.5 C 7.15 g/m*3 20.5 C 0 km/h
2278 19-08-2010 21:00:00 18.08 C 7.78 g/m*3 18.08 C 0 km/h
2279 19-08-2010 22:00:00 16.86 C 8.01 g/m*3 16.86 C 0 km/h
2280 19-08-2010 23:00:00 15.62 C 8.36 g/m*3 15.62 C 0 km/h
2281 20-08-2010 00:00:00 14.72 C 8.55 g/m*3 14.72 C 0 km/h
2282 20-08-2010 01:00:00 14.04 C 8.61 g/m*3 14.04 C 0 km/h
2283 20-08-2010 02:00:00 13.34 C 8.59 g/m*3 13.34 C 0 km/h
2284 20-08-2010 03:00:00 12.8 C 8.62 g/m*3 12.8 C 0 km/h
2285 20-08-2010 04:00:00 12.26 C 8.58 g/m*3 12.26 C 0 km/h
2286 20-08-2010 05:00:00 11.9 C 8.56 g/m*3 11.9 C 0 km/h
2287 20-08-2010 06:00:00 11.48 C 8.54 g/m*3 11.48 C 0 km/h
2288 20-08-2010 07:00:00 11.76 C 8.78 g/m*3 11.76 C 0 km/h
2289 20-08-2010 08:00:00 12.54 C 9.19 g/m*3 12.54 C 0 km/h
2290 20-08-2010 09:00:00 14.5 C 9.85 g/m*3 14.5 C 0 km/h
2291 20-08-2010 10:00:00 18.02 C 10.3 g/m*3 18.02 C 0 km/h
2292 20-08-2010 11:00:00 20.98 C 10.87 g/m*3 20.98 C 0 km/h
2293 20-08-2010 12:00:00 23.76 C 10.86 g/m*3 23.76 C 0 km/h
2294 20-08-2010 13:00:00 26.76 C 9.04 g/m*3 26.76 C 0 km/h
2295 20-08-2010 14:00:00 28.36 C 7.82 g/m*3 28.36 C 0 km/h
2296 20-08-2010 15:00:00 29.54 C 7.45 g/m*3 29.54 C 0 km/h
2297 20-08-2010 16:00:00 30.72 C 7.57 g/m*3 30.72 C 0 km/h
2298 20-08-2010 17:00:00 31.16 C 7.29 g/m*3 31.16 C 0 km/h
2299 20-08-2010 18:00:00 31.22 C 7.64 g/m*3 31.22 C 0 km/h
2300 20-08-2010 19:00:00 29.58 C 8.42 g/m*3 29.58 C 0 km/h
Sensor: Nr:Datum:Temp:Abs-Feuchte:Windchill:Wind:
Aussen-T/F 2301 20-08-2010 20:00:00 25.1 C 9.07 g/m*3 25.1 C 0 km/h
2302 20-08-2010 21:00:00 23.08 C 9.58 g/m*3 23.08 C 0 km/h
2303 20-08-2010 22:00:00 22.025 C 10.2 g/m*3 22.03 C 0 km/h
2304 20-08-2010 23:00:00 20.9 C 10.64 g/m*3 20.9 C 0 km/h
2305 21-08-2010 00:00:00 19.76 C 10.77 g/m*3 19.76 C 0 km/h
2306 21-08-2010 01:00:00 18.84 C 11.01 g/m*3 18.84 C 0 km/h
2307 21-08-2010 02:00:00 18.16 C 11.04 g/m*3 18.16 C 0 km/h
2308 21-08-2010 03:00:00 17.66 C 11.11 g/m*3 17.66 C 0 km/h
2309 21-08-2010 04:00:00 17.06 C 11.12 g/m*3 17.06 C 0 km/h
2310 21-08-2010 05:00:00 16.46 C 10.95 g/m*3 16.46 C 0 km/h
2311 21-08-2010 06:00:00 16.04 C 10.9 g/m*3 16.04 C 0 km/h
2312 21-08-2010 07:00:00 16 C 11.06 g/m*3 16 C 0 km/h
2313 21-08-2010 08:00:00 16.78 C 11.54 g/m*3 16.78 C 0 km/h
2314 21-08-2010 09:00:00 18.42 C 12.22 g/m*3 18.42 C 0 km/h
2315 21-08-2010 10:00:00 21.4 C 12.86 g/m*3 21.4 C 0 km/h
2316 21-08-2010 11:00:00 24.76 C 12.17 g/m*3 24.76 C 0 km/h
2317 21-08-2010 12:00:00 27.54 C 9.81 g/m*3 27.54 C 0 km/h
2318 21-08-2010 13:00:00 29.12 C 9.19 g/m*3 29.12 C 0 km/h
2319 21-08-2010 14:00:00 30.42 C 8.69 g/m*3 30.42 C 0 km/h
2320 21-08-2010 15:00:00 31.28 C 8.51 g/m*3 31.28 C 0 km/h
2321 21-08-2010 16:00:00 32.14 C 7.89 g/m*3 32.14 C 0 km/h
2322 21-08-2010 17:00:00 32.38 C 7.58 g/m*3 32.38 C 0 km/h
2323 21-08-2010 18:00:00 32.42 C 7.39 g/m*3 32.42 C 0 km/h
2324 21-08-2010 19:00:00 31.66 C 7.96 g/m*3 31.66 C 0 km/h
2325 21-08-2010 20:00:00 28.82 C 9.33 g/m*3 28.82 C 0 km/h
Sensor: Nr:Datum:Temp:Abs-Feuchte:Windchill:Wind:
Aussen-T/F 2326 21-08-2010 21:00:00 25.72 C 10.26 g/m*3 25.72 C 0 km/h
2327 21-08-2010 22:00:00 24.34 C 10.87 g/m*3 24.34 C 0 km/h
2328 21-08-2010 23:00:00 23.16 C 11.24 g/m*3 23.16 C 0 km/h
2329 22-08-2010 00:00:00 22 C 11.45 g/m*3 22 C 0 km/h
2330 22-08-2010 01:00:00 21.04 C 11.68 g/m*3 21.04 C 0 km/h
2331 22-08-2010 02:00:00 20.14 C 11.88 g/m*3 20.14 C 0 km/h
2332 22-08-2010 03:00:00 19.52 C 12.1 g/m*3 19.52 C 0 km/h
2333 22-08-2010 04:00:00 19.16 C 12.11 g/m*3 19.16 C 0 km/h
2334 22-08-2010 05:00:00 18.54 C 12.08 g/m*3 18.54 C 0 km/h
2335 22-08-2010 06:00:00 18 C 12.01 g/m*3 18 C 0 km/h
2336 22-08-2010 07:00:00 18.3 C 12.2 g/m*3 18.3 C 0 km/h
2337 22-08-2010 08:00:00 18.96 C 12.62 g/m*3 18.96 C 0 km/h
2338 22-08-2010 09:00:00 20.32 C 12.64 g/m*3 20.32 C 0 km/h
2339 22-08-2010 10:00:00 23.1 C 12.69 g/m*3 23.1 C 0 km/h
2340 22-08-2010 11:00:00 24.88 C 12.71 g/m*3 24.88 C 0 km/h
2341 22-08-2010 12:00:00 27.46 C 11.67 g/m*3 27.46 C 0 km/h
2342 22-08-2010 13:00:00 28.44 C 10.53 g/m*3 28.44 C 0 km/h
2343 22-08-2010 14:00:00 28.74 C 10.48 g/m*3 28.74 C 0 km/h
2344 22-08-2010 15:00:00 25.76 C 12.2 g/m*3 25.76 C 0 km/h
2345 22-08-2010 16:00:00 27.8 C 11.89 g/m*3 27.8 C 0 km/h
2346 22-08-2010 17:00:00 26.68 C 11.88 g/m*3 26.68 C 0 km/h
2347 22-08-2010 18:00:00 26.28 C 11.72 g/m*3 26.28 C 0 km/h
2348 22-08-2010 19:00:00 25.52 C 11.57 g/m*3 25.52 C 0 km/h
2349 22-08-2010 20:00:00 24.42 C 10.65 g/m*3 24.42 C 0 km/h
2350 22-08-2010 21:00:00 23.16 C 11.49 g/m*3 23.16 C 0 km/h
Sensor: Nr:Datum:Temp:Abs-Feuchte:Windchill:Wind:
Aussen-T/F 2351 22-08-2010 22:00:00 22.66 C 11.69 g/m*3 22.66 C 0 km/h
2352 22-08-2010 23:00:00 21.52 C 11.89 g/m*3 21.52 C 0 km/h
2353 23-08-2010 00:00:00 20.88 C 12.01 g/m*3 20.88 C 0 km/h
2354 23-08-2010 01:00:00 20.38 C 12.16 g/m*3 20.38 C 0 km/h
2355 23-08-2010 02:00:00 20.02 C 12.32 g/m*3 20.02 C 0 km/h
2356 23-08-2010 03:00:00 19.82 C 12.31 g/m*3 19.82 C 0 km/h
2357 23-08-2010 04:00:00 19.52 C 12.33 g/m*3 19.52 C 0 km/h
2358 23-08-2010 05:00:00 19.44 C 12.21 g/m*3 19.44 C 0 km/h
2359 23-08-2010 06:00:00 19.48 C 12.34 g/m*3 19.48 C 0 km/h
2360 23-08-2010 07:00:00 19.92 C 12.49 g/m*3 19.92 C 0 km/h
2361 23-08-2010 08:00:00 19.74 C 13.31 g/m*3 19.74 C 0 km/h
2362 23-08-2010 09:00:00 19.44 C 14.52 g/m*3 19.44 C 0 km/h
2363 23-08-2010 10:00:00 20.64 C 15.07 g/m*3 20.64 C 0 km/h
2364 23-08-2010 11:00:00 22.26 C 14.78 g/m*3 22.26 C 0 km/h
2365 23-08-2010 12:00:00 23.08 C 15.61 g/m*3 23.08 C 0 km/h
2366 23-08-2010 13:00:00 23.68 C 14.36 g/m*3 23.68 C 0 km/h
2367 23-08-2010 14:00:00 24.34 C 14.28 g/m*3 24.34 C 0 km/h
2368 23-08-2010 15:00:00 25.86 C 12.32 g/m*3 25.86 C 0 km/h
2369 23-08-2010 16:00:00 25.94 C 11.4 g/m*3 25.94 C 0 km/h
2370 23-08-2010 17:00:00 23.58 C 11.98 g/m*3 23.58 C 0 km/h
2371 23-08-2010 18:00:00 21.12 C 13.76 g/m*3 21.12 C 0 km/h
2372 23-08-2010 19:00:00 20.76 C 13.77 g/m*3 20.76 C 0 km/h
2373 23-08-2010 20:00:00 20.34 C 12.94 g/m*3 20.34 C 0 km/h
2374 23-08-2010 21:00:00 19.8 C 12.61 g/m*3 19.8 C 0 km/h
2375 23-08-2010 22:00:00 19.58 C 12.24 g/m*3 19.58 C 0 km/h
Sensor: Nr:Datum:Temp:Abs-Feuchte:Windchill:Wind:
Aussen-T/F 2376 23-08-2010 23:00:00 19.3 C 11.94 g/m*3 19.3 C 0 km/h
2377 24-08-2010 00:00:00 19.18 C 12.09 g/m*3 19.18 C 0 km/h
2378 24-08-2010 01:00:00 19.2 C 12.43 g/m*3 19.2 C 0 km/h
2379 24-08-2010 02:00:00 19.68 C 12.28 g/m*3 19.68 C 0 km/h
2380 24-08-2010 03:00:00 18.34 C 11.85 g/m*3 18.34 C 0 km/h
2381 24-08-2010 04:00:00 18.06 C 9.53 g/m*3 18.06 C 0 km/h
2382 24-08-2010 05:00:00 17.24 C 9.51 g/m*3 17.24 C 0 km/h
2383 24-08-2010 06:00:00 17.08 C 9.48 g/m*3 17.08 C 0 km/h
2384 24-08-2010 07:00:00 16.44 C 9.23 g/m*3 16.44 C 0 km/h
2385 24-08-2010 08:00:00 16.16 C 8.45 g/m*3 16.16 C 0 km/h
2386 24-08-2010 09:00:00 16.76 C 7.3 g/m*3 16.76 C 0 km/h
2387 24-08-2010 10:00:00 17.88 C 7.23 g/m*3 17.88 C 0 km/h
2388 24-08-2010 11:00:00 19.08 C 6.88 g/m*3 19.08 C 0 km/h
2389 24-08-2010 12:00:00 20.04 C 6.34 g/m*3 20.04 C 0 km/h
2390 24-08-2010 13:00:00 21 C 5.94 g/m*3 21 C 0 km/h
2391 24-08-2010 14:00:00 21.46 C 5.49 g/m*3 21.46 C 0 km/h
2392 24-08-2010 15:00:00 21.82 C 5.11 g/m*3 21.82 C 0 km/h
2393 24-08-2010 16:00:00 23.04 C 4.61 g/m*3 23.04 C 0 km/h
2394 24-08-2010 17:00:00 23.22 C 4.7 g/m*3 23.22 C 0 km/h
2395 24-08-2010 18:00:00 22.92 C 5.11 g/m*3 22.92 C 0 km/h
2396 24-08-2010 19:00:00 21.68 C 5.18 g/m*3 21.68 C 0 km/h
2397 24-08-2010 20:00:00 19.76 C 5.79 g/m*3 19.76 C 0 km/h
2398 24-08-2010 21:00:00 18.28 C 6.12 g/m*3 18.28 C 0 km/h
2399 24-08-2010 22:00:00 17.4 C 6.28 g/m*3 17.4 C 0 km/h
2400 24-08-2010 23:00:00 16.78 C 6.43 g/m*3 16.78 C 0 km/h
Sensor: Nr:Datum:Temp:Abs-Feuchte:Windchill:Wind:
Aussen-T/F 2401 25-08-2010 00:00:00 16.16 C 6.55 g/m*3 16.16 C 0 km/h
2402 25-08-2010 01:00:00 15.52 C 6.8 g/m*3 15.52 C 0 km/h
2403 25-08-2010 02:00:00 14.66 C 7.11 g/m*3 14.66 C 0 km/h
2404 25-08-2010 03:00:00 13.76 C 7.56 g/m*3 13.76 C 0 km/h
2405 25-08-2010 04:00:00 13.4 C 7.7 g/m*3 13.4 C 0 km/h
2406 25-08-2010 05:00:00 13.38 C 7.52 g/m*3 13.38 C 0 km/h
2407 25-08-2010 06:00:00 12.94 C 7.71 g/m*3 12.94 C 0 km/h
2408 25-08-2010 07:00:00 12.76 C 7.84 g/m*3 12.76 C 0 km/h
2409 25-08-2010 08:00:00 13.54 C 7.86 g/m*3 13.54 C 0 km/h
2410 25-08-2010 09:00:00 14.92 C 7.91 g/m*3 14.92 C 0 km/h
2411 25-08-2010 10:00:00 16.3 C 7.8 g/m*3 16.3 C 0 km/h
2412 25-08-2010 11:00:00 17.9 C 7.82 g/m*3 17.9 C 0 km/h
2413 25-08-2010 12:00:00 20 C 7.19 g/m*3 20 C 0 km/h
2414 25-08-2010 13:00:00 20.82 C 6.67 g/m*3 20.82 C 0 km/h
2415 25-08-2010 14:00:00 21.46 C 6.43 g/m*3 21.46 C 0 km/h
2416 25-08-2010 15:00:00 23.54 C 6.1 g/m*3 23.54 C 0 km/h
2417 25-08-2010 16:00:00 24.46 C 5.67 g/m*3 24.46 C 0 km/h
2418 25-08-2010 17:00:00 23.2 C 6.65 g/m*3 23.2 C 0 km/h
2419 25-08-2010 18:00:00 21.9 C 7.1 g/m*3 21.9 C 0 km/h
2420 25-08-2010 19:00:00 20.22 C 7.91 g/m*3 20.22 C 0 km/h
2421 25-08-2010 20:00:00 19.04 C 8.23 g/m*3 19.04 C 0 km/h
2422 25-08-2010 21:00:00 18.12 C 8.35 g/m*3 18.12 C 0 km/h
2423 25-08-2010 22:00:00 17.56 C 8.5 g/m*3 17.56 C 0 km/h
2424 25-08-2010 23:00:00 17.3 C 8.81 g/m*3 17.3 C 0 km/h
2425 26-08-2010 00:00:00 17.28 C 9.06 g/m*3 17.28 C 0 km/h
Sensor: Nr:Datum:Temp:Abs-Feuchte:Windchill:Wind:
Aussen-T/F 2426 26-08-2010 01:00:00 17.48 C 9.11 g/m*3 17.48 C 0 km/h
2427 26-08-2010 02:00:00 16.88 C 9.97 g/m*3 16.88 C 0 km/h
2428 26-08-2010 03:00:00 16.86 C 10.04 g/m*3 16.86 C 0 km/h
2429 26-08-2010 04:00:00 16.94 C 9.86 g/m*3 16.94 C 0 km/h
2430 26-08-2010 05:00:00 18.28 C 10.31 g/m*3 18.28 C 0 km/h
2431 26-08-2010 06:00:00 18.18 C 10.53 g/m*3 18.18 C 0 km/h
2432 26-08-2010 07:00:00 19.26 C 10.69 g/m*3 19.26 C 0 km/h
2433 26-08-2010 08:00:00 20.2 C 11.12 g/m*3 20.2 C 0 km/h
2434 26-08-2010 09:00:00 21.52 C 11.33 g/m*3 21.52 C 0 km/h
2435 26-08-2010 10:00:00 22.76 C 11.19 g/m*3 22.76 C 0 km/h
2436 26-08-2010 11:00:00 23.76 C 11.16 g/m*3 23.76 C 0 km/h
2437 26-08-2010 12:00:00 23.54 C 11.15 g/m*3 23.54 C 0 km/h
2438 26-08-2010 13:00:00 22.96 C 11.2 g/m*3 22.96 C 0 km/h
2439 26-08-2010 14:00:00 23.8 C 11.19 g/m*3 23.8 C 0 km/h
2440 26-08-2010 15:00:00 23.68 C 11.32 g/m*3 23.68 C 0 km/h
2441 26-08-2010 16:00:00 23.94 C 11.28 g/m*3 23.94 C 0 km/h
2442 26-08-2010 17:00:00 23.62 C 11.29 g/m*3 23.62 C 0 km/h
2443 26-08-2010 18:00:00 23.18 C 11.67 g/m*3 23.18 C 0 km/h
2444 26-08-2010 19:00:00 21.66 C 13.36 g/m*3 21.66 C 0 km/h
2445 26-08-2010 20:00:00 20.94 C 14.49 g/m*3 20.94 C 0 km/h
2446 26-08-2010 21:00:00 20.42 C 14.03 g/m*3 20.42 C 0 km/h
2447 26-08-2010 22:00:00 19.76 C 14.62 g/m*3 19.76 C 0 km/h
2448 26-08-2010 23:00:00 19.44 C 14.95 g/m*3 19.44 C 0 km/h
2449 27-08-2010 00:00:00 18.98 C 14.91 g/m*3 18.98 C 0 km/h
2450 27-08-2010 01:00:00 18.76 C 14.97 g/m*3 18.76 C 0 km/h
Sensor: Nr:Datum:Temp:Abs-Feuchte:Windchill:Wind:
Aussen-T/F 2451 27-08-2010 02:00:00 18.62 C 14.98 g/m*3 18.62 C 0 km/h
2452 27-08-2010 03:00:00 18.38 C 14.77 g/m*3 18.38 C 0 km/h
2453 27-08-2010 04:00:00 18.34 C 14.73 g/m*3 18.34 C 0 km/h
2454 27-08-2010 05:00:00 18.4 C 14.88 g/m*3 18.4 C 0 km/h
2455 27-08-2010 06:00:00 18.82 C 15.32 g/m*3 18.82 C 0 km/h
2456 27-08-2010 07:00:00 18.68 C 15.03 g/m*3 18.68 C 0 km/h
2457 27-08-2010 08:00:00 18.58 C 14.94 g/m*3 18.58 C 0 km/h
2458 27-08-2010 09:00:00 19.26 C 15.06 g/m*3 19.26 C 0 km/h
2459 27-08-2010 10:00:00 19.32 C 14.35 g/m*3 19.32 C 0 km/h
2460 27-08-2010 11:00:00 18.16 C 13.58 g/m*3 18.16 C 0 km/h
2461 27-08-2010 12:00:00 20.1 C 13.52 g/m*3 20.1 C 0 km/h
2462 27-08-2010 13:00:00 22.92 C 12.6 g/m*3 22.92 C 0 km/h
2463 27-08-2010 14:00:00 20.76 C 12.07 g/m*3 20.76 C 0 km/h
2464 27-08-2010 15:00:00 18.92 C 13.49 g/m*3 18.92 C 0 km/h
2465 27-08-2010 16:00:00 21.9 C 12.89 g/m*3 21.9 C 0 km/h
2466 27-08-2010 17:00:00 21.3 C 11.71 g/m*3 21.3 C 0 km/h
2467 27-08-2010 18:00:00 16.8 C 12.01 g/m*3 16.8 C 0 km/h
2468 27-08-2010 19:00:00 15.64 C 10.93 g/m*3 15.64 C 0 km/h
2469 27-08-2010 20:00:00 15.12 C 10.44 g/m*3 15.12 C 0 km/h
2470 27-08-2010 21:00:00 14.58 C 10.17 g/m*3 14.58 C 0 km/h
2471 27-08-2010 22:00:00 14.74 C 10.02 g/m*3 14.74 C 0 km/h
2472 27-08-2010 23:00:00 13.96 C 9.34 g/m*3 13.96 C 0 km/h
2473 28-08-2010 00:00:00 13.78 C 9.21 g/m*3 13.78 C 0 km/h
2474 28-08-2010 01:00:00 13.1 C 9.88 g/m*3 13.1 C 0 km/h
2475 28-08-2010 02:00:00 13.14 C 9.82 g/m*3 13.14 C 0 km/h
Sensor: Nr:Datum:Temp:Abs-Feuchte:Windchill:Wind:
Aussen-T/F 2476 28-08-2010 03:00:00 13.1 C 9.56 g/m*3 13.1 C 0 km/h
2477 28-08-2010 04:00:00 12.54 C 9.3 g/m*3 12.54 C 0 km/h
2478 28-08-2010 05:00:00 12.12 C 9.15 g/m*3 12.12 C 0 km/h
2479 28-08-2010 06:00:00 11.58 C 8.76 g/m*3 11.58 C 0 km/h
2480 28-08-2010 07:00:00 11.72 C 8.88 g/m*3 11.72 C 0 km/h
2481 28-08-2010 08:00:00 13.08 C 8.94 g/m*3 13.08 C 0 km/h
2482 28-08-2010 09:00:00 14.22 C 8.58 g/m*3 14.22 C 0 km/h
2483 28-08-2010 10:00:00 15.14 C 8.35 g/m*3 15.14 C 0 km/h
2484 28-08-2010 11:00:00 16.44 C 7.81 g/m*3 16.44 C 0 km/h
2485 28-08-2010 12:00:00 15.42 C 8.71 g/m*3 15.42 C 0 km/h
2486 28-08-2010 13:00:00 16.24 C 10.62 g/m*3 16.24 C 0 km/h
2487 28-08-2010 14:00:00 15.6 C 7.69 g/m*3 15.6 C 0 km/h
2488 28-08-2010 15:00:00 16.72 C 7.46 g/m*3 16.72 C 0 km/h
2489 28-08-2010 16:00:00 15.1 C 8.08 g/m*3 15.1 C 0 km/h
2490 28-08-2010 17:00:00 15.6 C 8.67 g/m*3 15.6 C 0 km/h
2491 28-08-2010 18:00:00 17.56 C 7.42 g/m*3 17.56 C 0 km/h
2492 28-08-2010 19:00:00 15.26 C 8.34 g/m*3 15.26 C 0 km/h
2493 28-08-2010 20:00:00 13.1 C 9.04 g/m*3 13.1 C 0 km/h
2494 28-08-2010 21:00:00 12.46 C 9.12 g/m*3 12.46 C 0 km/h
2495 28-08-2010 22:00:00 12.24 C 8.96 g/m*3 12.24 C 0 km/h
2496 28-08-2010 23:00:00 12.36 C 8.72 g/m*3 12.36 C 0 km/h
2497 29-08-2010 00:00:00 11.9 C 8.47 g/m*3 11.9 C 0 km/h
2498 29-08-2010 01:00:00 11.5 C 8.45 g/m*3 11.5 C 0 km/h
2499 29-08-2010 02:00:00 11.74 C 8.54 g/m*3 11.74 C 0 km/h
2500 29-08-2010 03:00:00 11.76 C 8.48 g/m*3 11.76 C 0 km/h
Sensor: Nr:Datum:Temp:Abs-Feuchte:Windchill:Wind:
Aussen-T/F 2501 29-08-2010 04:00:00 11.5 C 8.39 g/m*3 11.5 C 0 km/h
2502 29-08-2010 05:00:00 11.74 C 8.33 g/m*3 11.74 C 0 km/h
2503 29-08-2010 06:00:00 12.1 C 8.3 g/m*3 12.1 C 0 km/h
2504 29-08-2010 07:00:00 12.2 C 8.33 g/m*3 12.2 C 0 km/h
2505 29-08-2010 08:00:00 12.44 C 8.35 g/m*3 12.44 C 0 km/h
2506 29-08-2010 09:00:00 14 C 8.18 g/m*3 14 C 0 km/h
2507 29-08-2010 10:00:00 15.4 C 8.04 g/m*3 15.4 C 0 km/h
2508 29-08-2010 11:00:00 16.26 C 7.92 g/m*3 16.26 C 0 km/h
2509 29-08-2010 12:00:00 15.12 C 9.04 g/m*3 15.12 C 0 km/h
2510 29-08-2010 13:00:00 16.04 C 8.71 g/m*3 16.04 C 0 km/h
2511 29-08-2010 14:00:00 16.46 C 8.4 g/m*3 16.46 C 0 km/h
2512 29-08-2010 15:00:00 15.08 C 8.92 g/m*3 15.08 C 0 km/h
2513 29-08-2010 16:00:00 15.76 C 8.51 g/m*3 15.76 C 0 km/h
2514 29-08-2010 17:00:00 14.96 C 8.31 g/m*3 14.96 C 0 km/h
2515 29-08-2010 18:00:00 13.06 C 9.31 g/m*3 13.06 C 0 km/h
2516 29-08-2010 19:00:00 12 C 9.29 g/m*3 12 C 0 km/h
2517 29-08-2010 20:00:00 11.78 C 8.96 g/m*3 11.78 C 0 km/h
2518 29-08-2010 21:00:00 11.64 C 8.71 g/m*3 11.64 C 0 km/h
2519 29-08-2010 22:00:00 9.2 C 8.02 g/m*3 9.2 C 0 km/h
2520 29-08-2010 23:00:00 9.12 C 8.16 g/m*3 9.12 C 0 km/h
2521 30-08-2010 00:00:00 9.2 C 7.98 g/m*3 9.2 C 0 km/h
2522 30-08-2010 01:00:00 9.94 C 7.84 g/m*3 9.94 C 0 km/h
2523 30-08-2010 02:00:00 10.52 C 7.77 g/m*3 10.52 C 0 km/h
2524 30-08-2010 03:00:00 10.82 C 7.66 g/m*3 10.82 C 0 km/h
2525 30-08-2010 04:00:00 10.26 C 7.99 g/m*3 10.26 C 0 km/h
Sensor: Nr:Datum:Temp:Abs-Feuchte:Windchill:Wind:
Aussen-T/F 2526 30-08-2010 05:00:00 9.62 C 8.02 g/m*3 9.62 C 0 km/h
2527 30-08-2010 06:00:00 10.06 C 8.47 g/m*3 10.06 C 0 km/h
2528 30-08-2010 07:00:00 9.96 C 8.4 g/m*3 9.96 C 0 km/h
2529 30-08-2010 08:00:00 10.82 C 8.63 g/m*3 10.82 C 0 km/h
2530 30-08-2010 09:00:00 10.98 C 8.64 g/m*3 10.98 C 0 km/h
2531 30-08-2010 10:00:00 11.86 C 8.83 g/m*3 11.86 C 0 km/h
2532 30-08-2010 11:00:00 13 C 8.32 g/m*3 13 C 0 km/h
2533 30-08-2010 12:00:00 14.02 C 7.63 g/m*3 14.02 C 0 km/h
2534 30-08-2010 13:00:00 16.04 C 6.77 g/m*3 16.04 C 0 km/h
2535 30-08-2010 14:00:00 16.28 C 7.73 g/m*3 16.28 C 0 km/h
2536 30-08-2010 15:00:00 17.48 C 7.8 g/m*3 17.48 C 0 km/h
2537 30-08-2010 16:00:00 15.86 C 9.16 g/m*3 15.86 C 0 km/h
2538 30-08-2010 17:00:00 15.04 C 9.23 g/m*3 15.04 C 0 km/h
2539 30-08-2010 18:00:00 14.32 C 8.76 g/m*3 14.32 C 0 km/h
2540 30-08-2010 19:00:00 14.04 C 8.97 g/m*3 14.04 C 0 km/h
2541 30-08-2010 20:00:00 13.76 C 8.72 g/m*3 13.76 C 0 km/h
2542 30-08-2010 21:00:00 12.72 C 9.56 g/m*3 12.72 C 0 km/h
2543 30-08-2010 22:00:00 12.72 C 9.92 g/m*3 12.72 C 0 km/h
2544 30-08-2010 23:00:00 12.3 C 9.69 g/m*3 12.3 C 0 km/h
2545 31-08-2010 00:00:00 12.22 C 9.62 g/m*3 12.22 C 0 km/h
2546 31-08-2010 01:00:00 12.42 C 9.45 g/m*3 12.42 C 0 km/h
2547 31-08-2010 02:00:00 12.36 C 9.31 g/m*3 12.36 C 0 km/h
2548 31-08-2010 03:00:00 12.1 C 9.07 g/m*3 12.1 C 0 km/h
2549 31-08-2010 04:00:00 11.52 C 9.06 g/m*3 11.52 C 0 km/h
2550 31-08-2010 05:00:00 11.38 C 9.04 g/m*3 11.38 C 0 km/h
Sensor: Nr:Datum:Temp:Abs-Feuchte:Windchill:Wind:
Aussen-T/F 2551 31-08-2010 06:00:00 11.7 C 9.22 g/m*3 11.7 C 0 km/h
2552 31-08-2010 07:00:00 12.2 C 9.09 g/m*3 12.2 C 0 km/h
2553 31-08-2010 08:00:00 12.64 C 9.07 g/m*3 12.64 C 0 km/h
2554 31-08-2010 09:00:00 13.58 C 8.86 g/m*3 13.58 C 0 km/h
2555 31-08-2010 10:00:00 14.14 C 8.35 g/m*3 14.14 C 0 km/h
2556 31-08-2010 11:00:00 15.6 C 8.09 g/m*3 15.6 C 0 km/h
2557 31-08-2010 12:00:00 16.88 C 7.93 g/m*3 16.88 C 0 km/h
2558 31-08-2010 13:00:00 17.96 C 6.99 g/m*3 17.96 C 0 km/h
2559 31-08-2010 14:00:00 20.16 C 6.45 g/m*3 20.16 C 0 km/h
2560 31-08-2010 15:00:00 21.2 C 5.86 g/m*3 21.2 C 0 km/h
2561 31-08-2010 16:00:00 21.46 C 5.64 g/m*3 21.46 C 0 km/h
2562 31-08-2010 17:00:00 21.82 C 5.57 g/m*3 21.82 C 0 km/h
2563 31-08-2010 18:00:00 22.26 C 5.67 g/m*3 22.26 C 0 km/h
2564 31-08-2010 19:00:00 20.32 C 6.55 g/m*3 20.32 C 0 km/h
2565 31-08-2010 20:00:00 16.38 C 7.17 g/m*3 16.38 C 0 km/h
2566 31-08-2010 21:00:00 14.44 C 7.61 g/m*3 14.44 C 0 km/h
2567 31-08-2010 22:00:00 13.24 C 8.1 g/m*3 13.24 C 0 km/h
2568 31-08-2010 23:00:00 12.32 C 8.09 g/m*3 12.32 C 0 km/h
2569 01-09-2010 00:00:00 11.58 C 8.08 g/m*3 11.58 C 0 km/h
2570 01-09-2010 01:00:00 10.98 C 8.1 g/m*3 10.98 C 0 km/h
2571 01-09-2010 02:00:00 10.36 C 7.96 g/m*3 10.36 C 0 km/h
2572 01-09-2010 03:00:00 9.74 C 7.97 g/m*3 9.74 C 0 km/h
2573 01-09-2010 04:00:00 9.14 C 7.86 g/m*3 9.14 C 0 km/h
2574 01-09-2010 05:00:00 8.92 C 7.95 g/m*3 8.92 C 0 km/h
2575 01-09-2010 06:00:00 8.94 C 8.04 g/m*3 8.94 C 0 km/h
Sensor: Nr:Datum:Temp:Abs-Feuchte:Windchill:Wind:
Aussen-T/F 2576 01-09-2010 07:00:00 9.02 C 7.98 g/m*3 9.02 C 0 km/h
2577 01-09-2010 08:00:00 9.26 C 8.05 g/m*3 9.26 C 0 km/h
2578 01-09-2010 09:00:00 10.22 C 8.14 g/m*3 10.22 C 0 km/h
2579 01-09-2010 10:00:00 12.1 C 8.56 g/m*3 12.1 C 0 km/h
2580 01-09-2010 11:00:00 14.26 C 8.78 g/m*3 14.26 C 0 km/h
2581 01-09-2010 12:00:00 17.24 C 8.54 g/m*3 17.24 C 0 km/h
2582 01-09-2010 13:00:00 19.52 C 7.96 g/m*3 19.52 C 0 km/h
2583 01-09-2010 14:00:00 21.18 C 7.03 g/m*3 21.18 C 0 km/h
2584 01-09-2010 15:00:00 23.6 C 6 g/m*3 23.6 C 0 km/h
2585 01-09-2010 16:00:00 23.8 C 6.02 g/m*3 23.8 C 0 km/h
2586 01-09-2010 17:00:00 22.04 C 6.38 g/m*3 22.04 C 0 km/h
2587 01-09-2010 18:00:00 21.1 C 6.96 g/m*3 21.1 C 0 km/h
2588 01-09-2010 19:00:00 19.62 C 7.88 g/m*3 19.62 C 0 km/h
2589 01-09-2010 20:00:00 17.36 C 8.72 g/m*3 17.36 C 0 km/h
2590 01-09-2010 21:00:00 16.24 C 8.85 g/m*3 16.24 C 0 km/h
2591 01-09-2010 22:00:00 15.55 C 8.82 g/m*3 15.55 C 0 km/h
2592 01-09-2010 23:00:00 14.16 C 8.28 g/m*3 14.16 C 0 km/h
2593 02-09-2010 00:00:00 13.02 C 8.22 g/m*3 13.02 C 0 km/h
2594 02-09-2010 01:00:00 12.32 C 8.37 g/m*3 12.32 C 0 km/h
2595 02-09-2010 02:00:00 11.6 C 8.56 g/m*3 11.6 C 0 km/h
2596 02-09-2010 03:00:00 11 C 8.31 g/m*3 11 C 0 km/h
2597 02-09-2010 04:00:00 10.44 C 8.29 g/m*3 10.44 C 0 km/h
2598 02-09-2010 05:00:00 10.32 C 8.5 g/m*3 10.32 C 0 km/h
2599 02-09-2010 06:00:00 10.34 C 8.6 g/m*3 10.34 C 0 km/h
2600 02-09-2010 07:00:00 10.68 C 8.81 g/m*3 10.68 C 0 km/h
Sensor: Nr:Datum:Temp:Abs-Feuchte:Windchill:Wind:
Aussen-T/F 2601 02-09-2010 08:00:00 11.34 C 8.96 g/m*3 11.34 C 0 km/h
2602 02-09-2010 09:00:00 12.4 C 8.98 g/m*3 12.4 C 0 km/h
2603 02-09-2010 10:00:00 14.02 C 8.65 g/m*3 14.02 C 0 km/h
2604 02-09-2010 11:00:00 15.46 C 9.02 g/m*3 15.46 C 0 km/h
2605 02-09-2010 12:00:00 18.66 C 8.75 g/m*3 18.66 C 0 km/h
2606 02-09-2010 13:00:00 20.84 C 7.37 g/m*3 20.84 C 0 km/h
2607 02-09-2010 14:00:00 22.2 C 7.22 g/m*3 22.2 C 0 km/h
2608 02-09-2010 15:00:00 21.42 C 6.91 g/m*3 21.42 C 0 km/h
2609 02-09-2010 16:00:00 20.6 C 6.91 g/m*3 20.6 C 0 km/h
2610 02-09-2010 17:00:00 19.54 C 7.13 g/m*3 19.54 C 0 km/h
2611 02-09-2010 18:00:00 18.66 C 7.41 g/m*3 18.66 C 0 km/h
2612 02-09-2010 19:00:00 17.64 C 8.93 g/m*3 17.64 C 0 km/h
2613 02-09-2010 20:00:00 15.14 C 10.01 g/m*3 15.14 C 0 km/h
2614 02-09-2010 21:00:00 14.42 C 9.85 g/m*3 14.42 C 0 km/h
2615 02-09-2010 22:00:00 13.84 C 9.34 g/m*3 13.84 C 0 km/h
2616 02-09-2010 23:00:00 12.98 C 9.2 g/m*3 12.98 C 0 km/h
2617 03-09-2010 00:00:00 12.42 C 9.1 g/m*3 12.42 C 0 km/h
2618 03-09-2010 01:00:00 11.82 C 8.92 g/m*3 11.82 C 0 km/h
2619 03-09-2010 02:00:00 11.24 C 8.76 g/m*3 11.24 C 0 km/h
2620 03-09-2010 03:00:00 10.72 C 8.63 g/m*3 10.72 C 0 km/h
2621 03-09-2010 04:00:00 10.34 C 8.6 g/m*3 10.34 C 0 km/h
2622 03-09-2010 05:00:00 10.4 C 8.75 g/m*3 10.4 C 0 km/h
2623 03-09-2010 06:00:00 11.08 C 9.24 g/m*3 11.08 C 0 km/h
2624 03-09-2010 07:00:00 11.36 C 9.32 g/m*3 11.36 C 0 km/h
2625 03-09-2010 08:00:00 11.64 C 9.34 g/m*3 11.64 C 0 km/h
Sensor: Nr:Datum:Temp:Abs-Feuchte:Windchill:Wind:
Aussen-T/F 2626 03-09-2010 09:00:00 12.44 C 9.29 g/m*3 12.44 C 0 km/h
2627 03-09-2010 10:00:00 13.58 C 9.22 g/m*3 13.58 C 0 km/h
2628 03-09-2010 11:00:00 15.9 C 8.94 g/m*3 15.9 C 0 km/h
2629 03-09-2010 12:00:00 17.86 C 8.47 g/m*3 17.86 C 0 km/h
2630 03-09-2010 13:00:00 19.68 C 8.18 g/m*3 19.68 C 0 km/h
2631 03-09-2010 14:00:00 20.4 C 7.64 g/m*3 20.4 C 0 km/h
2632 03-09-2010 15:00:00 22.78 C 7.02 g/m*3 22.78 C 0 km/h
2633 03-09-2010 16:00:00 25.12 C 6.58 g/m*3 25.12 C 0 km/h
2634 03-09-2010 17:00:00 24.12 C 6.53 g/m*3 24.12 C 0 km/h
2635 03-09-2010 18:00:00 22.7 C 8.12 g/m*3 22.7 C 0 km/h
2636 03-09-2010 19:00:00 20.7 C 8.86 g/m*3 20.7 C 0 km/h
2637 03-09-2010 20:00:00 18.62 C 8.25 g/m*3 18.62 C 0 km/h
2638 03-09-2010 21:00:00 16.32 C 8.56 g/m*3 16.32 C 0 km/h
2639 03-09-2010 22:00:00 15.36 C 8.86 g/m*3 15.36 C 0 km/h
2640 03-09-2010 23:00:00 15.34 C 9.22 g/m*3 15.34 C 0 km/h
2641 04-09-2010 00:00:00 15.1 C 9.29 g/m*3 15.1 C 0 km/h
2642 04-09-2010 01:00:00 14.82 C 9.41 g/m*3 14.82 C 0 km/h
2643 04-09-2010 02:00:00 14.28 C 9.4 g/m*3 14.28 C 0 km/h
2644 04-09-2010 03:00:00 13.72 C 9.41 g/m*3 13.72 C 0 km/h
2645 04-09-2010 04:00:00 13.2 C 9.48 g/m*3 13.2 C 0 km/h
2646 04-09-2010 05:00:00 13.1 C 9.59 g/m*3 13.1 C 0 km/h
2647 04-09-2010 06:00:00 12.54 C 9.3 g/m*3 12.54 C 0 km/h
2648 04-09-2010 07:00:00 12.08 C 9.25 g/m*3 12.08 C 0 km/h
2649 04-09-2010 08:00:00 12.8 C 9.77 g/m*3 12.8 C 0 km/h
2650 04-09-2010 09:00:00 14.44 C 9.96 g/m*3 14.44 C 0 km/h
Sensor: Nr:Datum:Temp:Abs-Feuchte:Windchill:Wind:
Aussen-T/F 2651 04-09-2010 10:00:00 16.3 C 9.49 g/m*3 16.3 C 0 km/h
2652 04-09-2010 11:00:00 18.88 C 8.77 g/m*3 18.88 C 0 km/h
2653 04-09-2010 12:00:00 18.86 C 7.89 g/m*3 18.86 C 0 km/h
2654 04-09-2010 13:00:00 19.58 C 7.62 g/m*3 19.58 C 0 km/h
2655 04-09-2010 14:00:00 22.2 C 6.71 g/m*3 22.2 C 0 km/h
2656 04-09-2010 15:00:00 22.88 C 6.29 g/m*3 22.88 C 0 km/h
2657 04-09-2010 16:00:00 22.42 C 5.53 g/m*3 22.42 C 0 km/h
2658 04-09-2010 17:00:00 23.12 C 4.88 g/m*3 23.12 C 0 km/h
2659 04-09-2010 18:00:00 22.74 C 4.37 g/m*3 22.74 C 0 km/h
2660 04-09-2010 19:00:00 19.74 C 5.55 g/m*3 19.74 C 0 km/h
2661 04-09-2010 20:00:00 16.14 C 6.54 g/m*3 16.14 C 0 km/h
2662 04-09-2010 21:00:00 14.92 C 6.94 g/m*3 14.92 C 0 km/h
2663 04-09-2010 22:00:00 14.16 C 7.26 g/m*3 14.16 C 0 km/h
2664 04-09-2010 23:00:00 13.12 C 7.59 g/m*3 13.12 C 0 km/h
2665 05-09-2010 00:00:00 12.16 C 7.62 g/m*3 12.16 C 0 km/h
2666 05-09-2010 01:00:00 11.22 C 7.53 g/m*3 11.22 C 0 km/h
2667 05-09-2010 02:00:00 10.44 C 7.52 g/m*3 10.44 C 0 km/h
2668 05-09-2010 03:00:00 9.72 C 7.4 g/m*3 9.72 C 0 km/h
2669 05-09-2010 04:00:00 9.12 C 7.27 g/m*3 9.12 C 0 km/h
2670 05-09-2010 05:00:00 8.64 C 7.27 g/m*3 8.64 C 0 km/h
2671 05-09-2010 06:00:00 8.08 C 7.25 g/m*3 8.08 C 0 km/h
2672 05-09-2010 07:00:00 8.4 C 7.52 g/m*3 8.4 C 0 km/h
2673 05-09-2010 08:00:00 9.82 C 7.91 g/m*3 9.82 C 0 km/h
2674 05-09-2010 09:00:00 11.1 C 7.88 g/m*3 11.1 C 0 km/h
2675 05-09-2010 10:00:00 12.36 C 8.44 g/m*3 12.36 C 0 km/h
Sensor: Nr:Datum:Temp:Abs-Feuchte:Windchill:Wind:
Aussen-T/F 2676 05-09-2010 11:00:00 15.42 C 8.16 g/m*3 15.42 C 0 km/h
2677 05-09-2010 12:00:00 18.02 C 6.52 g/m*3 18.02 C 0 km/h
2678 05-09-2010 13:00:00 20.14 C 5.92 g/m*3 20.14 C 0 km/h
2679 05-09-2010 14:00:00 23.5 C 5.2 g/m*3 23.5 C 0 km/h
2680 05-09-2010 15:00:00 24.16 C 4.83 g/m*3 24.16 C 0 km/h
2681 05-09-2010 16:00:00 24.4 C 4.67 g/m*3 24.4 C 0 km/h
2682 05-09-2010 17:00:00 24.6 C 5.04 g/m*3 24.6 C 0 km/h
2683 05-09-2010 18:00:00 24.84 C 5.29 g/m*3 24.84 C 0 km/h
2684 05-09-2010 19:00:00 19.38 C 6.4 g/m*3 19.38 C 0 km/h
2685 05-09-2010 20:00:00 16.44 C 6.38 g/m*3 16.44 C 0 km/h
2686 05-09-2010 21:00:00 14.9 C 6.81 g/m*3 14.9 C 0 km/h
2687 05-09-2010 22:00:00 14.12 C 7.1 g/m*3 14.12 C 0 km/h
2688 05-09-2010 23:00:00 13.94 C 6.92 g/m*3 13.94 C 0 km/h
2689 06-09-2010 00:00:00 13.22 C 7.08 g/m*3 13.22 C 0 km/h
2690 06-09-2010 01:00:00 12.36 C 7.11 g/m*3 12.36 C 0 km/h
2691 06-09-2010 02:00:00 11.62 C 7.2 g/m*3 11.62 C 0 km/h
2692 06-09-2010 03:00:00 11.1 C 7.15 g/m*3 11.1 C 0 km/h
2693 06-09-2010 04:00:00 10.7 C 7.09 g/m*3 10.7 C 0 km/h
2694 06-09-2010 05:00:00 10.24 C 7.02 g/m*3 10.24 C 0 km/h
2695 06-09-2010 06:00:00 9.56 C 7 g/m*3 9.56 C 0 km/h
2696 06-09-2010 07:00:00 9.28 C 7.07 g/m*3 9.28 C 0 km/h
2697 06-09-2010 08:00:00 9.68 C 7.22 g/m*3 9.68 C 0 km/h
2698 06-09-2010 09:00:00 10.94 C 7.52 g/m*3 10.94 C 0 km/h
2699 06-09-2010 10:00:00 13.48 C 7.52 g/m*3 13.48 C 0 km/h
2700 06-09-2010 11:00:00 16.32 C 7.14 g/m*3 16.32 C 0 km/h
Sensor: Nr:Datum:Temp:Abs-Feuchte:Windchill:Wind:
Aussen-T/F 2701 06-09-2010 12:00:00 18.64 C 5.58 g/m*3 18.64 C 0 km/h
2702 06-09-2010 13:00:00 20.24 C 5.4 g/m*3 20.24 C 0 km/h
2703 06-09-2010 14:00:00 22.34 C 4.51 g/m*3 22.34 C 0 km/h
2704 06-09-2010 15:00:00 24 C 4.35 g/m*3 24 C 0 km/h
2705 06-09-2010 16:00:00 23.88 C 4.32 g/m*3 23.88 C 0 km/h
2706 06-09-2010 17:00:00 24.42 C 4.46 g/m*3 24.42 C 0 km/h
2707 06-09-2010 18:00:00 21.44 C 5.34 g/m*3 21.44 C 0 km/h
2708 06-09-2010 19:00:00 18.72 C 5.87 g/m*3 18.72 C 0 km/h
2709 06-09-2010 20:00:00 17.1 C 5.62 g/m*3 17.1 C 0 km/h
2710 06-09-2010 21:00:00 16.22 C 5.44 g/m*3 16.22 C 0 km/h
2711 06-09-2010 22:00:00 15.5 C 5.6 g/m*3 15.5 C 0 km/h
2712 06-09-2010 23:00:00 15.2 C 5.63 g/m*3 15.2 C 0 km/h
2713 07-09-2010 00:00:00 15.38 C 5.51 g/m*3 15.38 C 0 km/h
2714 07-09-2010 01:00:00 15.42 C 5.39 g/m*3 15.42 C 0 km/h
2715 07-09-2010 02:00:00 15.46 C 5.38 g/m*3 15.46 C 0 km/h
2716 07-09-2010 03:00:00 14.34 C 6.03 g/m*3 14.34 C 0 km/h
2717 07-09-2010 04:00:00 13.06 C 7.01 g/m*3 13.06 C 0 km/h
2718 07-09-2010 05:00:00 12.98 C 7.11 g/m*3 12.98 C 0 km/h
2719 07-09-2010 06:00:00 12.5 C 7.04 g/m*3 12.5 C 0 km/h
2720 07-09-2010 07:00:00 12.12 C 7.09 g/m*3 12.12 C 0 km/h
2721 07-09-2010 08:00:00 11.56 C 8.11 g/m*3 11.56 C 0 km/h
2722 07-09-2010 09:00:00 11.46 C 8.41 g/m*3 11.46 C 0 km/h
2723 07-09-2010 10:00:00 11.46 C 8.88 g/m*3 11.46 C 0 km/h
2724 07-09-2010 11:00:00 11.64 C 9.21 g/m*3 11.64 C 0 km/h
2725 07-09-2010 12:00:00 12.42 C 9.5 g/m*3 12.42 C 0 km/h
Sensor: Nr:Datum:Temp:Abs-Feuchte:Windchill:Wind:
Aussen-T/F 2726 07-09-2010 13:00:00 12.78 C 9.31 g/m*3 12.78 C 0 km/h
2727 07-09-2010 14:00:00 13.36 C 9.37 g/m*3 13.36 C 0 km/h
2728 07-09-2010 15:00:00 14.58 C 9.12 g/m*3 14.58 C 0 km/h
2729 07-09-2010 16:00:00 15.52 C 9.11 g/m*3 15.52 C 0 km/h
2730 07-09-2010 17:00:00 14.88 C 9.06 g/m*3 14.88 C 0 km/h
2731 07-09-2010 18:00:00 13.98 C 9.08 g/m*3 13.98 C 0 km/h
2732 07-09-2010 19:00:00 13.78 C 9.38 g/m*3 13.78 C 0 km/h
2733 07-09-2010 20:00:00 13.24 C 9.55 g/m*3 13.24 C 0 km/h
2734 07-09-2010 21:00:00 12.96 C 9.89 g/m*3 12.96 C 0 km/h
2735 07-09-2010 22:00:00 12.86 C 10.03 g/m*3 12.86 C 0 km/h
2736 07-09-2010 23:00:00 12.92 C 10.16 g/m*3 12.92 C 0 km/h
2737 08-09-2010 00:00:00 12.88 C 10.24 g/m*3 12.88 C 0 km/h
2738 08-09-2010 01:00:00 13 C 10.37 g/m*3 13 C 0 km/h
2739 08-09-2010 02:00:00 13.2 C 10.61 g/m*3 13.2 C 0 km/h
2740 08-09-2010 03:00:00 13.56 C 10.92 g/m*3 13.56 C 0 km/h
2741 08-09-2010 04:00:00 13.56 C 10.92 g/m*3 13.56 C 0 km/h
2742 08-09-2010 05:00:00 14.16 C 11.4 g/m*3 14.16 C 0 km/h
2743 08-09-2010 06:00:00 14.36 C 11.44 g/m*3 14.36 C 0 km/h
2744 08-09-2010 07:00:00 14.22 C 11.25 g/m*3 14.22 C 0 km/h
2745 08-09-2010 08:00:00 14.22 C 11.25 g/m*3 14.22 C 0 km/h
2746 08-09-2010 09:00:00 15.22 C 11.62 g/m*3 15.22 C 0 km/h
2747 08-09-2010 10:00:00 15.52 C 11.41 g/m*3 15.52 C 0 km/h
2748 08-09-2010 11:00:00 15.24 C 11.03 g/m*3 15.24 C 0 km/h
2749 08-09-2010 12:00:00 14.74 C 11.26 g/m*3 14.74 C 0 km/h
2750 08-09-2010 13:00:00 16.22 C 12.12 g/m*3 16.22 C 0 km/h
Sensor: Nr:Datum:Temp:Abs-Feuchte:Windchill:Wind:
Aussen-T/F 2751 08-09-2010 14:00:00 17.58 C 11.56 g/m*3 17.58 C 0 km/h
2752 08-09-2010 15:00:00 17.94 C 11.17 g/m*3 17.94 C 0 km/h
2753 08-09-2010 16:00:00 18.54 C 10.69 g/m*3 18.54 C 0 km/h
2754 08-09-2010 17:00:00 19.88 C 10.23 g/m*3 19.88 C 0 km/h
2755 08-09-2010 18:00:00 19.06 C 10.24 g/m*3 19.06 C 0 km/h
2756 08-09-2010 19:00:00 18.2 C 10.54 g/m*3 18.2 C 0 km/h
2757 08-09-2010 20:00:00 16.8 C 10.52 g/m*3 16.8 C 0 km/h
2758 08-09-2010 21:00:00 15.72 C 9.7 g/m*3 15.72 C 0 km/h
2759 08-09-2010 22:00:00 14.78 C 9.79 g/m*3 14.78 C 0 km/h
2760 08-09-2010 23:00:00 14.48 C 10.01 g/m*3 14.48 C 0 km/h
2761 09-09-2010 00:00:00 14.38 C 10.2 g/m*3 14.38 C 0 km/h
2762 09-09-2010 01:00:00 15.04 C 10.08 g/m*3 15.04 C 0 km/h
2763 09-09-2010 02:00:00 15.14 C 9.93 g/m*3 15.14 C 0 km/h
2764 09-09-2010 03:00:00 15.32 C 9.78 g/m*3 15.32 C 0 km/h
2765 09-09-2010 04:00:00 15.22 C 9.33 g/m*3 15.22 C 0 km/h
2766 09-09-2010 05:00:00 14.9 C 9.02 g/m*3 14.9 C 0 km/h
2767 09-09-2010 06:00:00 14.78 C 8.88 g/m*3 14.78 C 0 km/h
2768 09-09-2010 07:00:00 14.58 C 9.07 g/m*3 14.58 C 0 km/h
2769 09-09-2010 08:00:00 14.8 C 9.1 g/m*3 14.8 C 0 km/h
2770 09-09-2010 09:00:00 15.26 C 9.09 g/m*3 15.26 C 0 km/h
2771 09-09-2010 10:00:00 16.76 C 9.1 g/m*3 16.76 C 0 km/h
2772 09-09-2010 11:00:00 17.78 C 8.88 g/m*3 17.78 C 0 km/h
2773 09-09-2010 12:00:00 18.64 C 8.17 g/m*3 18.64 C 0 km/h
2774 09-09-2010 13:00:00 18.8 C 8.21 g/m*3 18.8 C 0 km/h
2775 09-09-2010 14:00:00 18.98 C 8.59 g/m*3 18.98 C 0 km/h
Sensor: Nr:Datum:Temp:Abs-Feuchte:Windchill:Wind:
Aussen-T/F 2776 09-09-2010 15:00:00 19.38 C 9.13 g/m*3 19.38 C 0 km/h
2777 09-09-2010 16:00:00 17.1 C 10.92 g/m*3 17.1 C 0 km/h
2778 09-09-2010 17:00:00 17.92 C 11.62 g/m*3 17.92 C 0 km/h
2779 09-09-2010 18:00:00 17.7 C 10.47 g/m*3 17.7 C 0 km/h
2780 09-09-2010 19:00:00 16.54 C 9.46 g/m*3 16.54 C 0 km/h
2781 09-09-2010 20:00:00 15.4 C 9.78 g/m*3 15.4 C 0 km/h
2782 09-09-2010 21:00:00 14.8 C 10.26 g/m*3 14.8 C 0 km/h
2783 09-09-2010 22:00:00 14.74 C 10.17 g/m*3 14.74 C 0 km/h
2784 09-09-2010 23:00:00 14.98 C 9.71 g/m*3 14.98 C 0 km/h
2785 10-09-2010 00:00:00 14.66 C 9.92 g/m*3 14.66 C 0 km/h
2786 10-09-2010 01:00:00 14 C 9.77 g/m*3 14 C 0 km/h
2787 10-09-2010 02:00:00 13.9 C 9.95 g/m*3 13.9 C 0 km/h
2788 10-09-2010 03:00:00 13.9 C 10.07 g/m*3 13.9 C 0 km/h
2789 10-09-2010 04:00:00 13.84 C 10.25 g/m*3 13.84 C 0 km/h
2790 10-09-2010 05:00:00 13.06 C 9.99 g/m*3 13.06 C 0 km/h
2791 10-09-2010 06:00:00 13.12 C 10.24 g/m*3 13.12 C 0 km/h
2792 10-09-2010 07:00:00 13.18 C 9.84 g/m*3 13.18 C 0 km/h
2793 10-09-2010 08:00:00 13.32 C 9.95 g/m*3 13.32 C 0 km/h
2794 10-09-2010 09:00:00 14.6 C 9.54 g/m*3 14.6 C 0 km/h
2795 10-09-2010 10:00:00 16.16 C 9.35 g/m*3 16.16 C 0 km/h
2796 10-09-2010 11:00:00 17.88 C 9.21 g/m*3 17.88 C 0 km/h
2797 10-09-2010 12:00:00 18.74 C 9.18 g/m*3 18.74 C 0 km/h
2798 10-09-2010 13:00:00 19.18 C 8.66 g/m*3 19.18 C 0 km/h
2799 10-09-2010 14:00:00 19.94 C 8.75 g/m*3 19.94 C 0 km/h
2800 10-09-2010 15:00:00 20.82 C 8.59 g/m*3 20.82 C 0 km/h
Sensor: Nr:Datum:Temp:Abs-Feuchte:Windchill:Wind:
Aussen-T/F 2801 10-09-2010 16:00:00 21.1 C 8.44 g/m*3 21.1 C 0 km/h
2802 10-09-2010 17:00:00 20.18 C 8.98 g/m*3 20.18 C 0 km/h
2803 10-09-2010 18:00:00 17.86 C 10.21 g/m*3 17.86 C 0 km/h
2804 10-09-2010 19:00:00 16.26 C 11.43 g/m*3 16.26 C 0 km/h
2805 10-09-2010 20:00:00 15.68 C 11.57 g/m*3 15.68 C 0 km/h
2806 10-09-2010 21:00:00 15.8 C 11.68 g/m*3 15.8 C 0 km/h
2807 10-09-2010 22:00:00 15.68 C 11.44 g/m*3 15.68 C 0 km/h
2808 10-09-2010 23:00:00 15.46 C 11.18 g/m*3 15.46 C 0 km/h
2809 11-09-2010 00:00:00 15.14 C 10.86 g/m*3 15.14 C 0 km/h
2810 11-09-2010 01:00:00 15 C 10.8 g/m*3 15 C 0 km/h
2811 11-09-2010 02:00:00 14.74 C 10.73 g/m*3 14.74 C 0 km/h
2812 11-09-2010 03:00:00 14.08 C 10.42 g/m*3 14.08 C 0 km/h
2813 11-09-2010 04:00:00 13.14 C 9.86 g/m*3 13.14 C 0 km/h
2814 11-09-2010 05:00:00 12.64 C 9.78 g/m*3 12.64 C 0 km/h
2815 11-09-2010 06:00:00 12.74 C 9.91 g/m*3 12.74 C 0 km/h
2816 11-09-2010 07:00:00 12.16 C 9.54 g/m*3 12.16 C 0 km/h
2817 11-09-2010 08:00:00 13.04 C 10.23 g/m*3 13.04 C 0 km/h
2818 11-09-2010 09:00:00 13.76 C 10.55 g/m*3 13.76 C 0 km/h
2819 11-09-2010 10:00:00 15.66 C 11.32 g/m*3 15.66 C 0 km/h
2820 11-09-2010 11:00:00 18.24 C 11.37 g/m*3 18.24 C 0 km/h
2821 11-09-2010 12:00:00 19.9 C 9.59 g/m*3 19.9 C 0 km/h
2822 11-09-2010 13:00:00 21.76 C 8.81 g/m*3 21.76 C 0 km/h
2823 11-09-2010 14:00:00 24.2 C 8.14 g/m*3 24.2 C 0 km/h
2824 11-09-2010 15:00:00 26.04 C 7.86 g/m*3 26.04 C 0 km/h
2825 11-09-2010 16:00:00 26.34 C 8.19 g/m*3 26.34 C 0 km/h
Sensor: Nr:Datum:Temp:Abs-Feuchte:Windchill:Wind:
Aussen-T/F 2826 11-09-2010 17:00:00 27.62 C 8.31 g/m*3 27.62 C 0 km/h
2827 11-09-2010 18:00:00 26.06 C 9.28 g/m*3 26.06 C 0 km/h
2828 11-09-2010 19:00:00 21.76 C 9.72 g/m*3 21.76 C 0 km/h
2829 11-09-2010 20:00:00 19.34 C 9.51 g/m*3 19.34 C 0 km/h
2830 11-09-2010 21:00:00 18.1 C 10.01 g/m*3 18.1 C 0 km/h
2831 11-09-2010 22:00:00 17.2 C 10.28 g/m*3 17.2 C 0 km/h
2832 11-09-2010 23:00:00 16.56 C 10.4 g/m*3 16.56 C 0 km/h
2833 12-09-2010 00:00:00 16.06 C 10.42 g/m*3 16.06 C 0 km/h
2834 12-09-2010 01:00:00 15.34 C 10.34 g/m*3 15.34 C 0 km/h
2835 12-09-2010 02:00:00 14.88 C 10.39 g/m*3 14.88 C 0 km/h
2836 12-09-2010 03:00:00 14.46 C 10.2 g/m*3 14.46 C 0 km/h
2837 12-09-2010 04:00:00 14.1 C 10.07 g/m*3 14.1 C 0 km/h
2838 12-09-2010 05:00:00 13.76 C 9.98 g/m*3 13.76 C 0 km/h
2839 12-09-2010 06:00:00 13.52 C 9.93 g/m*3 13.52 C 0 km/h
2840 12-09-2010 07:00:00 13.7 C 10.14 g/m*3 13.7 C 0 km/h
2841 12-09-2010 08:00:00 14.26 C 10.3 g/m*3 14.26 C 0 km/h
2842 12-09-2010 09:00:00 14.84 C 10.51 g/m*3 14.84 C 0 km/h
2843 12-09-2010 10:00:00 16.94 C 11.16 g/m*3 16.94 C 0 km/h
2844 12-09-2010 11:00:00 20.02 C 10.69 g/m*3 20.02 C 0 km/h
2845 12-09-2010 12:00:00 21.62 C 10.75 g/m*3 21.62 C 0 km/h
2846 12-09-2010 13:00:00 24.4 C 9.84 g/m*3 24.4 C 0 km/h
2847 12-09-2010 14:00:00 23.86 C 9.2 g/m*3 23.86 C 0 km/h
2848 12-09-2010 15:00:00 19.32 C 8.87 g/m*3 19.32 C 0 km/h
2849 12-09-2010 16:00:00 17.78 C 9.19 g/m*3 17.78 C 0 km/h
2850 12-09-2010 17:00:00 16.2 C 9.68 g/m*3 16.2 C 0 km/h
Sensor: Nr:Datum:Temp:Abs-Feuchte:Windchill:Wind:
Aussen-T/F 2851 12-09-2010 18:00:00 14.92 C 10.59 g/m*3 14.92 C 0 km/h
2852 12-09-2010 19:00:00 14.26 C 10.79 g/m*3 14.26 C 0 km/h
2853 12-09-2010 20:00:00 13.82 C 10.81 g/m*3 13.82 C 0 km/h
2854 12-09-2010 21:00:00 13.78 C 10.97 g/m*3 13.78 C 0 km/h
2855 12-09-2010 22:00:00 13.78 C 11.07 g/m*3 13.78 C 0 km/h
2856 12-09-2010 23:00:00 13.58 C 10.93 g/m*3 13.58 C 0 km/h
2857 13-09-2010 00:00:00 13.68 C 11 g/m*3 13.68 C 0 km/h
2858 13-09-2010 01:00:00 13.7 C 11.01 g/m*3 13.7 C 0 km/h
2859 13-09-2010 02:00:00 13.52 C 10.89 g/m*3 13.52 C 0 km/h
2860 13-09-2010 03:00:00 13.26 C 10.58 g/m*3 13.26 C 0 km/h
2861 13-09-2010 04:00:00 13 C 10.21 g/m*3 13 C 0 km/h
2862 13-09-2010 05:00:00 13.26 C 9.77 g/m*3 13.26 C 0 km/h
2863 13-09-2010 06:00:00 13.3 C 9.57 g/m*3 13.3 C 0 km/h
2864 13-09-2010 07:00:00 12.72 C 9.18 g/m*3 12.72 C 0 km/h
2865 13-09-2010 08:00:00 13.04 C 9.62 g/m*3 13.04 C 0 km/h
2866 13-09-2010 09:00:00 13.98 C 9.47 g/m*3 13.98 C 0 km/h
2867 13-09-2010 10:00:00 15.32 C 9.05 g/m*3 15.32 C 0 km/h
2868 13-09-2010 11:00:00 16.5 C 8.57 g/m*3 16.5 C 0 km/h
2869 13-09-2010 12:00:00 17.24 C 7.93 g/m*3 17.24 C 0 km/h
2870 13-09-2010 13:00:00 18.94 C 7.53 g/m*3 18.94 C 0 km/h
2871 13-09-2010 14:00:00 20.18 C 6.95 g/m*3 20.18 C 0 km/h
2872 13-09-2010 15:00:00 20.8 C 7.1 g/m*3 20.8 C 0 km/h
2873 13-09-2010 16:00:00 21.56 C 6.93 g/m*3 21.56 C 0 km/h
2874 13-09-2010 17:00:00 20.48 C 7.96 g/m*3 20.48 C 0 km/h
2875 13-09-2010 18:00:00 18.22 C 8.62 g/m*3 18.22 C 0 km/h
Sensor: Nr:Datum:Temp:Abs-Feuchte:Windchill:Wind:
Aussen-T/F 2876 13-09-2010 19:00:00 16.92 C 8.55 g/m*3 16.92 C 0 km/h
2877 13-09-2010 20:00:00 15.24 C 8.9 g/m*3 15.24 C 0 km/h
2878 13-09-2010 21:00:00 14.52 C 8.97 g/m*3 14.52 C 0 km/h
2879 13-09-2010 22:00:00 13.7 C 8.86 g/m*3 13.7 C 0 km/h
2880 13-09-2010 23:00:00 13.14 C 8.85 g/m*3 13.14 C 0 km/h
2881 14-09-2010 00:00:00 12.82 C 9.2 g/m*3 12.82 C 0 km/h
2882 14-09-2010 01:00:00 12.8 C 9.27 g/m*3 12.8 C 0 km/h
2883 14-09-2010 02:00:00 13.1 C 9.33 g/m*3 13.1 C 0 km/h
2884 14-09-2010 03:00:00 13.36 C 9.23 g/m*3 13.36 C 0 km/h
2885 14-09-2010 04:00:00 12.94 C 9.42 g/m*3 12.94 C 0 km/h
2886 14-09-2010 05:00:00 12.96 C 9.84 g/m*3 12.96 C 0 km/h
2887 14-09-2010 06:00:00 13.9 C 9.28 g/m*3 13.9 C 0 km/h
2888 14-09-2010 07:00:00 14.06 C 8.93 g/m*3 14.06 C 0 km/h
2889 14-09-2010 08:00:00 14.1 C 9.32 g/m*3 14.1 C 0 km/h
2890 14-09-2010 09:00:00 15.16 C 9.06 g/m*3 15.16 C 0 km/h
2891 14-09-2010 10:00:00 16.1 C 9.07 g/m*3 16.1 C 0 km/h
2892 14-09-2010 11:00:00 17.06 C 9.15 g/m*3 17.06 C 0 km/h
2893 14-09-2010 12:00:00 18.44 C 9.18 g/m*3 18.44 C 0 km/h
2894 14-09-2010 13:00:00 19.98 C 9.22 g/m*3 19.98 C 0 km/h
2895 14-09-2010 14:00:00 19.66 C 8.84 g/m*3 19.66 C 0 km/h
2896 14-09-2010 15:00:00 20.4 C 8.63 g/m*3 20.4 C 0 km/h
2897 14-09-2010 16:00:00 20.68 C 7.88 g/m*3 20.68 C 0 km/h
2898 14-09-2010 17:00:00 20.14 C 7.46 g/m*3 20.14 C 0 km/h
2899 14-09-2010 18:00:00 19.34 C 7.81 g/m*3 19.34 C 0 km/h
2900 14-09-2010 19:00:00 18.8 C 7.73 g/m*3 18.8 C 0 km/h
Sensor: Nr:Datum:Temp:Abs-Feuchte:Windchill:Wind:
Aussen-T/F 2901 14-09-2010 20:00:00 18.6 C 7.7 g/m*3 18.6 C 0 km/h
2902 14-09-2010 21:00:00 18.54 C 7.77 g/m*3 18.54 C 0 km/h
2903 14-09-2010 22:00:00 18.5 C 7.83 g/m*3 18.5 C 0 km/h
2904 14-09-2010 23:00:00 18.22 C 7.91 g/m*3 18.22 C 0 km/h
2905 15-09-2010 00:00:00 18.02 C 7.87 g/m*3 18.02 C 0 km/h
2906 15-09-2010 01:00:00 18.18 C 7.67 g/m*3 18.18 C 0 km/h
2907 15-09-2010 02:00:00 18.32 C 7.64 g/m*3 18.32 C 0 km/h
2908 15-09-2010 03:00:00 18.06 C 8.23 g/m*3 18.06 C 0 km/h
2909 15-09-2010 04:00:00 17.7 C 9.11 g/m*3 17.7 C 0 km/h
2910 15-09-2010 05:00:00 15 C 9.75 g/m*3 15 C 0 km/h
2911 15-09-2010 06:00:00 12.78 C 10.09 g/m*3 12.78 C 0 km/h
2912 15-09-2010 07:00:00 12.74 C 10.29 g/m*3 12.74 C 0 km/h
2913 15-09-2010 08:00:00 12.7 C 10.35 g/m*3 12.7 C 0 km/h
2914 15-09-2010 09:00:00 12.92 C 10.36 g/m*3 12.92 C 0 km/h
2915 15-09-2010 10:00:00 14.06 C 9.95 g/m*3 14.06 C 0 km/h
2916 15-09-2010 11:00:00 15.02 C 8.86 g/m*3 15.02 C 0 km/h
2917 15-09-2010 12:00:00 16.5 C 7.02 g/m*3 16.5 C 0 km/h
2918 15-09-2010 13:00:00 17.24 C 6.31 g/m*3 17.24 C 0 km/h
2919 15-09-2010 14:00:00 18.38 C 5.66 g/m*3 18.38 C 0 km/h
2920 15-09-2010 15:00:00 19.52 C 5.75 g/m*3 19.52 C 0 km/h
2921 15-09-2010 16:00:00 19.52 C 5.98 g/m*3 19.52 C 0 km/h
2922 15-09-2010 17:00:00 19.68 C 5.8 g/m*3 19.68 C 0 km/h
2923 15-09-2010 18:00:00 17.84 C 5.32 g/m*3 17.84 C 0 km/h
2924 15-09-2010 19:00:00 16.6 C 5.65 g/m*3 16.6 C 0 km/h
2925 15-09-2010 20:00:00 15.84 C 6.26 g/m*3 15.84 C 0 km/h
Sensor: Nr:Datum:Temp:Abs-Feuchte:Windchill:Wind:
Aussen-T/F 2926 15-09-2010 21:00:00 15.18 C 6.38 g/m*3 15.18 C 0 km/h
2927 15-09-2010 22:00:00 14.96 C 5.96 g/m*3 14.96 C 0 km/h
2928 15-09-2010 23:00:00 14.86 C 5.64 g/m*3 14.86 C 0 km/h
2929 16-09-2010 00:00:00 14.18 C 5.9 g/m*3 14.18 C 0 km/h
2930 16-09-2010 01:00:00 14.1 C 5.41 g/m*3 14.1 C 0 km/h
2931 16-09-2010 02:00:00 13.94 C 5.79 g/m*3 13.94 C 0 km/h
2932 16-09-2010 03:00:00 13.84 C 6.71 g/m*3 13.84 C 0 km/h
2933 16-09-2010 04:00:00 13.58 C 6.98 g/m*3 13.58 C 0 km/h
2934 16-09-2010 05:00:00 13.36 C 7.26 g/m*3 13.36 C 0 km/h
2935 16-09-2010 06:00:00 12.44 C 8.08 g/m*3 12.44 C 0 km/h
2936 16-09-2010 07:00:00 11.78 C 8.68 g/m*3 11.78 C 0 km/h
2937 16-09-2010 08:00:00 11.86 C 8.83 g/m*3 11.86 C 0 km/h
2938 16-09-2010 09:00:00 12.64 C 9.25 g/m*3 12.64 C 0 km/h
2939 16-09-2010 10:00:00 14.12 C 8.65 g/m*3 14.12 C 0 km/h
2940 16-09-2010 11:00:00 15.26 C 8.23 g/m*3 15.26 C 0 km/h
2941 16-09-2010 12:00:00 17.02 C 7.68 g/m*3 17.02 C 0 km/h
2942 16-09-2010 13:00:00 17.32 C 7.17 g/m*3 17.32 C 0 km/h
2943 16-09-2010 14:00:00 15.28 C 8.71 g/m*3 15.28 C 0 km/h
2944 16-09-2010 15:00:00 17.22 C 9.15 g/m*3 17.22 C 0 km/h
2945 16-09-2010 16:00:00 16.36 C 8.49 g/m*3 16.36 C 0 km/h
2946 16-09-2010 17:00:00 15.3 C 9.51 g/m*3 15.3 C 0 km/h
2947 16-09-2010 18:00:00 14.9 C 8.95 g/m*3 14.9 C 0 km/h
2948 16-09-2010 19:00:00 13.42 C 9.68 g/m*3 13.42 C 0 km/h
2949 16-09-2010 20:00:00 12.84 C 10.02 g/m*3 12.84 C 0 km/h
2950 16-09-2010 21:00:00 12.62 C 10.08 g/m*3 12.62 C 0 km/h
Sensor: Nr:Datum:Temp:Abs-Feuchte:Windchill:Wind:
Aussen-T/F 2951 16-09-2010 22:00:00 12.2 C 9.58 g/m*3 12.2 C 0 km/h
2952 16-09-2010 23:00:00 12.1 C 9.29 g/m*3 12.1 C 0 km/h
2953 17-09-2010 00:00:00 12.16 C 9.24 g/m*3 12.16 C 0 km/h
2954 17-09-2010 01:00:00 12.06 C 9.26 g/m*3 12.06 C 0 km/h
2955 17-09-2010 02:00:00 11.96 C 9.29 g/m*3 11.96 C 0 km/h
2956 17-09-2010 03:00:00 12.06 C 8.94 g/m*3 12.06 C 0 km/h
2957 17-09-2010 04:00:00 11.94 C 8.73 g/m*3 11.94 C 0 km/h
2958 17-09-2010 05:00:00 11.2 C 8.23 g/m*3 11.2 C 0 km/h
2959 17-09-2010 06:00:00 10.6 C 8.59 g/m*3 10.6 C 0 km/h
2960 17-09-2010 07:00:00 10.02 C 8.15 g/m*3 10.02 C 0 km/h
2961 17-09-2010 08:00:00 10.22 C 7.66 g/m*3 10.22 C 0 km/h
2962 17-09-2010 09:00:00 10.86 C 7.28 g/m*3 10.86 C 0 km/h
2963 17-09-2010 10:00:00 12.06 C 7.55 g/m*3 12.06 C 0 km/h
2964 17-09-2010 11:00:00 13.72 C 7.56 g/m*3 13.72 C 0 km/h
2965 17-09-2010 12:00:00 15.7 C 6.58 g/m*3 15.7 C 0 km/h
2966 17-09-2010 13:00:00 16.66 C 5.9 g/m*3 16.66 C 0 km/h
2967 17-09-2010 14:00:00 17.62 C 5.29 g/m*3 17.62 C 0 km/h
2968 17-09-2010 15:00:00 17.48 C 5.06 g/m*3 17.48 C 0 km/h
2969 17-09-2010 16:00:00 19.06 C 4.94 g/m*3 19.06 C 0 km/h
2970 17-09-2010 17:00:00 19.46 C 4.45 g/m*3 19.46 C 0 km/h
2971 17-09-2010 18:00:00 16.66 C 6.1 g/m*3 16.66 C 0 km/h
2972 17-09-2010 19:00:00 15.24 C 6.69 g/m*3 15.24 C 0 km/h
2973 17-09-2010 20:00:00 14.26 C 7.06 g/m*3 14.26 C 0 km/h
2974 17-09-2010 21:00:00 13.48 C 7.15 g/m*3 13.48 C 0 km/h
2975 17-09-2010 22:00:00 13.34 C 6.72 g/m*3 13.34 C 0 km/h
Sensor: Nr:Datum:Temp:Abs-Feuchte:Windchill:Wind:
Aussen-T/F 2976 17-09-2010 23:00:00 12.58 C 6.81 g/m*3 12.58 C 0 km/h
2977 18-09-2010 00:00:00 12.12 C 6.94 g/m*3 12.12 C 0 km/h
2978 18-09-2010 01:00:00 10.9 C 7 g/m*3 10.9 C 0 km/h
2979 18-09-2010 02:00:00 10 C 7.2 g/m*3 10 C 0 km/h
2980 18-09-2010 03:00:00 9.38 C 7.3 g/m*3 9.38 C 0 km/h
2981 18-09-2010 04:00:00 8.54 C 7.19 g/m*3 8.54 C 0 km/h
2982 18-09-2010 05:00:00 7.94 C 7.18 g/m*3 7.94 C 0 km/h
2983 18-09-2010 06:00:00 7.62 C 7.36 g/m*3 7.62 C 0 km/h
2984 18-09-2010 07:00:00 7.5 C 7.3 g/m*3 7.5 C 0 km/h
2985 18-09-2010 08:00:00 7.46 C 7.23 g/m*3 7.46 C 0 km/h
2986 18-09-2010 09:00:00 8.12 C 7.55 g/m*3 8.12 C 0 km/h
2987 18-09-2010 10:00:00 10.2 C 8.18 g/m*3 10.2 C 0 km/h
2988 18-09-2010 11:00:00 13.46 C 6.65 g/m*3 13.46 C 0 km/h
2989 18-09-2010 12:00:00 15.14 C 5.92 g/m*3 15.14 C 0 km/h
2990 18-09-2010 13:00:00 15.6 C 5.43 g/m*3 15.6 C 0 km/h
2991 18-09-2010 14:00:00 15.26 C 4.77 g/m*3 15.26 C 0 km/h
2992 18-09-2010 15:00:00 16.3 C 4.58 g/m*3 16.3 C 0 km/h
2993 18-09-2010 16:00:00 16.22 C 4.86 g/m*3 16.22 C 0 km/h
2994 18-09-2010 17:00:00 15.86 C 5.73 g/m*3 15.86 C 0 km/h
2995 18-09-2010 18:00:00 15.66 C 6.06 g/m*3 15.66 C 0 km/h
2996 18-09-2010 19:00:00 13.26 C 6.08 g/m*3 13.26 C 0 km/h
2997 18-09-2010 20:00:00 11.08 C 6.6 g/m*3 11.08 C 0 km/h
2998 18-09-2010 21:00:00 10.02 C 6.62 g/m*3 10.02 C 0 km/h
2999 18-09-2010 22:00:00 8.98 C 6.69 g/m*3 8.98 C 0 km/h
3000 18-09-2010 23:00:00 8.2 C 6.77 g/m*3 8.2 C 0 km/h
Sensor: Nr:Datum:Temp:Abs-Feuchte:Windchill:Wind:
Aussen-T/F 3001 19-09-2010 00:00:00 7.56 C 6.72 g/m*3 7.56 C 0 km/h
3002 19-09-2010 01:00:00 6.92 C 6.54 g/m*3 6.92 C 0 km/h
3003 19-09-2010 02:00:00 6.44 C 6.53 g/m*3 6.44 C 0 km/h
3004 19-09-2010 03:00:00 6.42 C 6.57 g/m*3 6.42 C 0 km/h
3005 19-09-2010 04:00:00 6.2 C 6.5 g/m*3 6.2 C 0 km/h
3006 19-09-2010 05:00:00 6.04 C 6.42 g/m*3 6.04 C 0 km/h
3007 19-09-2010 06:00:00 5.76 C 6.33 g/m*3 5.76 C 0 km/h
3008 19-09-2010 07:00:00 6 C 6.46 g/m*3 6 C 0 km/h
3009 19-09-2010 08:00:00 6.96 C 6.79 g/m*3 6.96 C 0 km/h
3010 19-09-2010 09:00:00 8.12 C 6.98 g/m*3 8.12 C 0 km/h
3011 19-09-2010 10:00:00 10.72 C 6.69 g/m*3 10.72 C 0 km/h
3012 19-09-2010 11:00:00 12.92 C 6.27 g/m*3 12.92 C 0 km/h
3013 19-09-2010 12:00:00 14.94 C 5.67 g/m*3 14.94 C 0 km/h
3014 19-09-2010 13:00:00 16.12 C 5.54 g/m*3 16.12 C 0 km/h
3015 19-09-2010 14:00:00 17.38 C 5.68 g/m*3 17.38 C 0 km/h
3016 19-09-2010 15:00:00 18.62 C 5.45 g/m*3 18.62 C 0 km/h
3017 19-09-2010 16:00:00 19.04 C 5.29 g/m*3 19.04 C 0 km/h
3018 19-09-2010 17:00:00 18.78 C 5.69 g/m*3 18.78 C 0 km/h
3019 19-09-2010 18:00:00 17.08 C 5.99 g/m*3 17.08 C 0 km/h
3020 19-09-2010 19:00:00 15.78 C 5.97 g/m*3 15.78 C 0 km/h
3021 19-09-2010 20:00:00 14.46 C 6.3 g/m*3 14.46 C 0 km/h
3022 19-09-2010 21:00:00 13.96 C 6.62 g/m*3 13.96 C 0 km/h
3023 19-09-2010 22:00:00 13.32 C 6.78 g/m*3 13.32 C 0 km/h
3024 19-09-2010 23:00:00 12.28 C 6.77 g/m*3 12.28 C 0 km/h
3025 20-09-2010 00:00:00 11.68 C 6.87 g/m*3 11.68 C 0 km/h
Sensor: Nr:Datum:Temp:Abs-Feuchte:Windchill:Wind:
Aussen-T/F 3026 20-09-2010 01:00:00 10.44 C 6.78 g/m*3 10.44 C 0 km/h
3027 20-09-2010 02:00:00 9.84 C 6.88 g/m*3 9.84 C 0 km/h
3028 20-09-2010 03:00:00 9.64 C 7.02 g/m*3 9.64 C 0 km/h
3029 20-09-2010 04:00:00 8.98 C 6.89 g/m*3 8.98 C 0 km/h
3030 20-09-2010 05:00:00 8.32 C 6.89 g/m*3 8.32 C 0 km/h
3031 20-09-2010 06:00:00 8.48 C 7.03 g/m*3 8.48 C 0 km/h
3032 20-09-2010 07:00:00 8.52 C 7.1 g/m*3 8.52 C 0 km/h
3033 20-09-2010 08:00:00 9.18 C 6.87 g/m*3 9.18 C 0 km/h
3034 20-09-2010 09:00:00 9.84 C 6.92 g/m*3 9.84 C 0 km/h
3035 20-09-2010 10:00:00 12.4 C 7.21 g/m*3 12.4 C 0 km/h
3036 20-09-2010 11:00:00 14.62 C 6.99 g/m*3 14.62 C 0 km/h
3037 20-09-2010 12:00:00 16.26 C 6.34 g/m*3 16.26 C 0 km/h
3038 20-09-2010 13:00:00 18.02 C 6.12 g/m*3 18.02 C 0 km/h
3039 20-09-2010 14:00:00 20.02 C 5.81 g/m*3 20.02 C 0 km/h
3040 20-09-2010 15:00:00 21.42 C 5.86 g/m*3 21.42 C 0 km/h
3041 20-09-2010 16:00:00 22.46 C 6.22 g/m*3 22.46 C 0 km/h
3042 20-09-2010 17:00:00 22.28 C 6.11 g/m*3 22.28 C 0 km/h
3043 20-09-2010 18:00:00 21.3 C 6.67 g/m*3 21.3 C 0 km/h
3044 20-09-2010 19:00:00 17.5 C 7.19 g/m*3 17.5 C 0 km/h
3045 20-09-2010 20:00:00 15.34 C 7.54 g/m*3 15.34 C 0 km/h
3046 20-09-2010 21:00:00 14.2 C 7.72 g/m*3 14.2 C 0 km/h
3047 20-09-2010 22:00:00 13.22 C 8.07 g/m*3 13.22 C 0 km/h
3048 20-09-2010 23:00:00 12.28 C 8.05 g/m*3 12.28 C 0 km/h
3049 21-09-2010 00:00:00 11.52 C 7.88 g/m*3 11.52 C 0 km/h
3050 21-09-2010 01:00:00 10.9 C 7.8 g/m*3 10.9 C 0 km/h
Sensor: Nr:Datum:Temp:Abs-Feuchte:Windchill:Wind:
Aussen-T/F 3051 21-09-2010 02:00:00 10.24 C 7.69 g/m*3 10.24 C 0 km/h
3052 21-09-2010 03:00:00 9.74 C 7.71 g/m*3 9.74 C 0 km/h
3053 21-09-2010 04:00:00 9.22 C 7.51 g/m*3 9.22 C 0 km/h
3054 21-09-2010 05:00:00 8.78 C 7.46 g/m*3 8.78 C 0 km/h
3055 21-09-2010 06:00:00 8.34 C 7.37 g/m*3 8.34 C 0 km/h
3056 21-09-2010 07:00:00 8.14 C 7.34 g/m*3 8.14 C 0 km/h
3057 21-09-2010 08:00:00 8.26 C 7.53 g/m*3 8.26 C 0 km/h
3058 21-09-2010 09:00:00 9.18 C 7.97 g/m*3 9.18 C 0 km/h
3059 21-09-2010 10:00:00 11.12 C 8.71 g/m*3 11.12 C 0 km/h
3060 21-09-2010 11:00:00 14.12 C 8.65 g/m*3 14.12 C 0 km/h
3061 21-09-2010 12:00:00 16.14 C 8.99 g/m*3 16.14 C 0 km/h
3062 21-09-2010 13:00:00 17.02 C 9.65 g/m*3 17.02 C 0 km/h
3063 21-09-2010 14:00:00 17.82 C 9.48 g/m*3 17.82 C 0 km/h
3064 21-09-2010 15:00:00 23.12 C 8.2 g/m*3 23.12 C 0 km/h
3065 21-09-2010 16:00:00 25.16 C 7.62 g/m*3 25.16 C 0 km/h
3066 21-09-2010 17:00:00 24.6 C 7.56 g/m*3 24.6 C 0 km/h
3067 21-09-2010 18:00:00 22.18 C 7.88 g/m*3 22.18 C 0 km/h
3068 21-09-2010 19:00:00 18.64 C 8.36 g/m*3 18.64 C 0 km/h
3069 21-09-2010 20:00:00 16.3 C 8.52 g/m*3 16.3 C 0 km/h
3070 21-09-2010 21:00:00 15.06 C 8.49 g/m*3 15.06 C 0 km/h
3071 21-09-2010 22:00:00 13.9 C 8.51 g/m*3 13.9 C 0 km/h
3072 21-09-2010 23:00:00 12.98 C 8.54 g/m*3 12.98 C 0 km/h
3073 22-09-2010 00:00:00 12.2 C 8.55 g/m*3 12.2 C 0 km/h
3074 22-09-2010 01:00:00 11.5 C 8.41 g/m*3 11.5 C 0 km/h
3075 22-09-2010 02:00:00 10.78 C 8.15 g/m*3 10.78 C 0 km/h
Sensor: Nr:Datum:Temp:Abs-Feuchte:Windchill:Wind:
Aussen-T/F 3076 22-09-2010 03:00:00 10.22 C 8 g/m*3 10.22 C 0 km/h
3077 22-09-2010 04:00:00 9.72 C 7.94 g/m*3 9.72 C 0 km/h
3078 22-09-2010 05:00:00 9.84 C 8.15 g/m*3 9.84 C 0 km/h
3079 22-09-2010 06:00:00 9.78 C 8.15 g/m*3 9.78 C 0 km/h
3080 22-09-2010 07:00:00 9.56 C 8.04 g/m*3 9.56 C 0 km/h
3081 22-09-2010 08:00:00 9.36 C 7.96 g/m*3 9.36 C 0 km/h
3082 22-09-2010 09:00:00 10.18 C 8.15 g/m*3 10.18 C 0 km/h
3083 22-09-2010 10:00:00 12.42 C 8.64 g/m*3 12.42 C 0 km/h
3084 22-09-2010 11:00:00 13.78 C 9.19 g/m*3 13.78 C 0 km/h
3085 22-09-2010 12:00:00 16.54 C 9.97 g/m*3 16.54 C 0 km/h
3086 22-09-2010 13:00:00 19.76 C 10.09 g/m*3 19.76 C 0 km/h
3087 22-09-2010 14:00:00 22.86 C 10.07 g/m*3 22.86 C 0 km/h
3088 22-09-2010 15:00:00 25.06 C 9.29 g/m*3 25.06 C 0 km/h
3089 22-09-2010 16:00:00 27.32 C 8.59 g/m*3 27.32 C 0 km/h
3090 22-09-2010 17:00:00 27.06 C 8.16 g/m*3 27.06 C 0 km/h
3091 22-09-2010 18:00:00 24.88 C 9.1 g/m*3 24.88 C 0 km/h
3092 22-09-2010 19:00:00 20.88 C 9.2 g/m*3 20.88 C 0 km/h
3093 22-09-2010 20:00:00 18.54 C 9.1 g/m*3 18.54 C 0 km/h
3094 22-09-2010 21:00:00 17.46 C 9.31 g/m*3 17.46 C 0 km/h
3095 22-09-2010 22:00:00 16.18 C 9.26 g/m*3 16.18 C 0 km/h
3096 22-09-2010 23:00:00 14.92 C 8.78 g/m*3 14.92 C 0 km/h
3097 23-09-2010 00:00:00 14.02 C 8.65 g/m*3 14.02 C 0 km/h
3098 23-09-2010 01:00:00 13.22 C 8.71 g/m*3 13.22 C 0 km/h
3099 23-09-2010 02:00:00 12.44 C 8.7 g/m*3 12.44 C 0 km/h
3100 23-09-2010 03:00:00 11.8 C 8.57 g/m*3 11.8 C 0 km/h
Sensor: Nr:Datum:Temp:Abs-Feuchte:Windchill:Wind:
Aussen-T/F 3101 23-09-2010 04:00:00 11.16 C 8.39 g/m*3 11.16 C 0 km/h
3102 23-09-2010 05:00:00 10.64 C 8.22 g/m*3 10.64 C 0 km/h
3103 23-09-2010 06:00:00 10.46 C 8.2 g/m*3 10.46 C 0 km/h
3104 23-09-2010 07:00:00 10.52 C 8.25 g/m*3 10.52 C 0 km/h
3105 23-09-2010 08:00:00 10.88 C 8.42 g/m*3 10.88 C 0 km/h
3106 23-09-2010 09:00:00 11.64 C 8.65 g/m*3 11.64 C 0 km/h
3107 23-09-2010 10:00:00 12.98 C 9.24 g/m*3 12.98 C 0 km/h
3108 23-09-2010 11:00:00 15.64 C 10.08 g/m*3 15.64 C 0 km/h
3109 23-09-2010 12:00:00 18.66 C 10.61 g/m*3 18.66 C 0 km/h
3110 23-09-2010 13:00:00 22.3 C 10.7 g/m*3 22.3 C 0 km/h
3111 23-09-2010 14:00:00 24.06 C 10.22 g/m*3 24.06 C 0 km/h
3112 23-09-2010 15:00:00 25.04 C 9.37 g/m*3 25.04 C 0 km/h
3113 23-09-2010 16:00:00 25.14 C 9.88 g/m*3 25.14 C 0 km/h
3114 23-09-2010 17:00:00 23.48 C 10.73 g/m*3 23.48 C 0 km/h
3115 23-09-2010 18:00:00 22.12 C 10.63 g/m*3 22.12 C 0 km/h
3116 23-09-2010 19:00:00 19.9 C 11.06 g/m*3 19.9 C 0 km/h
3117 23-09-2010 20:00:00 18.5 C 11.3 g/m*3 18.5 C 0 km/h
3118 23-09-2010 21:00:00 18.5 C 11.49 g/m*3 18.5 C 0 km/h
3119 23-09-2010 22:00:00 17.94 C 11.82 g/m*3 17.94 C 0 km/h
3120 23-09-2010 23:00:00 16.44 C 12.26 g/m*3 16.44 C 0 km/h
3121 24-09-2010 00:00:00 15.7 C 12.18 g/m*3 15.7 C 0 km/h
3122 24-09-2010 01:00:00 15.54 C 12.3 g/m*3 15.54 C 0 km/h
3123 24-09-2010 02:00:00 15.38 C 12.15 g/m*3 15.38 C 0 km/h
3124 24-09-2010 03:00:00 14.94 C 11.91 g/m*3 14.94 C 0 km/h
3125 24-09-2010 04:00:00 14.78 C 11.89 g/m*3 14.78 C 0 km/h
Sensor: Nr:Datum:Temp:Abs-Feuchte:Windchill:Wind:
Aussen-T/F 3126 24-09-2010 05:00:00 14.54 C 11.72 g/m*3 14.54 C 0 km/h
3127 24-09-2010 06:00:00 14.7 C 11.83 g/m*3 14.7 C 0 km/h
3128 24-09-2010 07:00:00 14.4 C 11.62 g/m*3 14.4 C 0 km/h
3129 24-09-2010 08:00:00 14.58 C 11.82 g/m*3 14.58 C 0 km/h
3130 24-09-2010 09:00:00 14.88 C 12.07 g/m*3 14.88 C 0 km/h
3131 24-09-2010 10:00:00 14.98 C 12.06 g/m*3 14.98 C 0 km/h
3132 24-09-2010 11:00:00 15.22 C 12.22 g/m*3 15.22 C 0 km/h
3133 24-09-2010 12:00:00 15.14 C 12.18 g/m*3 15.14 C 0 km/h
3134 24-09-2010 13:00:00 14.56 C 11.73 g/m*3 14.56 C 0 km/h
3135 24-09-2010 14:00:00 13.54 C 11.02 g/m*3 13.54 C 0 km/h
3136 24-09-2010 15:00:00 13.08 C 10.8 g/m*3 13.08 C 0 km/h
3137 24-09-2010 16:00:00 13.8 C 11.32 g/m*3 13.8 C 0 km/h
3138 24-09-2010 17:00:00 13.48 C 11.03 g/m*3 13.48 C 0 km/h
3139 24-09-2010 18:00:00 13.26 C 10.83 g/m*3 13.26 C 0 km/h
3140 24-09-2010 19:00:00 12.84 C 10.64 g/m*3 12.84 C 0 km/h
3141 24-09-2010 20:00:00 12.7 C 10.58 g/m*3 12.7 C 0 km/h
3142 24-09-2010 21:00:00 12.82 C 10.65 g/m*3 12.82 C 0 km/h
3143 24-09-2010 22:00:00 12.7 C 10.58 g/m*3 12.7 C 0 km/h
3144 24-09-2010 23:00:00 12.4 C 10.38 g/m*3 12.4 C 0 km/h
3145 25-09-2010 00:00:00 12.48 C 10.43 g/m*3 12.48 C 0 km/h
3146 25-09-2010 01:00:00 12.52 C 10.46 g/m*3 12.52 C 0 km/h
3147 25-09-2010 02:00:00 12.6 C 10.51 g/m*3 12.6 C 0 km/h
3148 25-09-2010 03:00:00 12.62 C 10.52 g/m*3 12.62 C 0 km/h
3149 25-09-2010 04:00:00 12.54 C 10.47 g/m*3 12.54 C 0 km/h
3150 25-09-2010 05:00:00 12.38 C 10.35 g/m*3 12.38 C 0 km/h
Sensor: Nr:Datum:Temp:Abs-Feuchte:Windchill:Wind:
Aussen-T/F 3151 25-09-2010 06:00:00 12.06 C 10.06 g/m*3 12.06 C 0 km/h
3152 25-09-2010 07:00:00 11.88 C 9.94 g/m*3 11.88 C 0 km/h
3153 25-09-2010 08:00:00 11.26 C 9.5 g/m*3 11.26 C 0 km/h
3154 25-09-2010 09:00:00 10.48 C 8.81 g/m*3 10.48 C 0 km/h
3155 25-09-2010 10:00:00 11.04 C 8.25 g/m*3 11.04 C 0 km/h
3156 25-09-2010 11:00:00 12.3 C 7.45 g/m*3 12.3 C 0 km/h
3157 25-09-2010 12:00:00 12.44 C 6.9 g/m*3 12.44 C 0 km/h
3158 25-09-2010 13:00:00 13.26 C 6.04 g/m*3 13.26 C 0 km/h
3159 25-09-2010 14:00:00 14.24 C 5.36 g/m*3 14.24 C 0 km/h
3160 25-09-2010 15:00:00 15.04 C 4.68 g/m*3 15.04 C 0 km/h
3161 25-09-2010 16:00:00 14.72 C 4.97 g/m*3 14.72 C 0 km/h
3162 25-09-2010 17:00:00 15.6 C 5.08 g/m*3 15.6 C 0 km/h
3163 25-09-2010 18:00:00 14.22 C 5.06 g/m*3 14.22 C 0 km/h
3164 25-09-2010 19:00:00 12.98 C 5.75 g/m*3 12.98 C 0 km/h
3165 25-09-2010 20:00:00 11.7 C 5.88 g/m*3 11.7 C 0 km/h
3166 25-09-2010 21:00:00 10.12 C 6.31 g/m*3 10.12 C 0 km/h
3167 25-09-2010 22:00:00 10.28 C 6.68 g/m*3 10.28 C 0 km/h
3168 25-09-2010 23:00:00 9.28 C 7.4 g/m*3 9.28 C 0 km/h
3169 26-09-2010 00:00:00 9.44 C 7.76 g/m*3 9.44 C 0 km/h
3170 26-09-2010 01:00:00 9.48 C 7.24 g/m*3 9.48 C 0 km/h
3171 26-09-2010 02:00:00 9.42 C 7.05 g/m*3 9.42 C 0 km/h
3172 26-09-2010 03:00:00 9.2 C 7.07 g/m*3 9.2 C 0 km/h
3173 26-09-2010 04:00:00 8.88 C 7.28 g/m*3 8.88 C 0 km/h
3174 26-09-2010 05:00:00 9.02 C 7.33 g/m*3 9.02 C 0 km/h
3175 26-09-2010 06:00:00 8.9 C 7.38 g/m*3 8.9 C 0 km/h
Sensor: Nr:Datum:Temp:Abs-Feuchte:Windchill:Wind:
Aussen-T/F 3176 26-09-2010 07:00:00 8.8 C 7.45 g/m*3 8.8 C 0 km/h
3177 26-09-2010 08:00:00 9.62 C 7.3 g/m*3 9.62 C 0 km/h
3178 26-09-2010 09:00:00 10.26 C 7.18 g/m*3 10.26 C 0 km/h
3179 26-09-2010 10:00:00 11.84 C 6.75 g/m*3 11.84 C 0 km/h
3180 26-09-2010 11:00:00 13.22 C 6.44 g/m*3 13.22 C 0 km/h
3181 26-09-2010 12:00:00 14.48 C 6.39 g/m*3 14.48 C 0 km/h
3182 26-09-2010 13:00:00 13 C 7.58 g/m*3 13 C 0 km/h
3183 26-09-2010 14:00:00 13.3 C 8.3 g/m*3 13.3 C 0 km/h
3184 26-09-2010 15:00:00 14.18 C 8.12 g/m*3 14.18 C 0 km/h
3185 26-09-2010 16:00:00 14.92 C 7.04 g/m*3 14.92 C 0 km/h
3186 26-09-2010 17:00:00 15.18 C 6.61 g/m*3 15.18 C 0 km/h
3187 26-09-2010 18:00:00 12.96 C 6.95 g/m*3 12.96 C 0 km/h
3188 26-09-2010 19:00:00 12.24 C 7.1 g/m*3 12.24 C 0 km/h
3189 26-09-2010 20:00:00 11.78 C 7.21 g/m*3 11.78 C 0 km/h
3190 26-09-2010 21:00:00 11.16 C 7.12 g/m*3 11.16 C 0 km/h
3191 26-09-2010 22:00:00 9.7 C 7.06 g/m*3 9.7 C 0 km/h
3192 26-09-2010 23:00:00 8.84 C 7.17 g/m*3 8.84 C 0 km/h
3193 27-09-2010 00:00:00 8.12 C 7.07 g/m*3 8.12 C 0 km/h
3194 27-09-2010 01:00:00 7.46 C 7.04 g/m*3 7.46 C 0 km/h
3195 27-09-2010 02:00:00 6.84 C 6.86 g/m*3 6.84 C 0 km/h
3196 27-09-2010 03:00:00 6.46 C 6.75 g/m*3 6.46 C 0 km/h
3197 27-09-2010 04:00:00 6.24 C 6.8 g/m*3 6.24 C 0 km/h
3198 27-09-2010 05:00:00 6.24 C 6.83 g/m*3 6.24 C 0 km/h
3199 27-09-2010 06:00:00 6.32 C 6.89 g/m*3 6.32 C 0 km/h
3200 27-09-2010 07:00:00 6.74 C 7.13 g/m*3 6.74 C 0 km/h
Sensor: Nr:Datum:Temp:Abs-Feuchte:Windchill:Wind:
Aussen-T/F 3201 27-09-2010 08:00:00 7.7 C 7.61 g/m*3 7.7 C 0 km/h
3202 27-09-2010 09:00:00 9.24 C 8.2 g/m*3 9.24 C 0 km/h
3203 27-09-2010 10:00:00 10.76 C 7.57 g/m*3 10.76 C 0 km/h
3204 27-09-2010 11:00:00